PWSweather.com
Personal Weather Stations
Station Observations
HVALPSUND
Hvalpsund, FarsoeDK 9640

HvalpsundFarsoeDK 9640

Lat: 56.705311, Lon: 9.203638

Elevation: 5

Station Type: Vantage Pro2

http://hvalpsundvejr.dk

Latest ConditionsUpdated 8:54:00 PM GMT+01:01 Sunday, Nov 19, 2017
Currently Today's Max Today's Min Today's Average
Temperature 35.7°F2.1°C 45.8°F7.7°C 35.4°F1.9°C 42.0°F5.6°C
Dew Point 29.5°F-1.4°C 40.6°F4.8°C 29.5°F-1.4°C 35.3°F1.8°C
Winds 5.4 mph SW8.7 kmh SW 31.8 mph NNW51.2 kmh NNW - 19.0 mph 30.6 kmh
Wind Gusts 6.0 mph9.7 kmh 38.0 mph61.2 kmh - -
Humidity 78% 86% 69% 77%
Pressure 29.77 in1008.1 mb 29.77 in1008.1 mb 29.36 in994.2 mb -
Hour Temp Dew Point Humidity Winds Wind Gusts Pressure Precip Precip Rate Daily Precip Total
08:54 PM 35.7°F2.1°C 29.5°F-1.4°C 78% 5.4 mph SW8.7 kmh SW 6.0 mph9.7 kmh 29.77 in1008.1 mb 0.00 in0.0 mm 0.00 in0.0 mm 0.00 in0.0 mm
08:53 PM 35.7°F2.1°C 29.5°F-1.4°C 78% 5.3 mph SW8.5 kmh SW 6.0 mph9.7 kmh 29.77 in1008.1 mb 0.00 in0.0 mm 0.00 in0.0 mm 0.00 in0.0 mm
08:52 PM 35.7°F2.1°C 29.5°F-1.4°C 78% 4.9 mph SW7.9 kmh SW 6.0 mph9.7 kmh 29.77 in1008.1 mb 0.00 in0.0 mm 0.00 in0.0 mm 0.00 in0.0 mm
08:51 PM 35.7°F2.1°C 29.5°F-1.4°C 78% 4.8 mph SW7.7 kmh SW 6.0 mph9.7 kmh 29.77 in1008.1 mb 0.00 in0.0 mm 0.00 in0.0 mm 0.00 in0.0 mm
08:50 PM 35.8°F2.1°C 29.6°F-1.3°C 78% 4.9 mph SW7.9 kmh SW 5.0 mph8.0 kmh 29.77 in1008.1 mb 0.00 in0.0 mm 0.00 in0.0 mm 0.00 in0.0 mm
08:49 PM 35.8°F2.1°C 29.6°F-1.3°C 78% 4.4 mph SW7.1 kmh SW 5.0 mph8.0 kmh 29.77 in1008.1 mb 0.00 in0.0 mm 0.00 in0.0 mm 0.00 in0.0 mm
08:48 PM 35.8°F2.1°C 29.6°F-1.3°C 78% 4.4 mph SW7.1 kmh SW 5.0 mph8.0 kmh 29.77 in1008.1 mb 0.00 in0.0 mm 0.00 in0.0 mm 0.00 in0.0 mm
08:47 PM 35.9°F2.2°C 29.7°F-1.3°C 78% 4.4 mph SW7.1 kmh SW 5.0 mph8.0 kmh 29.77 in1008.1 mb 0.00 in0.0 mm 0.00 in0.0 mm 0.00 in0.0 mm
08:46 PM 35.9°F2.2°C 29.7°F-1.3°C 78% 4.6 mph SW7.4 kmh SW 5.0 mph8.0 kmh 29.77 in1008.1 mb 0.00 in0.0 mm 0.00 in0.0 mm 0.00 in0.0 mm
08:45 PM 35.9°F2.2°C 29.7°F-1.3°C 78% 4.7 mph SW7.6 kmh SW 5.0 mph8.0 kmh 29.77 in1008.1 mb 0.00 in0.0 mm 0.00 in0.0 mm 0.00 in0.0 mm
08:44 PM 35.9°F2.2°C 29.7°F-1.3°C 78% 4.7 mph SW7.6 kmh SW 6.0 mph9.7 kmh 29.77 in1008.1 mb 0.00 in0.0 mm 0.00 in0.0 mm 0.00 in0.0 mm
08:43 PM 35.9°F2.2°C 29.7°F-1.3°C 78% 5.1 mph SW8.2 kmh SW 6.0 mph9.7 kmh 29.77 in1008.1 mb 0.00 in0.0 mm 0.00 in0.0 mm 0.00 in0.0 mm
08:42 PM 36.0°F2.2°C 29.8°F-1.2°C 78% 4.5 mph SW7.2 kmh SW 6.0 mph9.7 kmh 29.77 in1008.1 mb 0.00 in0.0 mm 0.00 in0.0 mm 0.00 in0.0 mm
08:41 PM 35.9°F2.2°C 29.7°F-1.3°C 78% 4.9 mph SW7.9 kmh SW 6.0 mph9.7 kmh 29.77 in1008.1 mb 0.00 in0.0 mm 0.00 in0.0 mm 0.00 in0.0 mm
08:40 PM 36.0°F2.2°C 29.8°F-1.2°C 78% 4.8 mph SW7.7 kmh SW 6.0 mph9.7 kmh 29.77 in1008.1 mb 0.00 in0.0 mm 0.00 in0.0 mm 0.00 in0.0 mm
08:39 PM 36.0°F2.2°C 29.8°F-1.2°C 78% 4.5 mph SW7.2 kmh SW 6.0 mph9.7 kmh 29.77 in1008.1 mb 0.00 in0.0 mm 0.00 in0.0 mm 0.00 in0.0 mm
08:38 PM 36.0°F2.2°C 29.8°F-1.2°C 78% 4.7 mph SW7.6 kmh SW 6.0 mph9.7 kmh 29.77 in1008.1 mb 0.00 in0.0 mm 0.00 in0.0 mm 0.00 in0.0 mm
08:37 PM 36.0°F2.2°C 29.8°F-1.2°C 78% 4.4 mph SW7.1 kmh SW 5.0 mph8.0 kmh 29.77 in1008.1 mb 0.00 in0.0 mm 0.00 in0.0 mm 0.00 in0.0 mm
08:36 PM 36.1°F2.3°C 29.9°F-1.2°C 78% 4.5 mph SW7.2 kmh SW 5.0 mph8.0 kmh 29.77 in1008.1 mb 0.00 in0.0 mm 0.00 in0.0 mm 0.00 in0.0 mm
08:35 PM 36.1°F2.3°C 29.9°F-1.2°C 78% 3.9 mph SW6.3 kmh SW 5.0 mph8.0 kmh 29.77 in1008.1 mb 0.00 in0.0 mm 0.00 in0.0 mm 0.00 in0.0 mm
08:34 PM 36.1°F2.3°C 29.9°F-1.2°C 78% 3.9 mph SW6.3 kmh SW 5.0 mph8.0 kmh 29.77 in1008.1 mb 0.00 in0.0 mm 0.00 in0.0 mm 0.00 in0.0 mm
08:33 PM 36.2°F2.3°C 30.0°F-1.1°C 78% 3.7 mph SW6.0 kmh SW 5.0 mph8.0 kmh 29.77 in1008.1 mb 0.00 in0.0 mm 0.00 in0.0 mm 0.00 in0.0 mm
08:32 PM 36.2°F2.3°C 30.0°F-1.1°C 78% 3.9 mph SW6.3 kmh SW 5.0 mph8.0 kmh 29.77 in1008.1 mb 0.00 in0.0 mm 0.00 in0.0 mm 0.00 in0.0 mm
08:31 PM 36.2°F2.3°C 30.3°F-0.9°C 79% 4.0 mph SW6.4 kmh SW 5.0 mph8.0 kmh 29.77 in1008.1 mb 0.00 in0.0 mm 0.00 in0.0 mm 0.00 in0.0 mm
08:30 PM 36.2°F2.3°C 30.3°F-0.9°C 79% 4.1 mph SW6.6 kmh SW 5.0 mph8.0 kmh 29.77 in1008.1 mb 0.00 in0.0 mm 0.00 in0.0 mm 0.00 in0.0 mm
08:29 PM 36.2°F2.3°C 30.3°F-0.9°C 79% 4.1 mph SW6.6 kmh SW 5.0 mph8.0 kmh 29.77 in1008.1 mb 0.00 in0.0 mm 0.00 in0.0 mm 0.00 in0.0 mm
08:28 PM 36.2°F2.3°C 30.3°F-0.9°C 79% 4.8 mph SW7.7 kmh SW 5.0 mph8.0 kmh 29.77 in1008.1 mb 0.00 in0.0 mm 0.00 in0.0 mm 0.00 in0.0 mm
08:27 PM 36.3°F2.4°C 30.4°F-0.9°C 79% 5.0 mph SW8.0 kmh SW 7.0 mph11.3 kmh 29.77 in1008.1 mb 0.00 in0.0 mm 0.00 in0.0 mm 0.00 in0.0 mm
08:26 PM 36.3°F2.4°C 30.4°F-0.9°C 79% 5.2 mph SW8.4 kmh SW 7.0 mph11.3 kmh 29.77 in1008.1 mb 0.00 in0.0 mm 0.00 in0.0 mm 0.00 in0.0 mm
08:25 PM 36.2°F2.3°C 30.3°F-0.9°C 79% 5.5 mph SW8.9 kmh SW 7.0 mph11.3 kmh 29.77 in1008.1 mb 0.00 in0.0 mm 0.00 in0.0 mm 0.00 in0.0 mm
08:24 PM 36.2°F2.3°C 30.3°F-0.9°C 79% 5.9 mph SW9.5 kmh SW 7.0 mph11.3 kmh 29.77 in1008.1 mb 0.00 in0.0 mm 0.00 in0.0 mm 0.00 in0.0 mm
08:23 PM 36.1°F2.3°C 30.2°F-1.0°C 79% 6.1 mph SW9.8 kmh SW 7.0 mph11.3 kmh 29.77 in1008.1 mb 0.00 in0.0 mm 0.00 in0.0 mm 0.00 in0.0 mm
08:22 PM 36.0°F2.2°C 30.1°F-1.1°C 79% 6.0 mph SW9.7 kmh SW 7.0 mph11.3 kmh 29.77 in1008.1 mb 0.00 in0.0 mm 0.00 in0.0 mm 0.00 in0.0 mm
08:21 PM 35.9°F2.2°C 30.3°F-0.9°C 80% 5.5 mph SW8.9 kmh SW 6.0 mph9.7 kmh 29.77 in1008.1 mb 0.00 in0.0 mm 0.00 in0.0 mm 0.00 in0.0 mm
08:20 PM 35.8°F2.1°C 30.2°F-1.0°C 80% 4.9 mph SW7.9 kmh SW 6.0 mph9.7 kmh 29.77 in1008.1 mb 0.00 in0.0 mm 0.00 in0.0 mm 0.00 in0.0 mm
08:19 PM 35.7°F2.1°C 30.1°F-1.1°C 80% 4.5 mph SW7.2 kmh SW 6.0 mph9.7 kmh 29.77 in1008.1 mb 0.00 in0.0 mm 0.00 in0.0 mm 0.00 in0.0 mm
08:18 PM 35.5°F1.9°C 30.0°F-1.1°C 80% 4.3 mph SW6.9 kmh SW 5.0 mph8.0 kmh 29.77 in1008.1 mb 0.00 in0.0 mm 0.00 in0.0 mm 0.00 in0.0 mm
08:17 PM 35.5°F1.9°C 30.3°F-0.9°C 81% 3.9 mph SW6.3 kmh SW 5.0 mph8.0 kmh 29.77 in1008.1 mb 0.00 in0.0 mm 0.00 in0.0 mm 0.00 in0.0 mm
08:16 PM 35.5°F1.9°C 30.3°F-0.9°C 81% 3.7 mph SW6.0 kmh SW 5.0 mph8.0 kmh 29.77 in1008.1 mb 0.00 in0.0 mm 0.00 in0.0 mm 0.00 in0.0 mm
08:15 PM 35.5°F1.9°C 30.3°F-0.9°C 81% 4.0 mph SW6.4 kmh SW 5.0 mph8.0 kmh 29.77 in1008.1 mb 0.00 in0.0 mm 0.00 in0.0 mm 0.00 in0.0 mm
08:14 PM 35.4°F1.9°C 29.9°F-1.2°C 80% 3.5 mph SW5.6 kmh SW 4.0 mph6.4 kmh 29.77 in1008.1 mb 0.00 in0.0 mm 0.00 in0.0 mm 0.00 in0.0 mm
08:13 PM 35.5°F1.9°C 30.0°F-1.1°C 80% 3.8 mph SW6.1 kmh SW 4.0 mph6.4 kmh 29.77 in1008.1 mb 0.00 in0.0 mm 0.00 in0.0 mm 0.00 in0.0 mm
08:12 PM 35.5°F1.9°C 30.0°F-1.1°C 80% 3.5 mph SW5.6 kmh SW 4.0 mph6.4 kmh 29.77 in1008.1 mb 0.00 in0.0 mm 0.00 in0.0 mm 0.00 in0.0 mm
08:11 PM 35.5°F1.9°C 30.0°F-1.1°C 80% 3.5 mph SW5.6 kmh SW 4.0 mph6.4 kmh 29.77 in1008.1 mb 0.00 in0.0 mm 0.00 in0.0 mm 0.00 in0.0 mm
08:10 PM 35.5°F1.9°C 30.0°F-1.1°C 80% 2.9 mph SW4.7 kmh SW 4.0 mph6.4 kmh 29.77 in1008.1 mb 0.00 in0.0 mm 0.00 in0.0 mm 0.00 in0.0 mm
08:09 PM 35.5°F1.9°C 30.0°F-1.1°C 80% 3.1 mph SW5.0 kmh SW 4.0 mph6.4 kmh 29.77 in1008.1 mb 0.00 in0.0 mm 0.00 in0.0 mm 0.00 in0.0 mm
08:08 PM 35.6°F2.0°C 30.1°F-1.1°C 80% 3.3 mph SW5.3 kmh SW 4.0 mph6.4 kmh 29.77 in1008.1 mb 0.00 in0.0 mm 0.00 in0.0 mm 0.00 in0.0 mm
08:07 PM 35.6°F2.0°C 30.1°F-1.1°C 80% 3.0 mph SW4.8 kmh SW 4.0 mph6.4 kmh 29.77 in1008.1 mb 0.00 in0.0 mm 0.00 in0.0 mm 0.00 in0.0 mm
08:06 PM 35.6°F2.0°C 30.1°F-1.1°C 80% 2.7 mph SW4.3 kmh SW 4.0 mph6.4 kmh 29.77 in1008.1 mb 0.00 in0.0 mm 0.00 in0.0 mm 0.00 in0.0 mm
08:05 PM 35.6°F2.0°C 30.1°F-1.1°C 80% 2.7 mph SW4.3 kmh SW 4.0 mph6.4 kmh 29.77 in1008.1 mb 0.00 in0.0 mm 0.00 in0.0 mm 0.00 in0.0 mm
08:04 PM 35.7°F2.1°C 30.1°F-1.1°C 80% 2.8 mph SW4.5 kmh SW 4.0 mph6.4 kmh 29.77 in1008.1 mb 0.00 in0.0 mm 0.00 in0.0 mm 0.00 in0.0 mm
08:03 PM 35.7°F2.1°C 30.1°F-1.1°C 80% 3.1 mph SW5.0 kmh SW 5.0 mph8.0 kmh 29.77 in1008.1 mb 0.00 in0.0 mm 0.00 in0.0 mm 0.00 in0.0 mm
08:02 PM 35.7°F2.1°C 30.1°F-1.1°C 80% 3.6 mph SW5.8 kmh SW 5.0 mph8.0 kmh 29.77 in1008.1 mb 0.00 in0.0 mm 0.00 in0.0 mm 0.00 in0.0 mm
08:01 PM 35.7°F2.1°C 30.1°F-1.1°C 80% 3.6 mph SW5.8 kmh SW 5.0 mph8.0 kmh 29.77 in1008.1 mb 0.00 in0.0 mm 0.00 in0.0 mm 0.00 in0.0 mm
08:00 PM 35.7°F2.1°C 30.1°F-1.1°C 80% 3.3 mph SW5.3 kmh SW 5.0 mph8.0 kmh 29.77 in1008.1 mb 0.00 in0.0 mm 0.00 in0.0 mm 0.00 in0.0 mm
07:59 PM 35.8°F2.1°C 30.2°F-1.0°C 80% 4.0 mph SW6.4 kmh SW 5.0 mph8.0 kmh 29.77 in1008.1 mb 0.00 in0.0 mm 0.00 in0.0 mm 0.00 in0.0 mm
07:58 PM 35.8°F2.1°C 30.2°F-1.0°C 80% 3.5 mph SW5.6 kmh SW 4.0 mph6.4 kmh 29.77 in1008.1 mb 0.00 in0.0 mm 0.00 in0.0 mm 0.00 in0.0 mm
07:57 PM 35.9°F2.2°C 30.3°F-0.9°C 80% 3.9 mph SW6.3 kmh SW 5.0 mph8.0 kmh 29.77 in1008.1 mb 0.00 in0.0 mm 0.00 in0.0 mm 0.00 in0.0 mm
07:56 PM 35.9°F2.2°C 30.3°F-0.9°C 80% 4.5 mph SW7.2 kmh SW 5.0 mph8.0 kmh 29.77 in1008.1 mb 0.00 in0.0 mm 0.00 in0.0 mm 0.00 in0.0 mm
07:55 PM 35.9°F2.2°C 30.0°F-1.1°C 79% 3.8 mph SW6.1 kmh SW 5.0 mph8.0 kmh 29.77 in1008.1 mb 0.00 in0.0 mm 0.00 in0.0 mm 0.00 in0.0 mm
07:54 PM 36.0°F2.2°C 30.1°F-1.1°C 79% 4.5 mph SW7.2 kmh SW 5.0 mph8.0 kmh 29.77 in1008.1 mb 0.00 in0.0 mm 0.00 in0.0 mm 0.00 in0.0 mm
07:53 PM 36.0°F2.2°C 30.1°F-1.1°C 79% 4.6 mph SW7.4 kmh SW 5.0 mph8.0 kmh 29.77 in1008.1 mb 0.00 in0.0 mm 0.00 in0.0 mm 0.00 in0.0 mm
07:52 PM 36.1°F2.3°C 30.2°F-1.0°C 79% 4.1 mph SW6.6 kmh SW 5.0 mph8.0 kmh 29.77 in1008.1 mb 0.00 in0.0 mm 0.00 in0.0 mm 0.00 in0.0 mm
07:51 PM 36.2°F2.3°C 30.3°F-0.9°C 79% 3.9 mph SW6.3 kmh SW 5.0 mph8.0 kmh 29.77 in1008.1 mb 0.00 in0.0 mm 0.00 in0.0 mm 0.00 in0.0 mm
07:50 PM 36.2°F2.3°C 30.3°F-0.9°C 79% 3.9 mph SW6.3 kmh SW 5.0 mph8.0 kmh 29.77 in1008.1 mb 0.00 in0.0 mm 0.00 in0.0 mm 0.00 in0.0 mm
07:49 PM 36.3°F2.4°C 30.4°F-0.9°C 79% 4.0 mph SW6.4 kmh SW 5.0 mph8.0 kmh 29.77 in1008.1 mb 0.00 in0.0 mm 0.00 in0.0 mm 0.00 in0.0 mm
07:48 PM 36.3°F2.4°C 30.1°F-1.1°C 78% 3.8 mph SW6.1 kmh SW 5.0 mph8.0 kmh 29.76 in1007.8 mb 0.00 in0.0 mm 0.00 in0.0 mm 0.00 in0.0 mm
07:47 PM 36.5°F2.5°C 30.3°F-0.9°C 78% 4.3 mph SW6.9 kmh SW 5.0 mph8.0 kmh 29.76 in1007.8 mb 0.00 in0.0 mm 0.00 in0.0 mm 0.00 in0.0 mm
07:46 PM 36.6°F2.6°C 30.4°F-0.9°C 78% 3.3 mph SW5.3 kmh SW 4.0 mph6.4 kmh 29.76 in1007.8 mb 0.00 in0.0 mm 0.00 in0.0 mm 0.00 in0.0 mm
07:45 PM 36.8°F2.7°C 30.6°F-0.8°C 78% 3.0 mph SW4.8 kmh SW 4.0 mph6.4 kmh 29.76 in1007.8 mb 0.00 in0.0 mm 0.00 in0.0 mm 0.00 in0.0 mm
07:44 PM 36.9°F2.7°C 30.4°F-0.9°C 77% 3.6 mph SW5.8 kmh SW 5.0 mph8.0 kmh 29.76 in1007.8 mb 0.00 in0.0 mm 0.00 in0.0 mm 0.00 in0.0 mm
07:43 PM 37.1°F2.8°C 30.6°F-0.8°C 77% 3.7 mph SW6.0 kmh SW 5.0 mph8.0 kmh 29.76 in1007.8 mb 0.00 in0.0 mm 0.00 in0.0 mm 0.00 in0.0 mm
07:42 PM 37.2°F2.9°C 30.7°F-0.7°C 77% 3.3 mph SW5.3 kmh SW 5.0 mph8.0 kmh 29.76 in1007.8 mb 0.00 in0.0 mm 0.00 in0.0 mm 0.00 in0.0 mm
07:41 PM 37.4°F3.0°C 30.5°F-0.8°C 76% 3.5 mph SW5.6 kmh SW 5.0 mph8.0 kmh 29.76 in1007.8 mb 0.00 in0.0 mm 0.00 in0.0 mm 0.00 in0.0 mm
07:40 PM 37.6°F3.1°C 30.7°F-0.7°C 76% 3.3 mph SW5.3 kmh SW 5.0 mph8.0 kmh 29.76 in1007.8 mb 0.00 in0.0 mm 0.00 in0.0 mm 0.00 in0.0 mm
07:39 PM 37.7°F3.2°C 30.8°F-0.7°C 76% 3.8 mph SW6.1 kmh SW 5.0 mph8.0 kmh 29.76 in1007.8 mb 0.00 in0.0 mm 0.00 in0.0 mm 0.00 in0.0 mm
07:38 PM 38.0°F3.3°C 31.1°F-0.5°C 76% 3.2 mph SW5.1 kmh SW 4.0 mph6.4 kmh 29.76 in1007.8 mb 0.00 in0.0 mm 0.00 in0.0 mm 0.00 in0.0 mm
07:37 PM 38.2°F3.4°C 31.3°F-0.4°C 76% 3.3 mph SW5.3 kmh SW 4.0 mph6.4 kmh 29.76 in1007.8 mb 0.00 in0.0 mm 0.00 in0.0 mm 0.00 in0.0 mm
07:36 PM 38.4°F3.6°C 31.5°F-0.3°C 76% 3.2 mph SW5.1 kmh SW 5.0 mph8.0 kmh 29.76 in1007.8 mb 0.00 in0.0 mm 0.00 in0.0 mm 0.00 in0.0 mm
07:35 PM 38.6°F3.7°C 32.0°F0.0°C 77% 3.3 mph WSW5.3 kmh WSW 8.0 mph12.9 kmh 29.76 in1007.8 mb 0.00 in0.0 mm 0.00 in0.0 mm 0.00 in0.0 mm
07:34 PM 38.8°F3.8°C 32.5°F0.3°C 78% 5.0 mph WSW8.0 kmh WSW 8.0 mph12.9 kmh 29.76 in1007.8 mb 0.00 in0.0 mm 0.00 in0.0 mm 0.00 in0.0 mm
07:33 PM 38.8°F3.8°C 32.5°F0.3°C 78% 6.7 mph WSW10.8 kmh WSW 8.0 mph12.9 kmh 29.76 in1007.8 mb 0.00 in0.0 mm 0.00 in0.0 mm 0.00 in0.0 mm
07:32 PM 38.8°F3.8°C 32.2°F0.1°C 77% 6.3 mph WSW10.1 kmh WSW 7.0 mph11.3 kmh 29.76 in1007.8 mb 0.00 in0.0 mm 0.00 in0.0 mm 0.00 in0.0 mm
07:31 PM 38.8°F3.8°C 31.9°F-0.1°C 76% 5.7 mph WSW9.2 kmh WSW 8.0 mph12.9 kmh 29.76 in1007.8 mb 0.00 in0.0 mm 0.00 in0.0 mm 0.00 in0.0 mm
07:30 PM 38.8°F3.8°C 31.9°F-0.1°C 76% 7.3 mph WSW11.7 kmh WSW 8.0 mph12.9 kmh 29.76 in1007.8 mb 0.00 in0.0 mm 0.00 in0.0 mm 0.00 in0.0 mm
07:29 PM 38.8°F3.8°C 32.2°F0.1°C 77% 6.9 mph WSW11.1 kmh WSW 8.0 mph12.9 kmh 29.76 in1007.8 mb 0.00 in0.0 mm 0.00 in0.0 mm 0.00 in0.0 mm
07:28 PM 38.8°F3.8°C 32.2°F0.1°C 77% 7.2 mph WSW11.6 kmh WSW 9.0 mph14.5 kmh 29.76 in1007.8 mb 0.00 in0.0 mm 0.00 in0.0 mm 0.00 in0.0 mm
07:27 PM 38.8°F3.8°C 32.2°F0.1°C 77% 7.7 mph WSW12.4 kmh WSW 9.0 mph14.5 kmh 29.76 in1007.8 mb 0.00 in0.0 mm 0.00 in0.0 mm 0.00 in0.0 mm
07:26 PM 38.8°F3.8°C 32.5°F0.3°C 78% 7.0 mph WSW11.3 kmh WSW 8.0 mph12.9 kmh 29.76 in1007.8 mb 0.00 in0.0 mm 0.00 in0.0 mm 0.00 in0.0 mm
07:25 PM 38.8°F3.8°C 32.2°F0.1°C 77% 5.9 mph WSW9.5 kmh WSW 7.0 mph11.3 kmh 29.76 in1007.8 mb 0.00 in0.0 mm 0.00 in0.0 mm 0.00 in0.0 mm
07:24 PM 38.8°F3.8°C 32.5°F0.3°C 78% 6.0 mph W9.7 kmh W 7.0 mph11.3 kmh 29.76 in1007.8 mb 0.00 in0.0 mm 0.00 in0.0 mm 0.00 in0.0 mm
07:23 PM 38.8°F3.8°C 32.2°F0.1°C 77% 5.7 mph WSW9.2 kmh WSW 7.0 mph11.3 kmh 29.76 in1007.8 mb 0.00 in0.0 mm 0.00 in0.0 mm 0.00 in0.0 mm
07:22 PM 38.8°F3.8°C 32.5°F0.3°C 78% 4.9 mph WSW7.9 kmh WSW 6.0 mph9.7 kmh 29.76 in1007.8 mb 0.00 in0.0 mm 0.00 in0.0 mm 0.00 in0.0 mm
07:21 PM 38.8°F3.8°C 32.2°F0.1°C 77% 4.7 mph W7.6 kmh W 6.0 mph9.7 kmh 29.76 in1007.8 mb 0.00 in0.0 mm 0.00 in0.0 mm 0.00 in0.0 mm
07:20 PM 38.8°F3.8°C 32.2°F0.1°C 77% 4.4 mph W7.1 kmh W 6.0 mph9.7 kmh 29.75 in1007.5 mb 0.00 in0.0 mm 0.00 in0.0 mm 0.00 in0.0 mm
07:19 PM 38.8°F3.8°C 32.2°F0.1°C 77% 4.3 mph W6.9 kmh W 6.0 mph9.7 kmh 29.76 in1007.8 mb 0.00 in0.0 mm 0.00 in0.0 mm 0.00 in0.0 mm
07:18 PM 38.8°F3.8°C 32.2°F0.1°C 77% 4.3 mph WSW6.9 kmh WSW 6.0 mph9.7 kmh 29.76 in1007.8 mb 0.00 in0.0 mm 0.00 in0.0 mm 0.00 in0.0 mm
07:17 PM 38.8°F3.8°C 32.2°F0.1°C 77% 4.4 mph W7.1 kmh W 6.0 mph9.7 kmh 29.76 in1007.8 mb 0.00 in0.0 mm 0.00 in0.0 mm 0.00 in0.0 mm
07:16 PM 38.8°F3.8°C 32.2°F0.1°C 77% 4.8 mph W7.7 kmh W 6.0 mph9.7 kmh 29.76 in1007.8 mb 0.00 in0.0 mm 0.00 in0.0 mm 0.00 in0.0 mm
07:15 PM 38.8°F3.8°C 32.5°F0.3°C 78% 4.6 mph W7.4 kmh W 6.0 mph9.7 kmh 29.76 in1007.8 mb 0.00 in0.0 mm 0.00 in0.0 mm 0.00 in0.0 mm
07:14 PM 38.8°F3.8°C 32.5°F0.3°C 78% 5.3 mph W8.5 kmh W 6.0 mph9.7 kmh 29.76 in1007.8 mb 0.00 in0.0 mm 0.00 in0.0 mm 0.00 in0.0 mm
07:13 PM 38.7°F3.7°C 32.4°F0.2°C 78% 4.7 mph W7.6 kmh W 8.0 mph12.9 kmh 29.76 in1007.8 mb 0.00 in0.0 mm 0.00 in0.0 mm 0.00 in0.0 mm
07:12 PM 38.7°F3.7°C 32.1°F0.1°C 77% 6.4 mph W10.3 kmh W 8.0 mph12.9 kmh 29.76 in1007.8 mb 0.00 in0.0 mm 0.00 in0.0 mm 0.00 in0.0 mm
07:11 PM 38.7°F3.7°C 32.4°F0.2°C 78% 6.9 mph W11.1 kmh W 7.0 mph11.3 kmh 29.76 in1007.8 mb 0.00 in0.0 mm 0.00 in0.0 mm 0.00 in0.0 mm
07:10 PM 38.8°F3.8°C 32.5°F0.3°C 78% 6.7 mph W10.8 kmh W 7.0 mph11.3 kmh 29.76 in1007.8 mb 0.00 in0.0 mm 0.00 in0.0 mm 0.00 in0.0 mm
07:09 PM 38.8°F3.8°C 32.5°F0.3°C 78% 6.3 mph W10.1 kmh W 7.0 mph11.3 kmh 29.76 in1007.8 mb 0.00 in0.0 mm 0.00 in0.0 mm 0.00 in0.0 mm
07:08 PM 38.8°F3.8°C 32.5°F0.3°C 78% 5.6 mph W9.0 kmh W 7.0 mph11.3 kmh 29.76 in1007.8 mb 0.00 in0.0 mm 0.00 in0.0 mm 0.00 in0.0 mm
07:07 PM 38.8°F3.8°C 32.5°F0.3°C 78% 4.5 mph W7.2 kmh W 6.0 mph9.7 kmh 29.76 in1007.8 mb 0.00 in0.0 mm 0.00 in0.0 mm 0.00 in0.0 mm
07:06 PM 38.8°F3.8°C 32.5°F0.3°C 78% 4.3 mph W6.9 kmh W 6.0 mph9.7 kmh 29.76 in1007.8 mb 0.00 in0.0 mm 0.00 in0.0 mm 0.00 in0.0 mm
07:05 PM 38.8°F3.8°C 32.9°F0.5°C 79% 3.8 mph W6.1 kmh W 6.0 mph9.7 kmh 29.76 in1007.8 mb 0.00 in0.0 mm 0.00 in0.0 mm 0.00 in0.0 mm
07:04 PM 38.8°F3.8°C 32.9°F0.5°C 79% 3.8 mph W6.1 kmh W 6.0 mph9.7 kmh 29.76 in1007.8 mb 0.00 in0.0 mm 0.00 in0.0 mm 0.00 in0.0 mm
07:03 PM 38.8°F3.8°C 32.5°F0.3°C 78% 3.7 mph W6.0 kmh W 4.0 mph6.4 kmh 29.76 in1007.8 mb 0.00 in0.0 mm 0.00 in0.0 mm 0.00 in0.0 mm
07:02 PM 38.7°F3.7°C 32.4°F0.2°C 78% 3.3 mph W5.3 kmh W 4.0 mph6.4 kmh 29.76 in1007.8 mb 0.00 in0.0 mm 0.00 in0.0 mm 0.00 in0.0 mm
07:01 PM 38.8°F3.8°C 32.5°F0.3°C 78% 3.5 mph W5.6 kmh W 6.0 mph9.7 kmh 29.75 in1007.5 mb 0.00 in0.0 mm 0.00 in0.0 mm 0.00 in0.0 mm
07:00 PM 38.7°F3.7°C 32.1°F0.1°C 77% 3.9 mph W6.3 kmh W 6.0 mph9.7 kmh 29.76 in1007.8 mb 0.00 in0.0 mm 0.00 in0.0 mm 0.00 in0.0 mm
06:59 PM 38.8°F3.8°C 32.2°F0.1°C 77% 4.1 mph W6.6 kmh W 7.0 mph11.3 kmh 29.76 in1007.8 mb 0.00 in0.0 mm 0.00 in0.0 mm 0.00 in0.0 mm
06:58 PM 38.8°F3.8°C 32.2°F0.1°C 77% 5.9 mph W9.5 kmh W 7.0 mph11.3 kmh 29.75 in1007.5 mb 0.00 in0.0 mm 0.00 in0.0 mm 0.00 in0.0 mm
06:57 PM 38.8°F3.8°C 32.2°F0.1°C 77% 6.1 mph W9.8 kmh W 8.0 mph12.9 kmh 29.75 in1007.5 mb 0.00 in0.0 mm 0.00 in0.0 mm 0.00 in0.0 mm
06:56 PM 38.8°F3.8°C 32.2°F0.1°C 77% 6.6 mph W10.6 kmh W 7.0 mph11.3 kmh 29.75 in1007.5 mb 0.00 in0.0 mm 0.00 in0.0 mm 0.00 in0.0 mm
06:55 PM 38.8°F3.8°C 32.2°F0.1°C 77% 6.5 mph W10.5 kmh W 8.0 mph12.9 kmh 29.76 in1007.8 mb 0.00 in0.0 mm 0.00 in0.0 mm 0.00 in0.0 mm
06:54 PM 38.9°F3.8°C 32.3°F0.2°C 77% 7.0 mph W11.3 kmh W 8.0 mph12.9 kmh 29.75 in1007.5 mb 0.00 in0.0 mm 0.00 in0.0 mm 0.00 in0.0 mm
06:53 PM 38.9°F3.8°C 32.3°F0.2°C 77% 7.4 mph W11.9 kmh W 8.0 mph12.9 kmh 29.76 in1007.8 mb 0.00 in0.0 mm 0.00 in0.0 mm 0.00 in0.0 mm
06:52 PM 38.9°F3.8°C 32.3°F0.2°C 77% 6.8 mph W10.9 kmh W 8.0 mph12.9 kmh 29.75 in1007.5 mb 0.00 in0.0 mm 0.00 in0.0 mm 0.00 in0.0 mm
06:51 PM 38.9°F3.8°C 32.3°F0.2°C 77% 6.7 mph W10.8 kmh W 7.0 mph11.3 kmh 29.75 in1007.5 mb 0.00 in0.0 mm 0.00 in0.0 mm 0.00 in0.0 mm
06:50 PM 39.0°F3.9°C 32.7°F0.4°C 78% 6.4 mph W10.3 kmh W 7.0 mph11.3 kmh 29.75 in1007.5 mb 0.00 in0.0 mm 0.00 in0.0 mm 0.00 in0.0 mm
06:49 PM 39.0°F3.9°C 32.7°F0.4°C 78% 5.2 mph W8.4 kmh W 7.0 mph11.3 kmh 29.75 in1007.5 mb 0.00 in0.0 mm 0.00 in0.0 mm 0.00 in0.0 mm
06:48 PM 39.1°F3.9°C 32.5°F0.3°C 77% 6.6 mph W10.6 kmh W 7.0 mph11.3 kmh 29.75 in1007.5 mb 0.00 in0.0 mm 0.00 in0.0 mm 0.00 in0.0 mm
06:47 PM 39.1°F3.9°C 32.5°F0.3°C 77% 6.8 mph W10.9 kmh W 8.0 mph12.9 kmh 29.75 in1007.5 mb 0.00 in0.0 mm 0.00 in0.0 mm 0.00 in0.0 mm
06:46 PM 39.1°F3.9°C 32.8°F0.4°C 78% 7.0 mph W11.3 kmh W 8.0 mph12.9 kmh 29.75 in1007.5 mb 0.00 in0.0 mm 0.00 in0.0 mm 0.00 in0.0 mm
06:45 PM 39.1°F3.9°C 32.8°F0.4°C 78% 7.0 mph W11.3 kmh W 9.0 mph14.5 kmh 29.75 in1007.5 mb 0.00 in0.0 mm 0.00 in0.0 mm 0.00 in0.0 mm
06:44 PM 39.1°F3.9°C 32.8°F0.4°C 78% 8.2 mph W13.2 kmh W 9.0 mph14.5 kmh 29.75 in1007.5 mb 0.00 in0.0 mm 0.00 in0.0 mm 0.00 in0.0 mm
06:43 PM 39.0°F3.9°C 33.0°F0.6°C 79% 8.0 mph W12.9 kmh W 9.0 mph14.5 kmh 29.75 in1007.5 mb 0.00 in0.0 mm 0.00 in0.0 mm 0.00 in0.0 mm
06:42 PM 39.0°F3.9°C 33.0°F0.6°C 79% 8.0 mph W12.9 kmh W 9.0 mph14.5 kmh 29.75 in1007.5 mb 0.00 in0.0 mm 0.00 in0.0 mm 0.00 in0.0 mm
06:41 PM 39.0°F3.9°C 32.7°F0.4°C 78% 8.4 mph W13.5 kmh W 9.0 mph14.5 kmh 29.75 in1007.5 mb 0.00 in0.0 mm 0.00 in0.0 mm 0.00 in0.0 mm
06:40 PM 39.0°F3.9°C 33.0°F0.6°C 79% 7.7 mph W12.4 kmh W 9.0 mph14.5 kmh 29.75 in1007.5 mb 0.00 in0.0 mm 0.00 in0.0 mm 0.00 in0.0 mm
06:39 PM 38.9°F3.8°C 33.0°F0.6°C 79% 7.8 mph W12.6 kmh W 9.0 mph14.5 kmh 29.75 in1007.5 mb 0.00 in0.0 mm 0.00 in0.0 mm 0.00 in0.0 mm
06:38 PM 38.9°F3.8°C 33.0°F0.6°C 79% 7.2 mph W11.6 kmh W 8.0 mph12.9 kmh 29.75 in1007.5 mb 0.00 in0.0 mm 0.00 in0.0 mm 0.00 in0.0 mm
06:37 PM 38.9°F3.8°C 33.3°F0.7°C 80% 7.2 mph W11.6 kmh W 8.0 mph12.9 kmh 29.75 in1007.5 mb 0.00 in0.0 mm 0.00 in0.0 mm 0.00 in0.0 mm
06:36 PM 38.9°F3.8°C 33.0°F0.6°C 79% 7.2 mph W11.6 kmh W 8.0 mph12.9 kmh 29.75 in1007.5 mb 0.00 in0.0 mm 0.00 in0.0 mm 0.00 in0.0 mm
06:35 PM 38.9°F3.8°C 33.3°F0.7°C 80% 7.0 mph W11.3 kmh W 8.0 mph12.9 kmh 29.75 in1007.5 mb 0.00 in0.0 mm 0.00 in0.0 mm 0.00 in0.0 mm
06:34 PM 38.9°F3.8°C 33.0°F0.6°C 79% 6.5 mph W10.5 kmh W 8.0 mph12.9 kmh 29.75 in1007.5 mb 0.00 in0.0 mm 0.00 in0.0 mm 0.00 in0.0 mm
06:33 PM 38.9°F3.8°C 33.0°F0.6°C 79% 7.0 mph W11.3 kmh W 8.0 mph12.9 kmh 29.75 in1007.5 mb 0.00 in0.0 mm 0.00 in0.0 mm 0.00 in0.0 mm
06:32 PM 38.9°F3.8°C 33.0°F0.6°C 79% 7.4 mph W11.9 kmh W 8.0 mph12.9 kmh 29.75 in1007.5 mb 0.00 in0.0 mm 0.00 in0.0 mm 0.00 in0.0 mm
06:31 PM 38.9°F3.8°C 33.0°F0.6°C 79% 7.0 mph W11.3 kmh W 8.0 mph12.9 kmh 29.75 in1007.5 mb 0.00 in0.0 mm 0.00 in0.0 mm 0.00 in0.0 mm
06:30 PM 38.9°F3.8°C 32.6°F0.3°C 78% 7.3 mph W11.7 kmh W 8.0 mph12.9 kmh 29.75 in1007.5 mb 0.00 in0.0 mm 0.00 in0.0 mm 0.00 in0.0 mm
06:29 PM 38.9°F3.8°C 33.0°F0.6°C 79% 7.0 mph W11.3 kmh W 8.0 mph12.9 kmh 29.75 in1007.5 mb 0.00 in0.0 mm 0.00 in0.0 mm 0.00 in0.0 mm
06:28 PM 38.8°F3.8°C 32.9°F0.5°C 79% 6.3 mph W10.1 kmh W 7.0 mph11.3 kmh 29.75 in1007.5 mb 0.00 in0.0 mm 0.00 in0.0 mm 0.00 in0.0 mm
06:27 PM 38.9°F3.8°C 33.0°F0.6°C 79% 7.0 mph W11.3 kmh W 8.0 mph12.9 kmh 29.75 in1007.5 mb 0.00 in0.0 mm 0.00 in0.0 mm 0.00 in0.0 mm
06:26 PM 38.8°F3.8°C 32.9°F0.5°C 79% 6.6 mph W10.6 kmh W 8.0 mph12.9 kmh 29.75 in1007.5 mb 0.00 in0.0 mm 0.00 in0.0 mm 0.00 in0.0 mm
06:25 PM 38.7°F3.7°C 32.8°F0.4°C 79% 6.4 mph W10.3 kmh W 7.0 mph11.3 kmh 29.75 in1007.5 mb 0.00 in0.0 mm 0.00 in0.0 mm 0.00 in0.0 mm
06:24 PM 38.7°F3.7°C 32.8°F0.4°C 79% 5.7 mph W9.2 kmh W 7.0 mph11.3 kmh 29.75 in1007.5 mb 0.00 in0.0 mm 0.00 in0.0 mm 0.00 in0.0 mm
06:23 PM 38.6°F3.7°C 32.7°F0.4°C 79% 6.0 mph W9.7 kmh W 7.0 mph11.3 kmh 29.75 in1007.5 mb 0.00 in0.0 mm 0.00 in0.0 mm 0.00 in0.0 mm
06:22 PM 38.6°F3.7°C 32.7°F0.4°C 79% 6.6 mph W10.6 kmh W 7.0 mph11.3 kmh 29.75 in1007.5 mb 0.00 in0.0 mm 0.00 in0.0 mm 0.00 in0.0 mm
06:21 PM 38.6°F3.7°C 32.7°F0.4°C 79% 5.5 mph W8.9 kmh W 7.0 mph11.3 kmh 29.75 in1007.5 mb 0.00 in0.0 mm 0.00 in0.0 mm 0.00 in0.0 mm
06:20 PM 38.5°F3.6°C 32.6°F0.3°C 79% 6.0 mph W9.7 kmh W 8.0 mph12.9 kmh 29.75 in1007.5 mb 0.00 in0.0 mm 0.00 in0.0 mm 0.00 in0.0 mm
06:19 PM 38.5°F3.6°C 32.6°F0.3°C 79% 6.9 mph W11.1 kmh W 8.0 mph12.9 kmh 29.75 in1007.5 mb 0.00 in0.0 mm 0.00 in0.0 mm 0.00 in0.0 mm
06:18 PM 38.5°F3.6°C 32.6°F0.3°C 79% 5.9 mph W9.5 kmh W 7.0 mph11.3 kmh 29.75 in1007.5 mb 0.00 in0.0 mm 0.00 in0.0 mm 0.00 in0.0 mm
06:17 PM 38.5°F3.6°C 32.6°F0.3°C 79% 5.4 mph W8.7 kmh W 8.0 mph12.9 kmh 29.75 in1007.5 mb 0.00 in0.0 mm 0.00 in0.0 mm 0.00 in0.0 mm
06:16 PM 38.6°F3.7°C 32.3°F0.2°C 78% 7.0 mph W11.3 kmh W 8.0 mph12.9 kmh 29.75 in1007.5 mb 0.00 in0.0 mm 0.00 in0.0 mm 0.00 in0.0 mm
06:15 PM 38.6°F3.7°C 32.3°F0.2°C 78% 6.5 mph W10.5 kmh W 7.0 mph11.3 kmh 29.75 in1007.5 mb 0.00 in0.0 mm 0.00 in0.0 mm 0.00 in0.0 mm
06:14 PM 38.8°F3.8°C 32.5°F0.3°C 78% 6.4 mph W10.3 kmh W 7.0 mph11.3 kmh 29.75 in1007.5 mb 0.00 in0.0 mm 0.00 in0.0 mm 0.00 in0.0 mm
06:13 PM 38.8°F3.8°C 32.9°F0.5°C 79% 6.2 mph W10.0 kmh W 7.0 mph11.3 kmh 29.75 in1007.5 mb 0.00 in0.0 mm 0.00 in0.0 mm 0.00 in0.0 mm
06:12 PM 38.9°F3.8°C 32.6°F0.3°C 78% 6.3 mph W10.1 kmh W 8.0 mph12.9 kmh 29.75 in1007.5 mb 0.00 in0.0 mm 0.00 in0.0 mm 0.00 in0.0 mm
06:11 PM 38.9°F3.8°C 32.6°F0.3°C 78% 6.7 mph W10.8 kmh W 8.0 mph12.9 kmh 29.75 in1007.5 mb 0.00 in0.0 mm 0.00 in0.0 mm 0.00 in0.0 mm
06:10 PM 39.0°F3.9°C 32.7°F0.4°C 78% 7.5 mph W12.1 kmh W 9.0 mph14.5 kmh 29.75 in1007.5 mb 0.00 in0.0 mm 0.00 in0.0 mm 0.00 in0.0 mm
06:09 PM 39.1°F3.9°C 32.8°F0.4°C 78% 8.3 mph W13.4 kmh W 9.0 mph14.5 kmh 29.75 in1007.5 mb 0.00 in0.0 mm 0.00 in0.0 mm 0.00 in0.0 mm
06:08 PM 39.3°F4.1°C 33.0°F0.6°C 78% 7.6 mph W12.2 kmh W 9.0 mph14.5 kmh 29.75 in1007.5 mb 0.00 in0.0 mm 0.00 in0.0 mm 0.00 in0.0 mm
06:07 PM 39.4°F4.1°C 33.1°F0.6°C 78% 7.3 mph W11.7 kmh W 9.0 mph14.5 kmh 29.75 in1007.5 mb 0.00 in0.0 mm 0.00 in0.0 mm 0.00 in0.0 mm
06:06 PM 39.5°F4.2°C 32.9°F0.5°C 77% 7.0 mph W11.3 kmh W 9.0 mph14.5 kmh 29.75 in1007.5 mb 0.00 in0.0 mm 0.00 in0.0 mm 0.00 in0.0 mm
06:05 PM 39.6°F4.2°C 33.0°F0.6°C 77% 7.4 mph W11.9 kmh W 9.0 mph14.5 kmh 29.75 in1007.5 mb 0.00 in0.0 mm 0.00 in0.0 mm 0.00 in0.0 mm
06:04 PM 39.7°F4.3°C 33.1°F0.6°C 77% 6.9 mph W11.1 kmh W 8.0 mph12.9 kmh 29.75 in1007.5 mb 0.00 in0.0 mm 0.00 in0.0 mm 0.00 in0.0 mm
06:03 PM 39.9°F4.4°C 33.0°F0.6°C 76% 6.8 mph W10.9 kmh W 8.0 mph12.9 kmh 29.75 in1007.5 mb 0.00 in0.0 mm 0.00 in0.0 mm 0.00 in0.0 mm
06:02 PM 40.1°F4.5°C 33.5°F0.8°C 77% 6.8 mph W10.9 kmh W 8.0 mph12.9 kmh 29.75 in1007.5 mb 0.00 in0.0 mm 0.00 in0.0 mm 0.00 in0.0 mm
06:01 PM 40.4°F4.7°C 33.4°F0.8°C 76% 7.1 mph W11.4 kmh W 9.0 mph14.5 kmh 29.75 in1007.5 mb 0.00 in0.0 mm 0.00 in0.0 mm 0.00 in0.0 mm
06:00 PM 40.6°F4.8°C 33.6°F0.9°C 76% 7.3 mph WNW11.7 kmh WNW 9.0 mph14.5 kmh 29.75 in1007.5 mb 0.00 in0.0 mm 0.00 in0.0 mm 0.00 in0.0 mm
05:59 PM 40.7°F4.8°C 33.4°F0.8°C 75% 8.0 mph W12.9 kmh W 12.0 mph19.3 kmh 29.75 in1007.5 mb 0.00 in0.0 mm 0.00 in0.0 mm 0.00 in0.0 mm
05:58 PM 40.9°F4.9°C 33.6°F0.9°C 75% 9.5 mph WNW15.3 kmh WNW 12.0 mph19.3 kmh 29.75 in1007.5 mb 0.00 in0.0 mm 0.00 in0.0 mm 0.00 in0.0 mm
05:57 PM 41.0°F5.0°C 33.7°F0.9°C 75% 10.9 mph NW17.5 kmh NW 12.0 mph19.3 kmh 29.75 in1007.5 mb 0.00 in0.0 mm 0.00 in0.0 mm 0.00 in0.0 mm
05:56 PM 41.0°F5.0°C 34.0°F1.1°C 76% 10.7 mph NW17.2 kmh NW 12.0 mph19.3 kmh 29.75 in1007.5 mb 0.00 in0.0 mm 0.00 in0.0 mm 0.00 in0.0 mm
05:55 PM 41.1°F5.1°C 34.1°F1.2°C 76% 9.2 mph NW14.8 kmh NW 11.0 mph17.7 kmh 29.75 in1007.5 mb 0.00 in0.0 mm 0.00 in0.0 mm 0.00 in0.0 mm
05:54 PM 41.1°F5.1°C 34.1°F1.2°C 76% 9.9 mph NW15.9 kmh NW 12.0 mph19.3 kmh 29.75 in1007.5 mb 0.00 in0.0 mm 0.00 in0.0 mm 0.00 in0.0 mm
05:53 PM 41.0°F5.0°C 34.0°F1.1°C 76% 11.2 mph NNW18.0 kmh NNW 12.0 mph19.3 kmh 29.75 in1007.5 mb 0.00 in0.0 mm 0.00 in0.0 mm 0.00 in0.0 mm
05:52 PM 41.0°F5.0°C 33.4°F0.8°C 74% 10.9 mph NNW17.5 kmh NNW 14.0 mph22.5 kmh 29.75 in1007.5 mb 0.00 in0.0 mm 0.00 in0.0 mm 0.00 in0.0 mm
05:51 PM 40.9°F4.9°C 33.9°F1.1°C 76% 12.6 mph NNW20.3 kmh NNW 15.0 mph24.1 kmh 29.75 in1007.5 mb 0.00 in0.0 mm 0.00 in0.0 mm 0.00 in0.0 mm
05:50 PM 40.9°F4.9°C 33.9°F1.1°C 76% 12.5 mph NNW20.1 kmh NNW 15.0 mph24.1 kmh 29.75 in1007.5 mb 0.00 in0.0 mm 0.00 in0.0 mm 0.00 in0.0 mm
05:49 PM 40.8°F4.9°C 33.8°F1.0°C 76% 11.5 mph NNW18.5 kmh NNW 15.0 mph24.1 kmh 29.75 in1007.5 mb 0.00 in0.0 mm 0.00 in0.0 mm 0.00 in0.0 mm
05:48 PM 40.7°F4.8°C 33.4°F0.8°C 75% 9.3 mph N15.0 kmh N 13.0 mph20.9 kmh 29.75 in1007.5 mb 0.00 in0.0 mm 0.00 in0.0 mm 0.00 in0.0 mm
05:47 PM 40.6°F4.8°C 33.3°F0.7°C 75% 10.3 mph N16.6 kmh N 13.0 mph20.9 kmh 29.75 in1007.5 mb 0.00 in0.0 mm 0.00 in0.0 mm 0.00 in0.0 mm
05:46 PM 40.6°F4.8°C 33.0°F0.6°C 74% 9.4 mph N15.1 kmh N 11.0 mph17.7 kmh 29.75 in1007.5 mb 0.00 in0.0 mm 0.00 in0.0 mm 0.00 in0.0 mm
05:45 PM 40.6°F4.8°C 33.3°F0.7°C 75% 8.7 mph N14.0 kmh N 11.0 mph17.7 kmh 29.75 in1007.5 mb 0.00 in0.0 mm 0.00 in0.0 mm 0.00 in0.0 mm
05:44 PM 40.6°F4.8°C 33.0°F0.6°C 74% 8.4 mph N13.5 kmh N 11.0 mph17.7 kmh 29.75 in1007.5 mb 0.00 in0.0 mm 0.00 in0.0 mm 0.00 in0.0 mm
05:43 PM 40.5°F4.7°C 32.9°F0.5°C 74% 9.6 mph N15.4 kmh N 11.0 mph17.7 kmh 29.75 in1007.5 mb 0.00 in0.0 mm 0.00 in0.0 mm 0.00 in0.0 mm
05:42 PM 40.6°F4.8°C 33.0°F0.6°C 74% 9.6 mph N15.4 kmh N 11.0 mph17.7 kmh 29.75 in1007.5 mb 0.00 in0.0 mm 0.00 in0.0 mm 0.00 in0.0 mm
05:41 PM 40.6°F4.8°C 33.3°F0.7°C 75% 7.9 mph N12.7 kmh N 11.0 mph17.7 kmh 29.75 in1007.5 mb 0.00 in0.0 mm 0.00 in0.0 mm 0.00 in0.0 mm
05:40 PM 40.6°F4.8°C 32.6°F0.3°C 73% 8.8 mph N14.2 kmh N 11.0 mph17.7 kmh 29.75 in1007.5 mb 0.00 in0.0 mm 0.00 in0.0 mm 0.00 in0.0 mm
05:39 PM 40.5°F4.7°C 32.9°F0.5°C 74% 9.0 mph N14.5 kmh N 11.0 mph17.7 kmh 29.75 in1007.5 mb 0.00 in0.0 mm 0.00 in0.0 mm 0.00 in0.0 mm
05:38 PM 40.5°F4.7°C 32.9°F0.5°C 74% 9.3 mph N15.0 kmh N 11.0 mph17.7 kmh 29.75 in1007.5 mb 0.00 in0.0 mm 0.00 in0.0 mm 0.00 in0.0 mm
05:37 PM 40.5°F4.7°C 32.9°F0.5°C 74% 9.4 mph N15.1 kmh N 13.0 mph20.9 kmh 29.75 in1007.5 mb 0.00 in0.0 mm 0.00 in0.0 mm 0.00 in0.0 mm
05:36 PM 40.5°F4.7°C 32.5°F0.3°C 73% 10.5 mph N16.9 kmh N 13.0 mph20.9 kmh 29.75 in1007.5 mb 0.00 in0.0 mm 0.00 in0.0 mm 0.00 in0.0 mm
05:35 PM 40.5°F4.7°C 32.9°F0.5°C 74% 9.7 mph N15.6 kmh N 12.0 mph19.3 kmh 29.75 in1007.5 mb 0.00 in0.0 mm 0.00 in0.0 mm 0.00 in0.0 mm
05:34 PM 40.5°F4.7°C 33.2°F0.7°C 75% 9.3 mph N15.0 kmh N 12.0 mph19.3 kmh 29.75 in1007.5 mb 0.00 in0.0 mm 0.00 in0.0 mm 0.00 in0.0 mm
05:33 PM 40.5°F4.7°C 32.9°F0.5°C 74% 9.1 mph N14.6 kmh N 13.0 mph20.9 kmh 29.75 in1007.5 mb 0.00 in0.0 mm 0.00 in0.0 mm 0.00 in0.0 mm
05:32 PM 40.5°F4.7°C 32.9°F0.5°C 74% 10.4 mph N16.7 kmh N 13.0 mph20.9 kmh 29.75 in1007.5 mb 0.00 in0.0 mm 0.00 in0.0 mm 0.00 in0.0 mm
05:31 PM 40.5°F4.7°C 33.2°F0.7°C 75% 9.7 mph N15.6 kmh N 11.0 mph17.7 kmh 29.75 in1007.5 mb 0.00 in0.0 mm 0.00 in0.0 mm 0.00 in0.0 mm
05:30 PM 40.5°F4.7°C 32.9°F0.5°C 74% 9.4 mph N15.1 kmh N 11.0 mph17.7 kmh 29.74 in1007.1 mb 0.00 in0.0 mm 0.00 in0.0 mm 0.00 in0.0 mm
05:29 PM 40.5°F4.7°C 32.9°F0.5°C 74% 10.4 mph N16.7 kmh N 12.0 mph19.3 kmh 29.75 in1007.5 mb 0.00 in0.0 mm 0.00 in0.0 mm 0.00 in0.0 mm
05:28 PM 40.5°F4.7°C 32.5°F0.3°C 73% 10.5 mph N16.9 kmh N 12.0 mph19.3 kmh 29.75 in1007.5 mb 0.00 in0.0 mm 0.00 in0.0 mm 0.00 in0.0 mm
05:27 PM 40.5°F4.7°C 33.2°F0.7°C 75% 11.2 mph N18.0 kmh N 12.0 mph19.3 kmh 29.75 in1007.5 mb 0.00 in0.0 mm 0.00 in0.0 mm 0.00 in0.0 mm
05:26 PM 40.5°F4.7°C 33.2°F0.7°C 75% 9.3 mph N15.0 kmh N 12.0 mph19.3 kmh 29.74 in1007.1 mb 0.00 in0.0 mm 0.00 in0.0 mm 0.00 in0.0 mm
05:25 PM 40.5°F4.7°C 32.9°F0.5°C 74% 10.0 mph N16.1 kmh N 12.0 mph19.3 kmh 29.74 in1007.1 mb 0.00 in0.0 mm 0.00 in0.0 mm 0.00 in0.0 mm
05:24 PM 40.5°F4.7°C 32.5°F0.3°C 73% 10.7 mph N17.2 kmh N 13.0 mph20.9 kmh 29.74 in1007.1 mb 0.00 in0.0 mm 0.00 in0.0 mm 0.00 in0.0 mm
05:23 PM 40.6°F4.8°C 33.0°F0.6°C 74% 11.2 mph N18.0 kmh N 13.0 mph20.9 kmh 29.74 in1007.1 mb 0.00 in0.0 mm 0.00 in0.0 mm 0.00 in0.0 mm
05:22 PM 40.5°F4.7°C 32.9°F0.5°C 74% 11.8 mph N19.0 kmh N 13.0 mph20.9 kmh 29.74 in1007.1 mb 0.00 in0.0 mm 0.00 in0.0 mm 0.00 in0.0 mm
05:21 PM 40.5°F4.7°C 32.9°F0.5°C 74% 11.3 mph N18.2 kmh N 13.0 mph20.9 kmh 29.74 in1007.1 mb 0.00 in0.0 mm 0.00 in0.0 mm 0.00 in0.0 mm
05:20 PM 40.5°F4.7°C 32.9°F0.5°C 74% 11.6 mph N18.7 kmh N 13.0 mph20.9 kmh 29.74 in1007.1 mb 0.00 in0.0 mm 0.00 in0.0 mm 0.00 in0.0 mm
05:19 PM 40.6°F4.8°C 33.0°F0.6°C 74% 11.7 mph N18.8 kmh N 14.0 mph22.5 kmh 29.74 in1007.1 mb 0.00 in0.0 mm 0.00 in0.0 mm 0.00 in0.0 mm
05:18 PM 40.5°F4.7°C 32.9°F0.5°C 74% 12.4 mph N20.0 kmh N 14.0 mph22.5 kmh 29.74 in1007.1 mb 0.00 in0.0 mm 0.00 in0.0 mm 0.00 in0.0 mm
05:17 PM 40.4°F4.7°C 32.8°F0.4°C 74% 11.6 mph N18.7 kmh N 13.0 mph20.9 kmh 29.74 in1007.1 mb 0.00 in0.0 mm 0.00 in0.0 mm 0.00 in0.0 mm
05:16 PM 40.5°F4.7°C 32.9°F0.5°C 74% 11.1 mph N17.9 kmh N 14.0 mph22.5 kmh 29.74 in1007.1 mb 0.00 in0.0 mm 0.00 in0.0 mm 0.00 in0.0 mm
05:15 PM 40.5°F4.7°C 32.9°F0.5°C 74% 11.7 mph N18.8 kmh N 14.0 mph22.5 kmh 29.74 in1007.1 mb 0.00 in0.0 mm 0.00 in0.0 mm 0.00 in0.0 mm
05:14 PM 40.4°F4.7°C 32.8°F0.4°C 74% 10.6 mph N17.1 kmh N 14.0 mph22.5 kmh 29.74 in1007.1 mb 0.00 in0.0 mm 0.00 in0.0 mm 0.00 in0.0 mm
05:13 PM 40.4°F4.7°C 32.8°F0.4°C 74% 11.5 mph N18.5 kmh N 14.0 mph22.5 kmh 29.74 in1007.1 mb 0.00 in0.0 mm 0.00 in0.0 mm 0.00 in0.0 mm
05:12 PM 40.4°F4.7°C 32.8°F0.4°C 74% 10.8 mph N17.4 kmh N 14.0 mph22.5 kmh 29.74 in1007.1 mb 0.00 in0.0 mm 0.00 in0.0 mm 0.00 in0.0 mm
05:11 PM 40.4°F4.7°C 32.8°F0.4°C 74% 12.4 mph N20.0 kmh N 14.0 mph22.5 kmh 29.74 in1007.1 mb 0.00 in0.0 mm 0.00 in0.0 mm 0.00 in0.0 mm
05:10 PM 40.4°F4.7°C 32.8°F0.4°C 74% 11.4 mph N18.3 kmh N 15.0 mph24.1 kmh 29.74 in1007.1 mb 0.00 in0.0 mm 0.00 in0.0 mm 0.00 in0.0 mm
05:09 PM 40.4°F4.7°C 32.8°F0.4°C 74% 11.9 mph N19.2 kmh N 15.0 mph24.1 kmh 29.74 in1007.1 mb 0.00 in0.0 mm 0.00 in0.0 mm 0.00 in0.0 mm
05:08 PM 40.4°F4.7°C 32.8°F0.4°C 74% 12.1 mph N19.5 kmh N 14.0 mph22.5 kmh 29.74 in1007.1 mb 0.00 in0.0 mm 0.00 in0.0 mm 0.00 in0.0 mm
05:07 PM 40.4°F4.7°C 32.8°F0.4°C 74% 11.9 mph N19.2 kmh N 13.0 mph20.9 kmh 29.74 in1007.1 mb 0.00 in0.0 mm 0.00 in0.0 mm 0.00 in0.0 mm
05:06 PM 40.4°F4.7°C 32.8°F0.4°C 74% 11.5 mph N18.5 kmh N 13.0 mph20.9 kmh 29.74 in1007.1 mb 0.00 in0.0 mm 0.00 in0.0 mm 0.00 in0.0 mm
05:05 PM 40.4°F4.7°C 32.8°F0.4°C 74% 11.0 mph N17.7 kmh N 13.0 mph20.9 kmh 29.74 in1007.1 mb 0.00 in0.0 mm 0.00 in0.0 mm 0.00 in0.0 mm
05:04 PM 40.4°F4.7°C 32.8°F0.4°C 74% 10.9 mph N17.5 kmh N 14.0 mph22.5 kmh 29.74 in1007.1 mb 0.00 in0.0 mm 0.00 in0.0 mm 0.00 in0.0 mm
05:03 PM 40.4°F4.7°C 32.8°F0.4°C 74% 11.8 mph N19.0 kmh N 14.0 mph22.5 kmh 29.74 in1007.1 mb 0.00 in0.0 mm 0.00 in0.0 mm 0.00 in0.0 mm
05:02 PM 40.3°F4.6°C 32.7°F0.4°C 74% 12.6 mph N20.3 kmh N 14.0 mph22.5 kmh 29.74 in1007.1 mb 0.00 in0.0 mm 0.00 in0.0 mm 0.00 in0.0 mm
05:01 PM 40.2°F4.6°C 32.9°F0.5°C 75% 10.6 mph N17.1 kmh N 13.0 mph20.9 kmh 29.74 in1007.1 mb 0.00 in0.0 mm 0.00 in0.0 mm 0.00 in0.0 mm
05:00 PM 40.2°F4.6°C 32.6°F0.3°C 74% 10.7 mph N17.2 kmh N 13.0 mph20.9 kmh 29.74 in1007.1 mb 0.00 in0.0 mm 0.00 in0.0 mm 0.00 in0.0 mm
04:59 PM 40.2°F4.6°C 32.6°F0.3°C 74% 11.7 mph N18.8 kmh N 14.0 mph22.5 kmh 29.74 in1007.1 mb 0.00 in0.0 mm 0.00 in0.0 mm 0.00 in0.0 mm
04:58 PM 40.2°F4.6°C 32.9°F0.5°C 75% 12.1 mph N19.5 kmh N 14.0 mph22.5 kmh 29.74 in1007.1 mb 0.00 in0.0 mm 0.00 in0.0 mm 0.00 in0.0 mm
04:57 PM 40.2°F4.6°C 32.9°F0.5°C 75% 11.2 mph N18.0 kmh N 13.0 mph20.9 kmh 29.74 in1007.1 mb 0.00 in0.0 mm 0.00 in0.0 mm 0.00 in0.0 mm
04:56 PM 40.1°F4.5°C 32.8°F0.4°C 75% 10.4 mph N16.7 kmh N 13.0 mph20.9 kmh 29.74 in1007.1 mb 0.00 in0.0 mm 0.00 in0.0 mm 0.00 in0.0 mm
04:55 PM 40.0°F4.4°C 32.7°F0.4°C 75% 11.4 mph 18.3 kmh 14.0 mph22.5 kmh 29.74 in1007.1 mb 0.00 in0.0 mm 0.00 in0.0 mm 0.00 in0.0 mm
04:54 PM 40.0°F4.4°C 32.7°F0.4°C 75% 12.0 mph N19.3 kmh N 14.0 mph22.5 kmh 29.74 in1007.1 mb 0.00 in0.0 mm 0.00 in0.0 mm 0.00 in0.0 mm
04:53 PM 40.0°F4.4°C 32.7°F0.4°C 75% 11.5 mph N18.5 kmh N 13.0 mph20.9 kmh 29.74 in1007.1 mb 0.00 in0.0 mm 0.00 in0.0 mm 0.00 in0.0 mm
04:52 PM 40.1°F4.5°C 32.8°F0.4°C 75% 10.8 mph N17.4 kmh N 13.0 mph20.9 kmh 29.74 in1007.1 mb 0.00 in0.0 mm 0.00 in0.0 mm 0.00 in0.0 mm
04:51 PM 40.0°F4.4°C 32.7°F0.4°C 75% 10.3 mph N16.6 kmh N 14.0 mph22.5 kmh 29.74 in1007.1 mb 0.00 in0.0 mm 0.00 in0.0 mm 0.00 in0.0 mm
04:50 PM 40.1°F4.5°C 32.5°F0.3°C 74% 11.3 mph N18.2 kmh N 16.0 mph25.7 kmh 29.73 in1006.8 mb 0.00 in0.0 mm 0.00 in0.0 mm 0.00 in0.0 mm
04:49 PM 40.1°F4.5°C 33.2°F0.7°C 76% 11.8 mph N19.0 kmh N 16.0 mph25.7 kmh 29.73 in1006.8 mb 0.00 in0.0 mm 0.00 in0.0 mm 0.00 in0.0 mm
04:48 PM 40.2°F4.6°C 32.6°F0.3°C 74% 10.8 mph N17.4 kmh N 13.0 mph20.9 kmh 29.74 in1007.1 mb 0.00 in0.0 mm 0.00 in0.0 mm 0.00 in0.0 mm
04:47 PM 40.2°F4.6°C 32.9°F0.5°C 75% 11.5 mph N18.5 kmh N 13.0 mph20.9 kmh 29.73 in1006.8 mb 0.00 in0.0 mm 0.00 in0.0 mm 0.00 in0.0 mm
04:46 PM 40.1°F4.5°C 32.8°F0.4°C 75% 12.0 mph N19.3 kmh N 14.0 mph22.5 kmh 29.73 in1006.8 mb 0.00 in0.0 mm 0.00 in0.0 mm 0.00 in0.0 mm
04:45 PM 40.1°F4.5°C 32.5°F0.3°C 74% 12.5 mph N20.1 kmh N 14.0 mph22.5 kmh 29.73 in1006.8 mb 0.00 in0.0 mm 0.00 in0.0 mm 0.00 in0.0 mm
04:44 PM 40.1°F4.5°C 32.8°F0.4°C 75% 11.9 mph N19.2 kmh N 14.0 mph22.5 kmh 29.73 in1006.8 mb 0.00 in0.0 mm 0.00 in0.0 mm 0.00 in0.0 mm
04:43 PM 40.0°F4.4°C 32.7°F0.4°C 75% 11.4 mph N18.3 kmh N 15.0 mph24.1 kmh 29.73 in1006.8 mb 0.00 in0.0 mm 0.00 in0.0 mm 0.00 in0.0 mm
04:42 PM 40.0°F4.4°C 32.7°F0.4°C 75% 13.2 mph N21.2 kmh N 15.0 mph24.1 kmh 29.73 in1006.8 mb 0.00 in0.0 mm 0.00 in0.0 mm 0.00 in0.0 mm
04:41 PM 40.0°F4.4°C 32.7°F0.4°C 75% 12.3 mph N19.8 kmh N 15.0 mph24.1 kmh 29.73 in1006.8 mb 0.00 in0.0 mm 0.00 in0.0 mm 0.00 in0.0 mm
04:40 PM 40.0°F4.4°C 32.7°F0.4°C 75% 12.7 mph N20.4 kmh N 15.0 mph24.1 kmh 29.73 in1006.8 mb 0.00 in0.0 mm 0.00 in0.0 mm 0.00 in0.0 mm
04:39 PM 40.0°F4.4°C 32.7°F0.4°C 75% 12.5 mph N20.1 kmh N 14.0 mph22.5 kmh 29.73 in1006.8 mb 0.00 in0.0 mm 0.00 in0.0 mm 0.00 in0.0 mm
04:38 PM 40.0°F4.4°C 32.7°F0.4°C 75% 12.9 mph N20.8 kmh N 15.0 mph24.1 kmh 29.73 in1006.8 mb 0.00 in0.0 mm 0.00 in0.0 mm 0.00 in0.0 mm
04:37 PM 40.1°F4.5°C 32.8°F0.4°C 75% 12.4 mph N20.0 kmh N 15.0 mph24.1 kmh 29.73 in1006.8 mb 0.00 in0.0 mm 0.00 in0.0 mm 0.00 in0.0 mm
04:36 PM 40.1°F4.5°C 32.8°F0.4°C 75% 12.0 mph N19.3 kmh N 15.0 mph24.1 kmh 29.73 in1006.8 mb 0.00 in0.0 mm 0.00 in0.0 mm 0.00 in0.0 mm
04:35 PM 40.0°F4.4°C 32.4°F0.2°C 74% 13.3 mph N21.4 kmh N 16.0 mph25.7 kmh 29.73 in1006.8 mb 0.00 in0.0 mm 0.00 in0.0 mm 0.00 in0.0 mm
04:34 PM 40.1°F4.5°C 32.8°F0.4°C 75% 14.1 mph N22.7 kmh N 16.0 mph25.7 kmh 29.73 in1006.8 mb 0.00 in0.0 mm 0.00 in0.0 mm 0.00 in0.0 mm
04:33 PM 40.1°F4.5°C 32.8°F0.4°C 75% 12.2 mph N19.6 kmh N 14.0 mph22.5 kmh 29.73 in1006.8 mb 0.00 in0.0 mm 0.00 in0.0 mm 0.00 in0.0 mm
04:32 PM 40.1°F4.5°C 32.8°F0.4°C 75% 11.7 mph N18.8 kmh N 13.0 mph20.9 kmh 29.73 in1006.8 mb 0.00 in0.0 mm 0.00 in0.0 mm 0.00 in0.0 mm
04:31 PM 40.1°F4.5°C 32.8°F0.4°C 75% 12.0 mph N19.3 kmh N 13.0 mph20.9 kmh 29.73 in1006.8 mb 0.00 in0.0 mm 0.00 in0.0 mm 0.00 in0.0 mm
04:30 PM 40.1°F4.5°C 32.8°F0.4°C 75% 11.5 mph N18.5 kmh N 14.0 mph22.5 kmh 29.73 in1006.8 mb 0.00 in0.0 mm 0.00 in0.0 mm 0.00 in0.0 mm
04:29 PM 40.1°F4.5°C 32.8°F0.4°C 75% 12.6 mph N20.3 kmh N 15.0 mph24.1 kmh 29.73 in1006.8 mb 0.00 in0.0 mm 0.00 in0.0 mm 0.00 in0.0 mm
04:28 PM 40.1°F4.5°C 32.8°F0.4°C 75% 13.2 mph N21.2 kmh N 15.0 mph24.1 kmh 29.73 in1006.8 mb 0.00 in0.0 mm 0.00 in0.0 mm 0.00 in0.0 mm
04:27 PM 40.2°F4.6°C 32.9°F0.5°C 75% 12.4 mph N20.0 kmh N 15.0 mph24.1 kmh 29.73 in1006.8 mb 0.00 in0.0 mm 0.00 in0.0 mm 0.00 in0.0 mm
04:26 PM 40.2°F4.6°C 32.9°F0.5°C 75% 14.0 mph NNE22.5 kmh NNE 16.0 mph25.7 kmh 29.73 in1006.8 mb 0.00 in0.0 mm 0.00 in0.0 mm 0.00 in0.0 mm
04:25 PM 40.2°F4.6°C 32.9°F0.5°C 75% 13.3 mph N21.4 kmh N 16.0 mph25.7 kmh 29.73 in1006.8 mb 0.00 in0.0 mm 0.00 in0.0 mm 0.00 in0.0 mm
04:24 PM 40.2°F4.6°C 32.9°F0.5°C 75% 10.7 mph N17.2 kmh N 14.0 mph22.5 kmh 29.73 in1006.8 mb 0.00 in0.0 mm 0.00 in0.0 mm 0.00 in0.0 mm
04:23 PM 40.2°F4.6°C 32.6°F0.3°C 74% 12.1 mph N19.5 kmh N 16.0 mph25.7 kmh 29.73 in1006.8 mb 0.00 in0.0 mm 0.00 in0.0 mm 0.00 in0.0 mm
04:22 PM 40.3°F4.6°C 32.7°F0.4°C 74% 14.1 mph N22.7 kmh N 16.0 mph25.7 kmh 29.73 in1006.8 mb 0.00 in0.0 mm 0.00 in0.0 mm 0.00 in0.0 mm
04:21 PM 40.4°F4.7°C 33.1°F0.6°C 75% 13.5 mph N21.7 kmh N 16.0 mph25.7 kmh 29.73 in1006.8 mb 0.00 in0.0 mm 0.00 in0.0 mm 0.00 in0.0 mm
04:20 PM 40.4°F4.7°C 33.1°F0.6°C 75% 13.4 mph N21.6 kmh N 17.0 mph27.4 kmh 29.73 in1006.8 mb 0.00 in0.0 mm 0.00 in0.0 mm 0.00 in0.0 mm
04:19 PM 40.5°F4.7°C 32.9°F0.5°C 74% 13.7 mph N22.0 kmh N 17.0 mph27.4 kmh 29.73 in1006.8 mb 0.00 in0.0 mm 0.00 in0.0 mm 0.00 in0.0 mm
04:18 PM 40.5°F4.7°C 32.9°F0.5°C 74% 14.1 mph N22.7 kmh N 18.0 mph29.0 kmh 29.72 in1006.4 mb 0.00 in0.0 mm 0.00 in0.0 mm 0.00 in0.0 mm
04:17 PM 40.5°F4.7°C 33.2°F0.7°C 75% 13.7 mph N22.0 kmh N 18.0 mph29.0 kmh 29.73 in1006.8 mb 0.00 in0.0 mm 0.00 in0.0 mm 0.00 in0.0 mm
04:16 PM 40.5°F4.7°C 32.9°F0.5°C 74% 16.1 mph 25.9 kmh 18.0 mph29.0 kmh 29.73 in1006.8 mb 0.00 in0.0 mm 0.00 in0.0 mm 0.00 in0.0 mm
04:15 PM 40.5°F4.7°C 33.2°F0.7°C 75% 14.0 mph N22.5 kmh N 17.0 mph27.4 kmh 29.72 in1006.4 mb 0.00 in0.0 mm 0.00 in0.0 mm 0.00 in0.0 mm
04:14 PM 40.5°F4.7°C 32.9°F0.5°C 74% 14.5 mph N23.3 kmh N 17.0 mph27.4 kmh 29.72 in1006.4 mb 0.00 in0.0 mm 0.00 in0.0 mm 0.00 in0.0 mm
04:13 PM 40.6°F4.8°C 33.0°F0.6°C 74% 13.2 mph N21.2 kmh N 16.0 mph25.7 kmh 29.72 in1006.4 mb 0.00 in0.0 mm 0.00 in0.0 mm 0.00 in0.0 mm
04:12 PM 40.6°F4.8°C 33.6°F0.9°C 76% 14.5 mph N23.3 kmh N 16.0 mph25.7 kmh 29.72 in1006.4 mb 0.00 in0.0 mm 0.00 in0.0 mm 0.00 in0.0 mm
04:11 PM 40.6°F4.8°C 33.6°F0.9°C 76% 12.6 mph N20.3 kmh N 16.0 mph25.7 kmh 29.72 in1006.4 mb 0.00 in0.0 mm 0.00 in0.0 mm 0.00 in0.0 mm
04:10 PM 40.6°F4.8°C 33.6°F0.9°C 76% 13.6 mph N21.9 kmh N 17.0 mph27.4 kmh 29.72 in1006.4 mb 0.00 in0.0 mm 0.00 in0.0 mm 0.00 in0.0 mm
04:09 PM 40.6°F4.8°C 33.3°F0.7°C 75% 14.0 mph N22.5 kmh N 17.0 mph27.4 kmh 29.72 in1006.4 mb 0.00 in0.0 mm 0.00 in0.0 mm 0.00 in0.0 mm
04:08 PM 40.6°F4.8°C 33.3°F0.7°C 75% 13.4 mph N21.6 kmh N 17.0 mph27.4 kmh 29.72 in1006.4 mb 0.00 in0.0 mm 0.00 in0.0 mm 0.00 in0.0 mm
04:07 PM 40.6°F4.8°C 33.0°F0.6°C 74% 14.4 mph N23.2 kmh N 17.0 mph27.4 kmh 29.72 in1006.4 mb 0.00 in0.0 mm 0.00 in0.0 mm 0.00 in0.0 mm
04:06 PM 40.6°F4.8°C 33.0°F0.6°C 74% 14.2 mph N22.9 kmh N 17.0 mph27.4 kmh 29.72 in1006.4 mb 0.00 in0.0 mm 0.00 in0.0 mm 0.00 in0.0 mm
04:05 PM 40.6°F4.8°C 33.0°F0.6°C 74% 15.7 mph N25.3 kmh N 18.0 mph29.0 kmh 29.72 in1006.4 mb 0.00 in0.0 mm 0.00 in0.0 mm 0.00 in0.0 mm
04:04 PM 40.7°F4.8°C 33.1°F0.6°C 74% 14.3 mph N23.0 kmh N 18.0 mph29.0 kmh 29.72 in1006.4 mb 0.00 in0.0 mm 0.00 in0.0 mm 0.00 in0.0 mm
04:03 PM 40.7°F4.8°C 32.7°F0.4°C 73% 14.6 mph N23.5 kmh N 18.0 mph29.0 kmh 29.72 in1006.4 mb 0.00 in0.0 mm 0.00 in0.0 mm 0.00 in0.0 mm
04:02 PM 40.7°F4.8°C 33.1°F0.6°C 74% 15.7 mph N25.3 kmh N 18.0 mph29.0 kmh 29.72 in1006.4 mb 0.00 in0.0 mm 0.00 in0.0 mm 0.00 in0.0 mm
04:01 PM 40.8°F4.9°C 33.2°F0.7°C 74% 14.5 mph N23.3 kmh N 18.0 mph29.0 kmh 29.72 in1006.4 mb 0.00 in0.0 mm 0.00 in0.0 mm 0.00 in0.0 mm
04:00 PM 40.8°F4.9°C 33.5°F0.8°C 75% 16.1 mph N25.9 kmh N 18.0 mph29.0 kmh 29.72 in1006.4 mb 0.00 in0.0 mm 0.00 in0.0 mm 0.00 in0.0 mm
03:59 PM 40.8°F4.9°C 33.2°F0.7°C 74% 14.4 mph N23.2 kmh N 19.0 mph30.6 kmh 29.72 in1006.4 mb 0.00 in0.0 mm 0.00 in0.0 mm 0.00 in0.0 mm
03:58 PM 40.8°F4.9°C 32.8°F0.4°C 73% 15.2 mph N24.5 kmh N 19.0 mph30.6 kmh 29.72 in1006.4 mb 0.00 in0.0 mm 0.00 in0.0 mm 0.00 in0.0 mm
03:57 PM 40.9°F4.9°C 33.3°F0.7°C 74% 16.1 mph N25.9 kmh N 18.0 mph29.0 kmh 29.72 in1006.4 mb 0.00 in0.0 mm 0.00 in0.0 mm 0.00 in0.0 mm
03:56 PM 41.0°F5.0°C 33.7°F0.9°C 75% 14.0 mph N22.5 kmh N 17.0 mph27.4 kmh 29.72 in1006.4 mb 0.00 in0.0 mm 0.00 in0.0 mm 0.00 in0.0 mm
03:55 PM 41.0°F5.0°C 33.7°F0.9°C 75% 12.6 mph N20.3 kmh N 17.0 mph27.4 kmh 29.72 in1006.4 mb 0.00 in0.0 mm 0.00 in0.0 mm 0.00 in0.0 mm
03:54 PM 40.9°F4.9°C 33.6°F0.9°C 75% 13.6 mph N21.9 kmh N 17.0 mph27.4 kmh 29.72 in1006.4 mb 0.00 in0.0 mm 0.00 in0.0 mm 0.00 in0.0 mm
03:53 PM 41.0°F5.0°C 33.4°F0.8°C 74% 13.4 mph N21.6 kmh N 19.0 mph30.6 kmh 29.72 in1006.4 mb 0.00 in0.0 mm 0.00 in0.0 mm 0.00 in0.0 mm
03:52 PM 41.0°F5.0°C 33.0°F0.6°C 73% 15.0 mph N24.1 kmh N 19.0 mph30.6 kmh 29.72 in1006.4 mb 0.00 in0.0 mm 0.00 in0.0 mm 0.00 in0.0 mm
03:51 PM 41.1°F5.1°C 33.8°F1.0°C 75% 14.6 mph N23.5 kmh N 18.0 mph29.0 kmh 29.72 in1006.4 mb 0.00 in0.0 mm 0.00 in0.0 mm 0.00 in0.0 mm
03:50 PM 41.1°F5.1°C 33.8°F1.0°C 75% 13.6 mph N21.9 kmh N 19.0 mph30.6 kmh 29.72 in1006.4 mb 0.00 in0.0 mm 0.00 in0.0 mm 0.00 in0.0 mm
03:49 PM 41.1°F5.1°C 33.5°F0.8°C 74% 14.0 mph N22.5 kmh N 19.0 mph30.6 kmh 29.72 in1006.4 mb 0.00 in0.0 mm 0.00 in0.0 mm 0.00 in0.0 mm
03:48 PM 41.1°F5.1°C 33.5°F0.8°C 74% 14.8 mph N23.8 kmh N 21.0 mph33.8 kmh 29.72 in1006.4 mb 0.00 in0.0 mm 0.00 in0.0 mm 0.00 in0.0 mm
03:47 PM 41.1°F5.1°C 33.1°F0.6°C 73% 16.9 mph N27.2 kmh N 21.0 mph33.8 kmh 29.72 in1006.4 mb 0.00 in0.0 mm 0.00 in0.0 mm 0.00 in0.0 mm
03:46 PM 41.1°F5.1°C 33.1°F0.6°C 73% 16.0 mph N25.7 kmh N 22.0 mph35.4 kmh 29.72 in1006.4 mb 0.00 in0.0 mm 0.00 in0.0 mm 0.00 in0.0 mm
03:45 PM 41.1°F5.1°C 32.8°F0.4°C 72% 19.3 mph N31.1 kmh N 22.0 mph35.4 kmh 29.72 in1006.4 mb 0.00 in0.0 mm 0.00 in0.0 mm 0.00 in0.0 mm
03:44 PM 41.1°F5.1°C 33.1°F0.6°C 73% 15.8 mph N25.4 kmh N 22.0 mph35.4 kmh 29.72 in1006.4 mb 0.00 in0.0 mm 0.00 in0.0 mm 0.00 in0.0 mm
03:43 PM 41.1°F5.1°C 33.5°F0.8°C 74% 15.7 mph N25.3 kmh N 20.0 mph32.2 kmh 29.72 in1006.4 mb 0.00 in0.0 mm 0.00 in0.0 mm 0.00 in0.0 mm
03:42 PM 41.1°F5.1°C 33.5°F0.8°C 74% 15.0 mph N24.1 kmh N 20.0 mph32.2 kmh 29.72 in1006.4 mb 0.00 in0.0 mm 0.00 in0.0 mm 0.00 in0.0 mm
03:41 PM 41.1°F5.1°C 33.1°F0.6°C 73% 16.7 mph N26.9 kmh N 19.0 mph30.6 kmh 29.72 in1006.4 mb 0.00 in0.0 mm 0.00 in0.0 mm 0.00 in0.0 mm
03:40 PM 41.1°F5.1°C 33.1°F0.6°C 73% 14.7 mph N23.7 kmh N 19.0 mph30.6 kmh 29.72 in1006.4 mb 0.00 in0.0 mm 0.00 in0.0 mm 0.00 in0.0 mm
03:39 PM 41.1°F5.1°C 33.1°F0.6°C 73% 15.6 mph N25.1 kmh N 19.0 mph30.6 kmh 29.71 in1006.1 mb 0.00 in0.0 mm 0.00 in0.0 mm 0.00 in0.0 mm
03:38 PM 41.1°F5.1°C 33.1°F0.6°C 73% 16.4 mph N26.4 kmh N 21.0 mph33.8 kmh 29.72 in1006.4 mb 0.00 in0.0 mm 0.00 in0.0 mm 0.00 in0.0 mm
03:37 PM 41.2°F5.1°C 32.9°F0.5°C 72% 17.2 mph N27.7 kmh N 21.0 mph33.8 kmh 29.71 in1006.1 mb 0.00 in0.0 mm 0.00 in0.0 mm 0.00 in0.0 mm
03:36 PM 41.2°F5.1°C 33.2°F0.7°C 73% 17.1 mph N27.5 kmh N 20.0 mph32.2 kmh 29.71 in1006.1 mb 0.00 in0.0 mm 0.00 in0.0 mm 0.00 in0.0 mm
03:35 PM 41.2°F5.1°C 33.2°F0.7°C 73% 15.7 mph N25.3 kmh N 21.0 mph33.8 kmh 29.71 in1006.1 mb 0.00 in0.0 mm 0.00 in0.0 mm 0.00 in0.0 mm
03:34 PM 41.2°F5.1°C 32.9°F0.5°C 72% 17.5 mph N28.2 kmh N 21.0 mph33.8 kmh 29.71 in1006.1 mb 0.00 in0.0 mm 0.00 in0.0 mm 0.00 in0.0 mm
03:33 PM 41.3°F5.2°C 33.3°F0.7°C 73% 17.1 mph N27.5 kmh N 21.0 mph33.8 kmh 29.71 in1006.1 mb 0.00 in0.0 mm 0.00 in0.0 mm 0.00 in0.0 mm
03:32 PM 41.2°F5.1°C 32.9°F0.5°C 72% 15.9 mph N25.6 kmh N 21.0 mph33.8 kmh 29.71 in1006.1 mb 0.00 in0.0 mm 0.00 in0.0 mm 0.00 in0.0 mm
03:31 PM 41.2°F5.1°C 32.9°F0.5°C 72% 17.1 mph N27.5 kmh N 21.0 mph33.8 kmh 29.71 in1006.1 mb 0.00 in0.0 mm 0.00 in0.0 mm 0.00 in0.0 mm
03:30 PM 41.2°F5.1°C 32.5°F0.3°C 71% 17.7 mph N28.5 kmh N 21.0 mph33.8 kmh 29.71 in1006.1 mb 0.00 in0.0 mm 0.00 in0.0 mm 0.00 in0.0 mm
03:29 PM 41.2°F5.1°C 33.2°F0.7°C 73% 16.2 mph N26.1 kmh N 21.0 mph33.8 kmh 29.71 in1006.1 mb 0.00 in0.0 mm 0.00 in0.0 mm 0.00 in0.0 mm
03:28 PM 41.3°F5.2°C 33.3°F0.7°C 73% 16.5 mph N26.6 kmh N 21.0 mph33.8 kmh 29.71 in1006.1 mb 0.00 in0.0 mm 0.00 in0.0 mm 0.00 in0.0 mm
03:27 PM 41.3°F5.2°C 33.0°F0.6°C 72% 18.4 mph NNW29.6 kmh NNW 22.0 mph35.4 kmh 29.71 in1006.1 mb 0.00 in0.0 mm 0.00 in0.0 mm 0.00 in0.0 mm
03:26 PM 41.3°F5.2°C 33.0°F0.6°C 72% 17.7 mph N28.5 kmh N 23.0 mph37.0 kmh 29.71 in1006.1 mb 0.00 in0.0 mm 0.00 in0.0 mm 0.00 in0.0 mm
03:25 PM 41.3°F5.2°C 32.3°F0.2°C 70% 19.9 mph N32.0 kmh N 25.0 mph40.2 kmh 29.71 in1006.1 mb 0.00 in0.0 mm 0.00 in0.0 mm 0.00 in0.0 mm
03:24 PM 41.3°F5.2°C 32.6°F0.3°C 71% 21.0 mph N33.8 kmh N 25.0 mph40.2 kmh 29.71 in1006.1 mb 0.00 in0.0 mm 0.00 in0.0 mm 0.00 in0.0 mm
03:23 PM 41.3°F5.2°C 32.3°F0.2°C 70% 20.3 mph N32.7 kmh N 24.0 mph38.6 kmh 29.71 in1006.1 mb 0.00 in0.0 mm 0.00 in0.0 mm 0.00 in0.0 mm
03:22 PM 41.3°F5.2°C 33.0°F0.6°C 72% 18.6 mph N29.9 kmh N 23.0 mph37.0 kmh 29.71 in1006.1 mb 0.00 in0.0 mm 0.00 in0.0 mm 0.00 in0.0 mm
03:21 PM 41.4°F5.2°C 32.7°F0.4°C 71% 19.6 mph N31.5 kmh N 25.0 mph40.2 kmh 29.71 in1006.1 mb 0.00 in0.0 mm 0.00 in0.0 mm 0.00 in0.0 mm
03:20 PM 41.5°F5.3°C 33.5°F0.8°C 73% 21.0 mph N33.8 kmh N 25.0 mph40.2 kmh 29.71 in1006.1 mb 0.00 in0.0 mm 0.00 in0.0 mm 0.00 in0.0 mm
03:19 PM 41.4°F5.2°C 33.4°F0.8°C 73% 22.6 mph NNW36.4 kmh NNW 24.0 mph38.6 kmh 29.71 in1006.1 mb 0.00 in0.0 mm 0.00 in0.0 mm 0.00 in0.0 mm
03:18 PM 41.4°F5.2°C 33.1°F0.6°C 72% 16.5 mph N26.6 kmh N 23.0 mph37.0 kmh 29.71 in1006.1 mb 0.00 in0.0 mm 0.00 in0.0 mm 0.00 in0.0 mm
03:17 PM 41.3°F5.2°C 33.3°F0.7°C 73% 18.9 mph N30.4 kmh N 23.0 mph37.0 kmh 29.71 in1006.1 mb 0.00 in0.0 mm 0.00 in0.0 mm 0.00 in0.0 mm
03:16 PM 41.4°F5.2°C 33.1°F0.6°C 72% 18.9 mph N30.4 kmh N 23.0 mph37.0 kmh 29.70 in1005.8 mb 0.00 in0.0 mm 0.00 in0.0 mm 0.00 in0.0 mm
03:15 PM 41.3°F5.2°C 32.3°F0.2°C 70% 20.4 mph N32.8 kmh N 27.0 mph43.5 kmh 29.71 in1006.1 mb 0.00 in0.0 mm 0.00 in0.0 mm 0.00 in0.0 mm
03:14 PM 41.4°F5.2°C 32.7°F0.4°C 71% 22.0 mph N35.4 kmh N 27.0 mph43.5 kmh 29.70 in1005.8 mb 0.00 in0.0 mm 0.00 in0.0 mm 0.00 in0.0 mm
03:13 PM 41.4°F5.2°C 32.7°F0.4°C 71% 19.6 mph N31.5 kmh N 25.0 mph40.2 kmh 29.70 in1005.8 mb 0.00 in0.0 mm 0.00 in0.0 mm 0.00 in0.0 mm
03:12 PM 41.5°F5.3°C 32.8°F0.4°C 71% 20.2 mph N32.5 kmh N 24.0 mph38.6 kmh 29.70 in1005.8 mb 0.00 in0.0 mm 0.00 in0.0 mm 0.00 in0.0 mm
03:11 PM 41.5°F5.3°C 33.5°F0.8°C 73% 20.0 mph N32.2 kmh N 26.0 mph41.8 kmh 29.70 in1005.8 mb 0.00 in0.0 mm 0.00 in0.0 mm 0.00 in0.0 mm
03:10 PM 41.5°F5.3°C 33.2°F0.7°C 72% 20.9 mph N33.6 kmh N 26.0 mph41.8 kmh 29.70 in1005.8 mb 0.00 in0.0 mm 0.00 in0.0 mm 0.00 in0.0 mm
03:09 PM 41.5°F5.3°C 32.8°F0.4°C 71% 19.9 mph N32.0 kmh N 25.0 mph40.2 kmh 29.70 in1005.8 mb 0.00 in0.0 mm 0.00 in0.0 mm 0.00 in0.0 mm
03:08 PM 41.5°F5.3°C 33.8°F1.0°C 74% 21.2 mph N34.1 kmh N 24.0 mph38.6 kmh 29.70 in1005.8 mb 0.00 in0.0 mm 0.00 in0.0 mm 0.00 in0.0 mm
03:07 PM 41.5°F5.3°C 33.5°F0.8°C 73% 16.5 mph N26.6 kmh N 22.0 mph35.4 kmh 29.70 in1005.8 mb 0.00 in0.0 mm 0.00 in0.0 mm 0.00 in0.0 mm
03:06 PM 41.5°F5.3°C 33.2°F0.7°C 72% 19.6 mph N31.5 kmh N 22.0 mph35.4 kmh 29.70 in1005.8 mb 0.00 in0.0 mm 0.00 in0.0 mm 0.00 in0.0 mm
03:05 PM 41.5°F5.3°C 33.2°F0.7°C 72% 19.6 mph N31.5 kmh N 24.0 mph38.6 kmh 29.70 in1005.8 mb 0.00 in0.0 mm 0.00 in0.0 mm 0.00 in0.0 mm
03:04 PM 41.5°F5.3°C 33.8°F1.0°C 74% 22.2 mph NNW35.7 kmh NNW 26.0 mph41.8 kmh 29.70 in1005.8 mb 0.00 in0.0 mm 0.00 in0.0 mm 0.00 in0.0 mm
03:03 PM 41.5°F5.3°C 33.5°F0.8°C 73% 22.4 mph NNW36.0 kmh NNW 26.0 mph41.8 kmh 29.70 in1005.8 mb 0.00 in0.0 mm 0.00 in0.0 mm 0.00 in0.0 mm
03:02 PM 41.5°F5.3°C 33.5°F0.8°C 73% 21.4 mph N34.4 kmh N 24.0 mph38.6 kmh 29.70 in1005.8 mb 0.00 in0.0 mm 0.00 in0.0 mm 0.00 in0.0 mm
03:01 PM 41.5°F5.3°C 33.8°F1.0°C 74% 20.6 mph NNW33.2 kmh NNW 25.0 mph40.2 kmh 29.70 in1005.8 mb 0.00 in0.0 mm 0.00 in0.0 mm 0.00 in0.0 mm
03:00 PM 41.5°F5.3°C 33.8°F1.0°C 74% 22.1 mph NNW35.6 kmh NNW 25.0 mph40.2 kmh 29.70 in1005.8 mb 0.00 in0.0 mm 0.00 in0.0 mm 0.00 in0.0 mm
02:59 PM 41.5°F5.3°C 33.8°F1.0°C 74% 19.5 mph N31.4 kmh N 24.0 mph38.6 kmh 29.70 in1005.8 mb 0.00 in0.0 mm 0.00 in0.0 mm 0.00 in0.0 mm
02:58 PM 41.5°F5.3°C 33.5°F0.8°C 73% 19.2 mph N30.9 kmh N 23.0 mph37.0 kmh 29.70 in1005.8 mb 0.00 in0.0 mm 0.00 in0.0 mm 0.00 in0.0 mm
02:57 PM 41.5°F5.3°C 33.5°F0.8°C 73% 20.4 mph N32.8 kmh N 23.0 mph37.0 kmh 29.70 in1005.8 mb 0.00 in0.0 mm 0.00 in0.0 mm 0.00 in0.0 mm
02:56 PM 41.5°F5.3°C 33.8°F1.0°C 74% 19.7 mph NNW31.7 kmh NNW 23.0 mph37.0 kmh 29.70 in1005.8 mb 0.00 in0.0 mm 0.00 in0.0 mm 0.00 in0.0 mm
02:55 PM 41.5°F5.3°C 33.8°F1.0°C 74% 19.1 mph N30.7 kmh N 21.0 mph33.8 kmh 29.70 in1005.8 mb 0.00 in0.0 mm 0.00 in0.0 mm 0.00 in0.0 mm
02:54 PM 41.5°F5.3°C 34.2°F1.2°C 75% 15.5 mph N24.9 kmh N 21.0 mph33.8 kmh 29.70 in1005.8 mb 0.00 in0.0 mm 0.00 in0.0 mm 0.00 in0.0 mm
02:53 PM 41.5°F5.3°C 33.8°F1.0°C 74% 16.6 mph N26.7 kmh N 21.0 mph33.8 kmh 29.70 in1005.8 mb 0.00 in0.0 mm 0.00 in0.0 mm 0.00 in0.0 mm
02:52 PM 41.5°F5.3°C 33.5°F0.8°C 73% 18.1 mph N29.1 kmh N 21.0 mph33.8 kmh 29.70 in1005.8 mb 0.00 in0.0 mm 0.00 in0.0 mm 0.00 in0.0 mm
02:51 PM 41.5°F5.3°C 33.5°F0.8°C 73% 18.2 mph N29.3 kmh N 23.0 mph37.0 kmh 29.70 in1005.8 mb 0.00 in0.0 mm 0.00 in0.0 mm 0.00 in0.0 mm
02:50 PM 41.6°F5.3°C 34.3°F1.3°C 75% 18.6 mph N29.9 kmh N 23.0 mph37.0 kmh 29.70 in1005.8 mb 0.00 in0.0 mm 0.00 in0.0 mm 0.00 in0.0 mm
02:49 PM 41.5°F5.3°C 34.2°F1.2°C 75% 16.5 mph N26.6 kmh N 21.0 mph33.8 kmh 29.69 in1005.4 mb 0.00 in0.0 mm 0.00 in0.0 mm 0.00 in0.0 mm
02:48 PM 41.5°F5.3°C 33.8°F1.0°C 74% 16.6 mph N26.7 kmh N 22.0 mph35.4 kmh 29.69 in1005.4 mb 0.00 in0.0 mm 0.00 in0.0 mm 0.00 in0.0 mm
02:47 PM 41.4°F5.2°C 32.7°F0.4°C 71% 18.2 mph N29.3 kmh N 23.0 mph37.0 kmh 29.69 in1005.4 mb 0.00 in0.0 mm 0.00 in0.0 mm 0.00 in0.0 mm
02:46 PM 41.4°F5.2°C 33.4°F0.8°C 73% 19.4 mph N31.2 kmh N 26.0 mph41.8 kmh 29.69 in1005.4 mb 0.00 in0.0 mm 0.00 in0.0 mm 0.00 in0.0 mm
02:45 PM 41.4°F5.2°C 33.4°F0.8°C 73% 21.2 mph N34.1 kmh N 26.0 mph41.8 kmh 29.69 in1005.4 mb 0.00 in0.0 mm 0.00 in0.0 mm 0.00 in0.0 mm
02:44 PM 41.4°F5.2°C 33.7°F0.9°C 74% 19.3 mph N31.1 kmh N 24.0 mph38.6 kmh 29.69 in1005.4 mb 0.00 in0.0 mm 0.00 in0.0 mm 0.00 in0.0 mm
02:43 PM 41.4°F5.2°C 33.7°F0.9°C 74% 15.5 mph N24.9 kmh N 20.0 mph32.2 kmh 29.69 in1005.4 mb 0.00 in0.0 mm 0.00 in0.0 mm 0.00 in0.0 mm
02:42 PM 41.4°F5.2°C 33.7°F0.9°C 74% 16.0 mph N25.7 kmh N 20.0 mph32.2 kmh 29.69 in1005.4 mb 0.00 in0.0 mm 0.00 in0.0 mm 0.00 in0.0 mm
02:41 PM 41.4°F5.2°C 33.4°F0.8°C 73% 15.9 mph N25.6 kmh N 20.0 mph32.2 kmh 29.69 in1005.4 mb 0.00 in0.0 mm 0.00 in0.0 mm 0.00 in0.0 mm
02:40 PM 41.4°F5.2°C 33.4°F0.8°C 73% 17.1 mph N27.5 kmh N 21.0 mph33.8 kmh 29.69 in1005.4 mb 0.00 in0.0 mm 0.00 in0.0 mm 0.00 in0.0 mm
02:39 PM 41.5°F5.3°C 33.5°F0.8°C 73% 16.2 mph N26.1 kmh N 23.0 mph37.0 kmh 29.69 in1005.4 mb 0.00 in0.0 mm 0.00 in0.0 mm 0.00 in0.0 mm
02:38 PM 41.4°F5.2°C 33.4°F0.8°C 73% 18.6 mph N29.9 kmh N 23.0 mph37.0 kmh 29.69 in1005.4 mb 0.00 in0.0 mm 0.00 in0.0 mm 0.00 in0.0 mm
02:37 PM 41.3°F5.2°C 33.3°F0.7°C 73% 18.3 mph N29.5 kmh N 22.0 mph35.4 kmh 29.69 in1005.4 mb 0.00 in0.0 mm 0.00 in0.0 mm 0.00 in0.0 mm
02:36 PM 41.3°F5.2°C 33.0°F0.6°C 72% 18.5 mph N29.8 kmh N 24.0 mph38.6 kmh 29.69 in1005.4 mb 0.00 in0.0 mm 0.00 in0.0 mm 0.00 in0.0 mm
02:35 PM 41.3°F5.2°C 33.6°F0.9°C 74% 15.5 mph N24.9 kmh N 24.0 mph38.6 kmh 29.69 in1005.4 mb 0.00 in0.0 mm 0.00 in0.0 mm 0.00 in0.0 mm
02:34 PM 41.3°F5.2°C 33.0°F0.6°C 72% 16.0 mph N25.7 kmh N 20.0 mph32.2 kmh 29.69 in1005.4 mb 0.00 in0.0 mm 0.00 in0.0 mm 0.00 in0.0 mm
02:33 PM 41.4°F5.2°C 33.7°F0.9°C 74% 16.1 mph N25.9 kmh N 20.0 mph32.2 kmh 29.69 in1005.4 mb 0.00 in0.0 mm 0.00 in0.0 mm 0.00 in0.0 mm
02:32 PM 41.4°F5.2°C 33.7°F0.9°C 74% 14.5 mph N23.3 kmh N 22.0 mph35.4 kmh 29.69 in1005.4 mb 0.00 in0.0 mm 0.00 in0.0 mm 0.00 in0.0 mm
02:31 PM 41.3°F5.2°C 33.3°F0.7°C 73% 17.0 mph N27.4 kmh N 22.0 mph35.4 kmh 29.69 in1005.4 mb 0.00 in0.0 mm 0.00 in0.0 mm 0.00 in0.0 mm
02:30 PM 41.3°F5.2°C 33.3°F0.7°C 73% 18.7 mph N30.1 kmh N 24.0 mph38.6 kmh 29.69 in1005.4 mb 0.00 in0.0 mm 0.00 in0.0 mm 0.00 in0.0 mm
02:29 PM 41.3°F5.2°C 32.6°F0.3°C 71% 18.7 mph N30.1 kmh N 24.0 mph38.6 kmh 29.69 in1005.4 mb 0.00 in0.0 mm 0.00 in0.0 mm 0.00 in0.0 mm
02:28 PM 41.3°F5.2°C 33.0°F0.6°C 72% 19.6 mph N31.5 kmh N 23.0 mph37.0 kmh 29.69 in1005.4 mb 0.00 in0.0 mm 0.00 in0.0 mm 0.00 in0.0 mm
02:27 PM 41.2°F5.1°C 33.2°F0.7°C 73% 18.8 mph N30.3 kmh N 24.0 mph38.6 kmh 29.69 in1005.4 mb 0.00 in0.0 mm 0.00 in0.0 mm 0.00 in0.0 mm
02:26 PM 41.2°F5.1°C 33.6°F0.9°C 74% 18.5 mph N29.8 kmh N 24.0 mph38.6 kmh 29.69 in1005.4 mb 0.00 in0.0 mm 0.00 in0.0 mm 0.00 in0.0 mm
02:25 PM 41.2°F5.1°C 32.9°F0.5°C 72% 20.5 mph N33.0 kmh N 24.0 mph38.6 kmh 29.68 in1005.1 mb 0.00 in0.0 mm 0.00 in0.0 mm 0.00 in0.0 mm
02:24 PM 41.2°F5.1°C 32.9°F0.5°C 72% 21.7 mph N34.9 kmh N 25.0 mph40.2 kmh 29.68 in1005.1 mb 0.00 in0.0 mm 0.00 in0.0 mm 0.00 in0.0 mm
02:23 PM 41.2°F5.1°C 32.9°F0.5°C 72% 22.5 mph N36.2 kmh N 25.0 mph40.2 kmh 29.68 in1005.1 mb 0.00 in0.0 mm 0.00 in0.0 mm 0.00 in0.0 mm
02:22 PM 41.3°F5.2°C 33.0°F0.6°C 72% 20.9 mph N33.6 kmh N 23.0 mph37.0 kmh 29.68 in1005.1 mb 0.00 in0.0 mm 0.00 in0.0 mm 0.00 in0.0 mm
02:21 PM 41.3°F5.2°C 33.3°F0.7°C 73% 17.8 mph N28.6 kmh N 25.0 mph40.2 kmh 29.68 in1005.1 mb 0.00 in0.0 mm 0.00 in0.0 mm 0.00 in0.0 mm
02:20 PM 41.2°F5.1°C 33.6°F0.9°C 74% 19.2 mph N30.9 kmh N 26.0 mph41.8 kmh 29.68 in1005.1 mb 0.00 in0.0 mm 0.00 in0.0 mm 0.00 in0.0 mm
02:19 PM 41.2°F5.1°C 33.2°F0.7°C 73% 20.4 mph N32.8 kmh N 26.0 mph41.8 kmh 29.68 in1005.1 mb 0.00 in0.0 mm 0.00 in0.0 mm 0.00 in0.0 mm
02:18 PM 41.3°F5.2°C 33.3°F0.7°C 73% 20.4 mph N32.8 kmh N 26.0 mph41.8 kmh 29.68 in1005.1 mb 0.00 in0.0 mm 0.00 in0.0 mm 0.00 in0.0 mm
02:17 PM 41.3°F5.2°C 33.3°F0.7°C 73% 18.2 mph N29.3 kmh N 22.0 mph35.4 kmh 29.68 in1005.1 mb 0.00 in0.0 mm 0.00 in0.0 mm 0.00 in0.0 mm
02:16 PM 41.3°F5.2°C 33.3°F0.7°C 73% 17.7 mph N28.5 kmh N 22.0 mph35.4 kmh 29.68 in1005.1 mb 0.00 in0.0 mm 0.00 in0.0 mm 0.00 in0.0 mm
02:15 PM 41.3°F5.2°C 33.0°F0.6°C 72% 17.2 mph N27.7 kmh N 22.0 mph35.4 kmh 29.68 in1005.1 mb 0.00 in0.0 mm 0.00 in0.0 mm 0.00 in0.0 mm
02:14 PM 41.2°F5.1°C 32.9°F0.5°C 72% 19.5 mph N31.4 kmh N 23.0 mph37.0 kmh 29.68 in1005.1 mb 0.00 in0.0 mm 0.00 in0.0 mm 0.00 in0.0 mm
02:13 PM 41.2°F5.1°C 33.2°F0.7°C 73% 18.8 mph N30.3 kmh N 23.0 mph37.0 kmh 29.68 in1005.1 mb 0.00 in0.0 mm 0.00 in0.0 mm 0.00 in0.0 mm
02:12 PM 41.2°F5.1°C 33.2°F0.7°C 73% 18.8 mph N30.3 kmh N 23.0 mph37.0 kmh 29.68 in1005.1 mb 0.00 in0.0 mm 0.00 in0.0 mm 0.00 in0.0 mm
02:11 PM 41.1°F5.1°C 33.8°F1.0°C 75% 17.9 mph N28.8 kmh N 21.0 mph33.8 kmh 29.68 in1005.1 mb 0.00 in0.0 mm 0.00 in0.0 mm 0.00 in0.0 mm
02:10 PM 41.1°F5.1°C 33.1°F0.6°C 73% 16.7 mph N26.9 kmh N 23.0 mph37.0 kmh 29.68 in1005.1 mb 0.00 in0.0 mm 0.00 in0.0 mm 0.00 in0.0 mm
02:09 PM 41.1°F5.1°C 32.8°F0.4°C 72% 20.6 mph N33.2 kmh N 24.0 mph38.6 kmh 29.68 in1005.1 mb 0.00 in0.0 mm 0.00 in0.0 mm 0.00 in0.0 mm
02:08 PM 41.1°F5.1°C 32.4°F0.2°C 71% 20.2 mph N32.5 kmh N 24.0 mph38.6 kmh 29.68 in1005.1 mb 0.00 in0.0 mm 0.00 in0.0 mm 0.00 in0.0 mm
02:07 PM 41.2°F5.1°C 32.5°F0.3°C 71% 20.5 mph N33.0 kmh N 24.0 mph38.6 kmh 29.68 in1005.1 mb 0.00 in0.0 mm 0.00 in0.0 mm 0.00 in0.0 mm
02:06 PM 41.2°F5.1°C 32.9°F0.5°C 72% 19.1 mph N30.7 kmh N 25.0 mph40.2 kmh 29.68 in1005.1 mb 0.00 in0.0 mm 0.00 in0.0 mm 0.00 in0.0 mm
02:05 PM 41.1°F5.1°C 32.4°F0.2°C 71% 20.7 mph N33.3 kmh N 25.0 mph40.2 kmh 29.68 in1005.1 mb 0.00 in0.0 mm 0.00 in0.0 mm 0.00 in0.0 mm
02:04 PM 41.1°F5.1°C 32.8°F0.4°C 72% 18.4 mph N29.6 kmh N 24.0 mph38.6 kmh 29.68 in1005.1 mb 0.00 in0.0 mm 0.00 in0.0 mm 0.00 in0.0 mm
02:03 PM 41.0°F5.0°C 32.3°F0.2°C 71% 17.7 mph N28.5 kmh N 24.0 mph38.6 kmh 29.68 in1005.1 mb 0.00 in0.0 mm 0.00 in0.0 mm 0.00 in0.0 mm
02:02 PM 41.0°F5.0°C 32.7°F0.4°C 72% 19.8 mph N31.9 kmh N 24.0 mph38.6 kmh 29.68 in1005.1 mb 0.00 in0.0 mm 0.00 in0.0 mm 0.00 in0.0 mm
02:01 PM 41.1°F5.1°C 33.1°F0.6°C 73% 18.5 mph N29.8 kmh N 24.0 mph38.6 kmh 29.67 in1004.7 mb 0.00 in0.0 mm 0.00 in0.0 mm 0.00 in0.0 mm
02:00 PM 41.1°F5.1°C 33.1°F0.6°C 73% 17.5 mph N28.2 kmh N 23.0 mph37.0 kmh 29.68 in1005.1 mb 0.00 in0.0 mm 0.00 in0.0 mm 0.00 in0.0 mm
01:59 PM 41.1°F5.1°C 33.1°F0.6°C 73% 19.9 mph NNW32.0 kmh NNW 28.0 mph45.1 kmh 29.67 in1004.7 mb 0.00 in0.0 mm 0.00 in0.0 mm 0.00 in0.0 mm
01:58 PM 41.1°F5.1°C 32.4°F0.2°C 71% 24.0 mph NNW38.6 kmh NNW 28.0 mph45.1 kmh 29.67 in1004.7 mb 0.00 in0.0 mm 0.00 in0.0 mm 0.00 in0.0 mm
01:57 PM 41.1°F5.1°C 32.4°F0.2°C 71% 23.6 mph N38.0 kmh N 27.0 mph43.5 kmh 29.67 in1004.7 mb 0.00 in0.0 mm 0.00 in0.0 mm 0.00 in0.0 mm
01:56 PM 41.1°F5.1°C 32.8°F0.4°C 72% 22.7 mph N36.5 kmh N 28.0 mph45.1 kmh 29.67 in1004.7 mb 0.00 in0.0 mm 0.00 in0.0 mm 0.00 in0.0 mm
01:55 PM 41.1°F5.1°C 33.5°F0.8°C 74% 21.7 mph NNW34.9 kmh NNW 28.0 mph45.1 kmh 29.67 in1004.7 mb 0.00 in0.0 mm 0.00 in0.0 mm 0.00 in0.0 mm
01:54 PM 41.1°F5.1°C 33.1°F0.6°C 73% 20.4 mph N32.8 kmh N 27.0 mph43.5 kmh 29.67 in1004.7 mb 0.00 in0.0 mm 0.00 in0.0 mm 0.00 in0.0 mm
01:53 PM 41.1°F5.1°C 33.1°F0.6°C 73% 25.3 mph N40.7 kmh N 27.0 mph43.5 kmh 29.67 in1004.7 mb 0.00 in0.0 mm 0.00 in0.0 mm 0.00 in0.0 mm
01:52 PM 41.2°F5.1°C 33.6°F0.9°C 74% 22.2 mph N35.7 kmh N 26.0 mph41.8 kmh 29.67 in1004.7 mb 0.00 in0.0 mm 0.00 in0.0 mm 0.00 in0.0 mm
01:51 PM 41.1°F5.1°C 33.5°F0.8°C 74% 19.4 mph N31.2 kmh N 25.0 mph40.2 kmh 29.67 in1004.7 mb 0.00 in0.0 mm 0.00 in0.0 mm 0.00 in0.0 mm
01:50 PM 41.0°F5.0°C 33.4°F0.8°C 74% 22.3 mph N35.9 kmh N 26.0 mph41.8 kmh 29.67 in1004.7 mb 0.00 in0.0 mm 0.00 in0.0 mm 0.00 in0.0 mm
01:49 PM 41.0°F5.0°C 33.4°F0.8°C 74% 22.2 mph N35.7 kmh N 29.0 mph46.7 kmh 29.67 in1004.7 mb 0.00 in0.0 mm 0.00 in0.0 mm 0.00 in0.0 mm
01:48 PM 41.0°F5.0°C 33.4°F0.8°C 74% 24.8 mph N39.9 kmh N 29.0 mph46.7 kmh 29.67 in1004.7 mb 0.00 in0.0 mm 0.00 in0.0 mm 0.00 in0.0 mm
01:47 PM 41.0°F5.0°C 33.4°F0.8°C 74% 23.4 mph NNW37.7 kmh NNW 29.0 mph46.7 kmh 29.67 in1004.7 mb 0.00 in0.0 mm 0.00 in0.0 mm 0.00 in0.0 mm
01:46 PM 41.0°F5.0°C 33.0°F0.6°C 73% 25.1 mph N40.4 kmh N 28.0 mph45.1 kmh 29.67 in1004.7 mb 0.00 in0.0 mm 0.00 in0.0 mm 0.00 in0.0 mm
01:45 PM 41.0°F5.0°C 33.7°F0.9°C 75% 25.5 mph NNW41.0 kmh NNW 28.0 mph45.1 kmh 29.67 in1004.7 mb 0.00 in0.0 mm 0.00 in0.0 mm 0.00 in0.0 mm
01:44 PM 41.1°F5.1°C 33.1°F0.6°C 73% 24.2 mph NNW38.9 kmh NNW 27.0 mph43.5 kmh 29.66 in1004.4 mb 0.00 in0.0 mm 0.00 in0.0 mm 0.00 in0.0 mm
01:43 PM 41.1°F5.1°C 33.5°F0.8°C 74% 24.4 mph NNW39.3 kmh NNW 27.0 mph43.5 kmh 29.66 in1004.4 mb 0.00 in0.0 mm 0.00 in0.0 mm 0.00 in0.0 mm
01:42 PM 41.2°F5.1°C 33.9°F1.1°C 75% 21.8 mph N35.1 kmh N 27.0 mph43.5 kmh 29.67 in1004.7 mb 0.00 in0.0 mm 0.00 in0.0 mm 0.00 in0.0 mm
01:41 PM 41.1°F5.1°C 33.8°F1.0°C 75% 21.7 mph N34.9 kmh N 27.0 mph43.5 kmh 29.66 in1004.4 mb 0.00 in0.0 mm 0.00 in0.0 mm 0.00 in0.0 mm
01:40 PM 41.1°F5.1°C 33.8°F1.0°C 75% 19.3 mph N31.1 kmh N 23.0 mph37.0 kmh 29.66 in1004.4 mb 0.00 in0.0 mm 0.00 in0.0 mm 0.00 in0.0 mm
01:39 PM 41.1°F5.1°C 33.1°F0.6°C 73% 19.4 mph N31.2 kmh N 25.0 mph40.2 kmh 29.66 in1004.4 mb 0.00 in0.0 mm 0.00 in0.0 mm 0.00 in0.0 mm
01:38 PM 41.1°F5.1°C 32.4°F0.2°C 71% 21.7 mph N34.9 kmh N 25.0 mph40.2 kmh 29.66 in1004.4 mb 0.00 in0.0 mm 0.00 in0.0 mm 0.00 in0.0 mm
01:37 PM 41.2°F5.1°C 32.9°F0.5°C 72% 20.7 mph N33.3 kmh N 25.0 mph40.2 kmh 29.66 in1004.4 mb 0.00 in0.0 mm 0.00 in0.0 mm 0.00 in0.0 mm
01:36 PM 41.2°F5.1°C 33.6°F0.9°C 74% 17.6 mph N28.3 kmh N 25.0 mph40.2 kmh 29.66 in1004.4 mb 0.00 in0.0 mm 0.00 in0.0 mm 0.00 in0.0 mm
01:35 PM 41.2°F5.1°C 33.6°F0.9°C 74% 22.2 mph N35.7 kmh N 25.0 mph40.2 kmh 29.66 in1004.4 mb 0.00 in0.0 mm 0.00 in0.0 mm 0.00 in0.0 mm
01:34 PM 41.1°F5.1°C 33.1°F0.6°C 73% 20.8 mph N33.5 kmh N 25.0 mph40.2 kmh 29.66 in1004.4 mb 0.00 in0.0 mm 0.00 in0.0 mm 0.00 in0.0 mm
01:33 PM 41.2°F5.1°C 33.6°F0.9°C 74% 21.7 mph N34.9 kmh N 25.0 mph40.2 kmh 29.66 in1004.4 mb 0.00 in0.0 mm 0.00 in0.0 mm 0.00 in0.0 mm
01:32 PM 41.2°F5.1°C 33.9°F1.1°C 75% 21.0 mph N33.8 kmh N 25.0 mph40.2 kmh 29.66 in1004.4 mb 0.00 in0.0 mm 0.00 in0.0 mm 0.00 in0.0 mm
01:31 PM 41.1°F5.1°C 33.8°F1.0°C 75% 17.0 mph N27.4 kmh N 22.0 mph35.4 kmh 29.66 in1004.4 mb 0.00 in0.0 mm 0.00 in0.0 mm 0.00 in0.0 mm
01:30 PM 41.1°F5.1°C 33.5°F0.8°C 74% 17.4 mph N28.0 kmh N 22.0 mph35.4 kmh 29.66 in1004.4 mb 0.00 in0.0 mm 0.00 in0.0 mm 0.00 in0.0 mm
01:29 PM 41.1°F5.1°C 33.1°F0.6°C 73% 18.4 mph N29.6 kmh N 23.0 mph37.0 kmh 29.66 in1004.4 mb 0.00 in0.0 mm 0.00 in0.0 mm 0.00 in0.0 mm
01:28 PM 41.1°F5.1°C 33.5°F0.8°C 74% 19.0 mph N30.6 kmh N 25.0 mph40.2 kmh 29.66 in1004.4 mb 0.00 in0.0 mm 0.00 in0.0 mm 0.00 in0.0 mm
01:27 PM 41.1°F5.1°C 33.1°F0.6°C 73% 21.6 mph N34.8 kmh N 26.0 mph41.8 kmh 29.66 in1004.4 mb 0.00 in0.0 mm 0.00 in0.0 mm 0.00 in0.0 mm
01:26 PM 41.1°F5.1°C 33.8°F1.0°C 75% 23.5 mph N37.8 kmh N 26.0 mph41.8 kmh 29.66 in1004.4 mb 0.00 in0.0 mm 0.00 in0.0 mm 0.00 in0.0 mm
01:25 PM 41.1°F5.1°C 33.5°F0.8°C 74% 21.3 mph NNW34.3 kmh NNW 26.0 mph41.8 kmh 29.66 in1004.4 mb 0.00 in0.0 mm 0.00 in0.0 mm 0.00 in0.0 mm
01:24 PM 41.0°F5.0°C 33.0°F0.6°C 73% 24.0 mph NNW38.6 kmh NNW 27.0 mph43.5 kmh 29.66 in1004.4 mb 0.00 in0.0 mm 0.00 in0.0 mm 0.00 in0.0 mm
01:23 PM 41.0°F5.0°C 33.0°F0.6°C 73% 24.0 mph NNW38.6 kmh NNW 27.0 mph43.5 kmh 29.66 in1004.4 mb 0.00 in0.0 mm 0.00 in0.0 mm 0.00 in0.0 mm
01:22 PM 40.9°F4.9°C 32.9°F0.5°C 73% 22.7 mph N36.5 kmh N 26.0 mph41.8 kmh 29.66 in1004.4 mb 0.00 in0.0 mm 0.00 in0.0 mm 0.00 in0.0 mm
01:21 PM 40.9°F4.9°C 32.6°F0.3°C 72% 23.6 mph N38.0 kmh N 26.0 mph41.8 kmh 29.66 in1004.4 mb 0.00 in0.0 mm 0.00 in0.0 mm 0.00 in0.0 mm
01:20 PM 40.9°F4.9°C 32.6°F0.3°C 72% 24.1 mph N38.8 kmh N 26.0 mph41.8 kmh 29.66 in1004.4 mb 0.00 in0.0 mm 0.00 in0.0 mm 0.00 in0.0 mm
01:19 PM 40.9°F4.9°C 32.9°F0.5°C 73% 21.5 mph N34.6 kmh N 25.0 mph40.2 kmh 29.66 in1004.4 mb 0.00 in0.0 mm 0.00 in0.0 mm 0.00 in0.0 mm
01:18 PM 40.9°F4.9°C 33.3°F0.7°C 74% 19.6 mph N31.5 kmh N 26.0 mph41.8 kmh 29.66 in1004.4 mb 0.00 in0.0 mm 0.00 in0.0 mm 0.00 in0.0 mm
01:17 PM 40.9°F4.9°C 32.2°F0.1°C 71% 23.4 mph N37.7 kmh N 28.0 mph45.1 kmh 29.66 in1004.4 mb 0.00 in0.0 mm 0.00 in0.0 mm 0.00 in0.0 mm
01:16 PM 41.0°F5.0°C 32.7°F0.4°C 72% 23.8 mph N38.3 kmh N 28.0 mph45.1 kmh 29.66 in1004.4 mb 0.00 in0.0 mm 0.00 in0.0 mm 0.00 in0.0 mm
01:15 PM 41.1°F5.1°C 32.1°F0.1°C 70% 24.3 mph N39.1 kmh N 28.0 mph45.1 kmh 29.66 in1004.4 mb 0.00 in0.0 mm 0.00 in0.0 mm 0.00 in0.0 mm
01:14 PM 41.2°F5.1°C 32.5°F0.3°C 71% 24.8 mph N39.9 kmh N 28.0 mph45.1 kmh 29.66 in1004.4 mb 0.00 in0.0 mm 0.00 in0.0 mm 0.00 in0.0 mm
01:13 PM 41.4°F5.2°C 33.1°F0.6°C 72% 22.2 mph N35.7 kmh N 26.0 mph41.8 kmh 29.66 in1004.4 mb 0.00 in0.0 mm 0.00 in0.0 mm 0.00 in0.0 mm
01:12 PM 41.5°F5.3°C 34.2°F1.2°C 75% 21.7 mph N34.9 kmh N 29.0 mph46.7 kmh 29.66 in1004.4 mb 0.00 in0.0 mm 0.00 in0.0 mm 0.00 in0.0 mm
01:11 PM 41.6°F5.3°C 33.9°F1.1°C 74% 23.7 mph NNW38.1 kmh NNW 29.0 mph46.7 kmh 29.66 in1004.4 mb 0.00 in0.0 mm 0.00 in0.0 mm 0.00 in0.0 mm
01:10 PM 41.6°F5.3°C 33.9°F1.1°C 74% 23.0 mph N37.0 kmh N 27.0 mph43.5 kmh 29.66 in1004.4 mb 0.00 in0.0 mm 0.00 in0.0 mm 0.00 in0.0 mm
01:09 PM 41.6°F5.3°C 33.6°F0.9°C 73% 20.7 mph N33.3 kmh N 25.0 mph40.2 kmh 29.66 in1004.4 mb 0.00 in0.0 mm 0.00 in0.0 mm 0.00 in0.0 mm
01:08 PM 41.5°F5.3°C 33.2°F0.7°C 72% 21.2 mph N34.1 kmh N 26.0 mph41.8 kmh 29.65 in1004.1 mb 0.00 in0.0 mm 0.00 in0.0 mm 0.00 in0.0 mm
01:07 PM 41.5°F5.3°C 33.2°F0.7°C 72% 21.7 mph N34.9 kmh N 26.0 mph41.8 kmh 29.66 in1004.4 mb 0.00 in0.0 mm 0.00 in0.0 mm 0.00 in0.0 mm
01:06 PM 41.5°F5.3°C 33.5°F0.8°C 73% 20.9 mph N33.6 kmh N 26.0 mph41.8 kmh 29.65 in1004.1 mb 0.00 in0.0 mm 0.00 in0.0 mm 0.00 in0.0 mm
01:05 PM 41.4°F5.2°C 33.1°F0.6°C 72% 21.7 mph N34.9 kmh N 25.0 mph40.2 kmh 29.65 in1004.1 mb 0.00 in0.0 mm 0.00 in0.0 mm 0.00 in0.0 mm
01:04 PM 41.5°F5.3°C 32.8°F0.4°C 71% 22.2 mph N35.7 kmh N 28.0 mph45.1 kmh 29.65 in1004.1 mb 0.00 in0.0 mm 0.00 in0.0 mm 0.00 in0.0 mm
01:03 PM 41.5°F5.3°C 33.2°F0.7°C 72% 24.2 mph N38.9 kmh N 28.0 mph45.1 kmh 29.65 in1004.1 mb 0.00 in0.0 mm 0.00 in0.0 mm 0.00 in0.0 mm
01:02 PM 41.5°F5.3°C 33.8°F1.0°C 74% 21.0 mph N33.8 kmh N 27.0 mph43.5 kmh 29.65 in1004.1 mb 0.00 in0.0 mm 0.00 in0.0 mm 0.00 in0.0 mm
01:01 PM 41.4°F5.2°C 33.1°F0.6°C 72% 21.5 mph N34.6 kmh N 27.0 mph43.5 kmh 29.65 in1004.1 mb 0.00 in0.0 mm 0.00 in0.0 mm 0.00 in0.0 mm
01:00 PM 41.4°F5.2°C 33.7°F0.9°C 74% 21.1 mph N34.0 kmh N 25.0 mph40.2 kmh 29.65 in1004.1 mb 0.00 in0.0 mm 0.00 in0.0 mm 0.00 in0.0 mm
12:59 PM 41.4°F5.2°C 33.1°F0.6°C 72% 21.4 mph N34.4 kmh N 27.0 mph43.5 kmh 29.65 in1004.1 mb 0.00 in0.0 mm 0.00 in0.0 mm 0.00 in0.0 mm
12:58 PM 41.4°F5.2°C 33.1°F0.6°C 72% 20.1 mph N32.3 kmh N 27.0 mph43.5 kmh 29.65 in1004.1 mb 0.00 in0.0 mm 0.00 in0.0 mm 0.00 in0.0 mm
12:57 PM 41.3°F5.2°C 32.6°F0.3°C 71% 22.1 mph N35.6 kmh N 28.0 mph45.1 kmh 29.65 in1004.1 mb 0.00 in0.0 mm 0.00 in0.0 mm 0.00 in0.0 mm
12:56 PM 41.3°F5.2°C 32.6°F0.3°C 71% 24.0 mph N38.6 kmh N 28.0 mph45.1 kmh 29.65 in1004.1 mb 0.00 in0.0 mm 0.00 in0.0 mm 0.00 in0.0 mm
12:55 PM 41.4°F5.2°C 33.4°F0.8°C 73% 24.2 mph N38.9 kmh N 28.0 mph45.1 kmh 29.65 in1004.1 mb 0.00 in0.0 mm 0.00 in0.0 mm 0.00 in0.0 mm
12:54 PM 41.4°F5.2°C 32.7°F0.4°C 71% 21.2 mph N34.1 kmh N 29.0 mph46.7 kmh 29.65 in1004.1 mb 0.00 in0.0 mm 0.00 in0.0 mm 0.00 in0.0 mm
12:53 PM 41.3°F5.2°C 32.6°F0.3°C 71% 23.8 mph N38.3 kmh N 29.0 mph46.7 kmh 29.65 in1004.1 mb 0.00 in0.0 mm 0.00 in0.0 mm 0.00 in0.0 mm
12:52 PM 41.4°F5.2°C 32.4°F0.2°C 70% 24.6 mph N39.6 kmh N 30.0 mph48.3 kmh 29.64 in1003.7 mb 0.00 in0.0 mm 0.00 in0.0 mm 0.00 in0.0 mm
12:51 PM 41.4°F5.2°C 32.7°F0.4°C 71% 25.1 mph N40.4 kmh N 30.0 mph48.3 kmh 29.65 in1004.1 mb 0.00 in0.0 mm 0.00 in0.0 mm 0.00 in0.0 mm
12:50 PM 41.4°F5.2°C 33.1°F0.6°C 72% 24.6 mph N39.6 kmh N 30.0 mph48.3 kmh 29.64 in1003.7 mb 0.00 in0.0 mm 0.00 in0.0 mm 0.00 in0.0 mm
12:49 PM 41.4°F5.2°C 32.4°F0.2°C 70% 25.7 mph N41.4 kmh N 30.0 mph48.3 kmh 29.64 in1003.7 mb 0.00 in0.0 mm 0.00 in0.0 mm 0.00 in0.0 mm
12:48 PM 41.4°F5.2°C 32.7°F0.4°C 71% 24.1 mph N38.8 kmh N 29.0 mph46.7 kmh 29.64 in1003.7 mb 0.00 in0.0 mm 0.00 in0.0 mm 0.00 in0.0 mm
12:47 PM 41.5°F5.3°C 33.8°F1.0°C 74% 21.7 mph N34.9 kmh N 29.0 mph46.7 kmh 29.64 in1003.7 mb 0.00 in0.0 mm 0.00 in0.0 mm 0.00 in0.0 mm
12:46 PM 41.4°F5.2°C 33.4°F0.8°C 73% 20.7 mph N33.3 kmh N 27.0 mph43.5 kmh 29.64 in1003.7 mb 0.00 in0.0 mm 0.00 in0.0 mm 0.00 in0.0 mm
12:45 PM 41.4°F5.2°C 33.4°F0.8°C 73% 22.2 mph N35.7 kmh N 26.0 mph41.8 kmh 29.64 in1003.7 mb 0.00 in0.0 mm 0.00 in0.0 mm 0.00 in0.0 mm
12:44 PM 41.3°F5.2°C 33.3°F0.7°C 73% 22.3 mph N35.9 kmh N 28.0 mph45.1 kmh 29.64 in1003.7 mb 0.00 in0.0 mm 0.00 in0.0 mm 0.00 in0.0 mm
12:43 PM 41.3°F5.2°C 32.3°F0.2°C 70% 25.1 mph N40.4 kmh N 29.0 mph46.7 kmh 29.64 in1003.7 mb 0.00 in0.0 mm 0.00 in0.0 mm 0.00 in0.0 mm
12:42 PM 41.4°F5.2°C 33.4°F0.8°C 73% 25.6 mph N41.2 kmh N 29.0 mph46.7 kmh 29.64 in1003.7 mb 0.00 in0.0 mm 0.00 in0.0 mm 0.00 in0.0 mm
12:41 PM 41.4°F5.2°C 33.1°F0.6°C 72% 23.7 mph 38.1 kmh 30.0 mph48.3 kmh 29.64 in1003.7 mb 0.00 in0.0 mm 0.00 in0.0 mm 0.00 in0.0 mm
12:40 PM 41.4°F5.2°C 32.4°F0.2°C 70% 26.6 mph N42.8 kmh N 32.0 mph51.5 kmh 29.64 in1003.7 mb 0.00 in0.0 mm 0.00 in0.0 mm 0.00 in0.0 mm
12:39 PM 41.5°F5.3°C 33.8°F1.0°C 74% 25.3 mph N40.7 kmh N 32.0 mph51.5 kmh 29.64 in1003.7 mb 0.00 in0.0 mm 0.00 in0.0 mm 0.00 in0.0 mm
12:38 PM 41.4°F5.2°C 33.1°F0.6°C 72% 24.8 mph N39.9 kmh N 29.0 mph46.7 kmh 29.64 in1003.7 mb 0.00 in0.0 mm 0.00 in0.0 mm 0.00 in0.0 mm
12:37 PM 41.4°F5.2°C 33.7°F0.9°C 74% 24.5 mph N39.4 kmh N 29.0 mph46.7 kmh 29.64 in1003.7 mb 0.00 in0.0 mm 0.00 in0.0 mm 0.00 in0.0 mm
12:36 PM 41.3°F5.2°C 33.0°F0.6°C 72% 26.3 mph N42.3 kmh N 29.0 mph46.7 kmh 29.64 in1003.7 mb 0.00 in0.0 mm 0.00 in0.0 mm 0.00 in0.0 mm
12:35 PM 41.3°F5.2°C 32.6°F0.3°C 71% 24.4 mph N39.3 kmh N 29.0 mph46.7 kmh 29.64 in1003.7 mb 0.00 in0.0 mm 0.00 in0.0 mm 0.00 in0.0 mm
12:34 PM 41.3°F5.2°C 32.6°F0.3°C 71% 25.0 mph N40.2 kmh N 31.0 mph49.9 kmh 29.64 in1003.7 mb 0.00 in0.0 mm 0.00 in0.0 mm 0.00 in0.0 mm
12:33 PM 41.3°F5.2°C 33.0°F0.6°C 72% 25.7 mph N41.4 kmh N 31.0 mph49.9 kmh 29.64 in1003.7 mb 0.00 in0.0 mm 0.00 in0.0 mm 0.00 in0.0 mm
12:32 PM 41.4°F5.2°C 32.7°F0.4°C 71% 25.2 mph N40.6 kmh N 33.0 mph53.1 kmh 29.64 in1003.7 mb 0.00 in0.0 mm 0.00 in0.0 mm 0.00 in0.0 mm
12:31 PM 41.4°F5.2°C 32.4°F0.2°C 70% 29.1 mph N46.8 kmh N 33.0 mph53.1 kmh 29.64 in1003.7 mb 0.00 in0.0 mm 0.00 in0.0 mm 0.00 in0.0 mm
12:30 PM 41.4°F5.2°C 33.1°F0.6°C 72% 27.4 mph N44.1 kmh N 31.0 mph49.9 kmh 29.64 in1003.7 mb 0.00 in0.0 mm 0.00 in0.0 mm 0.00 in0.0 mm
12:29 PM 41.4°F5.2°C 32.7°F0.4°C 71% 24.5 mph N39.4 kmh N 30.0 mph48.3 kmh 29.64 in1003.7 mb 0.00 in0.0 mm 0.00 in0.0 mm 0.00 in0.0 mm
12:28 PM 41.4°F5.2°C 32.7°F0.4°C 71% 24.4 mph N39.3 kmh N 30.0 mph48.3 kmh 29.64 in1003.7 mb 0.00 in0.0 mm 0.00 in0.0 mm 0.00 in0.0 mm
12:27 PM 41.4°F5.2°C 33.1°F0.6°C 72% 23.4 mph N37.7 kmh N 28.0 mph45.1 kmh 29.64 in1003.7 mb 0.00 in0.0 mm 0.00 in0.0 mm 0.00 in0.0 mm
12:26 PM 41.4°F5.2°C 32.7°F0.4°C 71% 23.7 mph N38.1 kmh N 30.0 mph48.3 kmh 29.64 in1003.7 mb 0.00 in0.0 mm 0.00 in0.0 mm 0.00 in0.0 mm
12:25 PM 41.5°F5.3°C 33.2°F0.7°C 72% 25.1 mph N40.4 kmh N 30.0 mph48.3 kmh 29.63 in1003.4 mb 0.00 in0.0 mm 0.00 in0.0 mm 0.00 in0.0 mm
12:24 PM 41.4°F5.2°C 32.4°F0.2°C 70% 21.8 mph N35.1 kmh N 30.0 mph48.3 kmh 29.64 in1003.7 mb 0.00 in0.0 mm 0.00 in0.0 mm 0.00 in0.0 mm
12:23 PM 41.4°F5.2°C 32.7°F0.4°C 71% 26.7 mph N43.0 kmh N 30.0 mph48.3 kmh 29.64 in1003.7 mb 0.00 in0.0 mm 0.00 in0.0 mm 0.00 in0.0 mm
12:22 PM 41.5°F5.3°C 32.5°F0.3°C 70% 25.9 mph N41.7 kmh N 29.0 mph46.7 kmh 29.63 in1003.4 mb 0.00 in0.0 mm 0.00 in0.0 mm 0.00 in0.0 mm
12:21 PM 41.4°F5.2°C 32.7°F0.4°C 71% 24.4 mph N39.3 kmh N 30.0 mph48.3 kmh 29.63 in1003.4 mb 0.00 in0.0 mm 0.00 in0.0 mm 0.00 in0.0 mm
12:20 PM 41.4°F5.2°C 32.7°F0.4°C 71% 25.7 mph N41.4 kmh N 36.0 mph57.9 kmh 29.63 in1003.4 mb 0.00 in0.0 mm 0.00 in0.0 mm 0.00 in0.0 mm
12:19 PM 41.5°F5.3°C 32.1°F0.1°C 69% 30.2 mph 48.6 kmh 36.0 mph57.9 kmh 29.63 in1003.4 mb 0.00 in0.0 mm 0.00 in0.0 mm 0.00 in0.0 mm
12:18 PM 41.5°F5.3°C 32.1°F0.1°C 69% 28.3 mph N45.5 kmh N 33.0 mph53.1 kmh 29.63 in1003.4 mb 0.00 in0.0 mm 0.00 in0.0 mm 0.00 in0.0 mm
12:17 PM 41.5°F5.3°C 32.1°F0.1°C 69% 28.8 mph N46.3 kmh N 33.0 mph53.1 kmh 29.63 in1003.4 mb 0.00 in0.0 mm 0.00 in0.0 mm 0.00 in0.0 mm
12:16 PM 41.5°F5.3°C 32.5°F0.3°C 70% 25.1 mph N40.4 kmh N 30.0 mph48.3 kmh 29.63 in1003.4 mb 0.00 in0.0 mm 0.00 in0.0 mm 0.00 in0.0 mm
12:15 PM 41.6°F5.3°C 33.3°F0.7°C 72% 23.6 mph N38.0 kmh N 29.0 mph46.7 kmh 29.63 in1003.4 mb 0.00 in0.0 mm 0.00 in0.0 mm 0.00 in0.0 mm
12:14 PM 41.6°F5.3°C 33.3°F0.7°C 72% 23.5 mph N37.8 kmh N 31.0 mph49.9 kmh 29.63 in1003.4 mb 0.00 in0.0 mm 0.00 in0.0 mm 0.00 in0.0 mm
12:13 PM 41.6°F5.3°C 32.6°F0.3°C 70% 26.9 mph N43.3 kmh N 32.0 mph51.5 kmh 29.63 in1003.4 mb 0.00 in0.0 mm 0.00 in0.0 mm 0.00 in0.0 mm
12:12 PM 41.7°F5.4°C 33.7°F0.9°C 73% 25.8 mph N41.5 kmh N 32.0 mph51.5 kmh 29.63 in1003.4 mb 0.00 in0.0 mm 0.00 in0.0 mm 0.00 in0.0 mm
12:11 PM 41.8°F5.4°C 34.1°F1.2°C 74% 21.2 mph N34.1 kmh N 28.0 mph45.1 kmh 29.63 in1003.4 mb 0.00 in0.0 mm 0.00 in0.0 mm 0.00 in0.0 mm
12:10 PM 41.7°F5.4°C 33.0°F0.6°C 71% 21.5 mph N34.6 kmh N 27.0 mph43.5 kmh 29.63 in1003.4 mb 0.00 in0.0 mm 0.00 in0.0 mm 0.00 in0.0 mm
12:09 PM 41.8°F5.4°C 33.8°F1.0°C 73% 22.3 mph N35.9 kmh N 28.0 mph45.1 kmh 29.63 in1003.4 mb 0.00 in0.0 mm 0.00 in0.0 mm 0.00 in0.0 mm
12:08 PM 41.8°F5.4°C 33.1°F0.6°C 71% 24.6 mph N39.6 kmh N 28.0 mph45.1 kmh 29.63 in1003.4 mb 0.00 in0.0 mm 0.00 in0.0 mm 0.00 in0.0 mm
12:07 PM 41.8°F5.4°C 33.8°F1.0°C 73% 23.9 mph N38.5 kmh N 27.0 mph43.5 kmh 29.63 in1003.4 mb 0.00 in0.0 mm 0.00 in0.0 mm 0.00 in0.0 mm
12:06 PM 41.9°F5.5°C 34.6°F1.4°C 75% 21.8 mph N35.1 kmh N 27.0 mph43.5 kmh 29.63 in1003.4 mb 0.00 in0.0 mm 0.00 in0.0 mm 0.00 in0.0 mm
12:05 PM 41.9°F5.5°C 34.6°F1.4°C 75% 20.0 mph N32.2 kmh N 28.0 mph45.1 kmh 29.62 in1003.0 mb 0.00 in0.0 mm 0.00 in0.0 mm 0.00 in0.0 mm
12:04 PM 41.9°F5.5°C 33.9°F1.1°C 73% 23.4 mph N37.7 kmh N 28.0 mph45.1 kmh 29.62 in1003.0 mb 0.00 in0.0 mm 0.00 in0.0 mm 0.00 in0.0 mm
12:03 PM 41.8°F5.4°C 33.8°F1.0°C 73% 25.3 mph N40.7 kmh N 29.0 mph46.7 kmh 29.62 in1003.0 mb 0.00 in0.0 mm 0.00 in0.0 mm 0.00 in0.0 mm
12:02 PM 41.8°F5.4°C 33.8°F1.0°C 73% 23.1 mph N37.2 kmh N 29.0 mph46.7 kmh 29.62 in1003.0 mb 0.00 in0.0 mm 0.00 in0.0 mm 0.00 in0.0 mm
12:01 PM 41.9°F5.5°C 33.5°F0.8°C 72% 24.2 mph N38.9 kmh N 29.0 mph46.7 kmh 29.62 in1003.0 mb 0.00 in0.0 mm 0.00 in0.0 mm 0.00 in0.0 mm
12:00 PM 41.9°F5.5°C 33.9°F1.1°C 73% 23.8 mph N38.3 kmh N 29.0 mph46.7 kmh 29.62 in1003.0 mb 0.00 in0.0 mm 0.00 in0.0 mm 0.00 in0.0 mm
11:59 AM 41.9°F5.5°C 34.2°F1.2°C 74% 21.9 mph N35.2 kmh N 27.0 mph43.5 kmh 29.62 in1003.0 mb 0.00 in0.0 mm 0.00 in0.0 mm 0.00 in0.0 mm
11:58 AM 41.9°F5.5°C 33.9°F1.1°C 73% 22.9 mph N36.9 kmh N 29.0 mph46.7 kmh 29.62 in1003.0 mb 0.00 in0.0 mm 0.00 in0.0 mm 0.00 in0.0 mm
11:57 AM 41.9°F5.5°C 33.2°F0.7°C 71% 26.7 mph N43.0 kmh N 30.0 mph48.3 kmh 29.62 in1003.0 mb 0.00 in0.0 mm 0.00 in0.0 mm 0.00 in0.0 mm
11:56 AM 42.0°F5.6°C 33.6°F0.9°C 72% 26.0 mph N41.8 kmh N 30.0 mph48.3 kmh 29.63 in1003.4 mb 0.00 in0.0 mm 0.00 in0.0 mm 0.00 in0.0 mm
11:55 AM 42.0°F5.6°C 33.6°F0.9°C 72% 23.4 mph N37.7 kmh N 28.0 mph45.1 kmh 29.62 in1003.0 mb 0.00 in0.0 mm 0.00 in0.0 mm 0.00 in0.0 mm
11:54 AM 42.0°F5.6°C 33.6°F0.9°C 72% 23.1 mph N37.2 kmh N 28.0 mph45.1 kmh 29.62 in1003.0 mb 0.00 in0.0 mm 0.00 in0.0 mm 0.00 in0.0 mm
11:53 AM 42.0°F5.6°C 33.6°F0.9°C 72% 25.4 mph N40.9 kmh N 28.0 mph45.1 kmh 29.62 in1003.0 mb 0.00 in0.0 mm 0.00 in0.0 mm 0.00 in0.0 mm
11:52 AM 42.1°F5.6°C 33.7°F0.9°C 72% 22.1 mph N35.6 kmh N 27.0 mph43.5 kmh 29.62 in1003.0 mb 0.00 in0.0 mm 0.00 in0.0 mm 0.00 in0.0 mm
11:51 AM 42.1°F5.6°C 33.7°F0.9°C 72% 24.6 mph N39.6 kmh N 27.0 mph43.5 kmh 29.62 in1003.0 mb 0.00 in0.0 mm 0.00 in0.0 mm 0.00 in0.0 mm
11:50 AM 42.1°F5.6°C 33.7°F0.9°C 72% 23.8 mph N38.3 kmh N 27.0 mph43.5 kmh 29.62 in1003.0 mb 0.00 in0.0 mm 0.00 in0.0 mm 0.00 in0.0 mm
11:49 AM 42.1°F5.6°C 34.1°F1.2°C 73% 23.1 mph N37.2 kmh N 27.0 mph43.5 kmh 29.62 in1003.0 mb 0.00 in0.0 mm 0.00 in0.0 mm 0.00 in0.0 mm
11:48 AM 42.1°F5.6°C 34.1°F1.2°C 73% 22.2 mph N35.7 kmh N 26.0 mph41.8 kmh 29.62 in1003.0 mb 0.00 in0.0 mm 0.00 in0.0 mm 0.00 in0.0 mm
11:47 AM 42.2°F5.7°C 33.8°F1.0°C 72% 23.9 mph N38.5 kmh N 26.0 mph41.8 kmh 29.62 in1003.0 mb 0.00 in0.0 mm 0.00 in0.0 mm 0.00 in0.0 mm
11:46 AM 42.2°F5.7°C 34.2°F1.2°C 73% 22.3 mph 35.9 kmh 26.0 mph41.8 kmh 29.62 in1003.0 mb 0.00 in0.0 mm 0.00 in0.0 mm 0.00 in0.0 mm
11:45 AM 42.2°F5.7°C 33.8°F1.0°C 72% 22.6 mph 36.4 kmh 29.0 mph46.7 kmh 29.62 in1003.0 mb 0.00 in0.0 mm 0.00 in0.0 mm 0.00 in0.0 mm
11:44 AM 42.2°F5.7°C 33.1°F0.6°C 70% 25.7 mph N41.4 kmh N 29.0 mph46.7 kmh 29.62 in1003.0 mb 0.00 in0.0 mm 0.00 in0.0 mm 0.00 in0.0 mm
11:43 AM 42.2°F5.7°C 33.5°F0.8°C 71% 22.8 mph N36.7 kmh N 28.0 mph45.1 kmh 29.62 in1003.0 mb 0.00 in0.0 mm 0.00 in0.0 mm 0.00 in0.0 mm
11:42 AM 42.2°F5.7°C 33.8°F1.0°C 72% 24.1 mph N38.8 kmh N 28.0 mph45.1 kmh 29.62 in1003.0 mb 0.00 in0.0 mm 0.00 in0.0 mm 0.00 in0.0 mm
11:41 AM 42.2°F5.7°C 33.8°F1.0°C 72% 23.6 mph N38.0 kmh N 28.0 mph45.1 kmh 29.62 in1003.0 mb 0.00 in0.0 mm 0.00 in0.0 mm 0.00 in0.0 mm
11:40 AM 42.2°F5.7°C 33.8°F1.0°C 72% 22.6 mph N36.4 kmh N 26.0 mph41.8 kmh 29.62 in1003.0 mb 0.00 in0.0 mm 0.00 in0.0 mm 0.00 in0.0 mm
11:39 AM 42.2°F5.7°C 34.2°F1.2°C 73% 21.6 mph N34.8 kmh N 26.0 mph41.8 kmh 29.62 in1003.0 mb 0.00 in0.0 mm 0.00 in0.0 mm 0.00 in0.0 mm
11:38 AM 42.2°F5.7°C 33.8°F1.0°C 72% 21.4 mph N34.4 kmh N 26.0 mph41.8 kmh 29.62 in1003.0 mb 0.00 in0.0 mm 0.00 in0.0 mm 0.00 in0.0 mm
11:37 AM 42.2°F5.7°C 33.5°F0.8°C 71% 21.1 mph N34.0 kmh N 27.0 mph43.5 kmh 29.62 in1003.0 mb 0.00 in0.0 mm 0.00 in0.0 mm 0.00 in0.0 mm
11:36 AM 42.1°F5.6°C 33.0°F0.6°C 70% 23.5 mph N37.8 kmh N 30.0 mph48.3 kmh 29.62 in1003.0 mb 0.00 in0.0 mm 0.00 in0.0 mm 0.00 in0.0 mm
11:35 AM 42.1°F5.6°C 33.0°F0.6°C 70% 25.5 mph N41.0 kmh N 30.0 mph48.3 kmh 29.61 in1002.7 mb 0.00 in0.0 mm 0.00 in0.0 mm 0.00 in0.0 mm
11:34 AM 42.1°F5.6°C 33.4°F0.8°C 71% 22.5 mph N36.2 kmh N 29.0 mph46.7 kmh 29.61 in1002.7 mb 0.00 in0.0 mm 0.00 in0.0 mm 0.00 in0.0 mm
11:33 AM 42.1°F5.6°C 33.0°F0.6°C 70% 23.6 mph N38.0 kmh N 29.0 mph46.7 kmh 29.61 in1002.7 mb 0.00 in0.0 mm 0.00 in0.0 mm 0.00 in0.0 mm
11:32 AM 42.0°F5.6°C 33.3°F0.7°C 71% 20.6 mph N33.2 kmh N 27.0 mph43.5 kmh 29.61 in1002.7 mb 0.00 in0.0 mm 0.00 in0.0 mm 0.00 in0.0 mm
11:31 AM 42.0°F5.6°C 33.3°F0.7°C 71% 20.6 mph N33.2 kmh N 25.0 mph40.2 kmh 29.61 in1002.7 mb 0.00 in0.0 mm 0.00 in0.0 mm 0.00 in0.0 mm
11:30 AM 42.0°F5.6°C 32.6°F0.3°C 69% 21.9 mph N35.2 kmh N 27.0 mph43.5 kmh 29.61 in1002.7 mb 0.00 in0.0 mm 0.00 in0.0 mm 0.00 in0.0 mm
11:29 AM 42.1°F5.6°C 33.4°F0.8°C 71% 23.5 mph N37.8 kmh N 27.0 mph43.5 kmh 29.62 in1003.0 mb 0.00 in0.0 mm 0.00 in0.0 mm 0.00 in0.0 mm
11:28 AM 42.1°F5.6°C 33.4°F0.8°C 71% 22.2 mph N35.7 kmh N 26.0 mph41.8 kmh 29.62 in1003.0 mb 0.00 in0.0 mm 0.00 in0.0 mm 0.00 in0.0 mm
11:27 AM 42.0°F5.6°C 33.6°F0.9°C 72% 18.1 mph N29.1 kmh N 26.0 mph41.8 kmh 29.61 in1002.7 mb 0.00 in0.0 mm 0.00 in0.0 mm 0.00 in0.0 mm
11:26 AM 42.0°F5.6°C 33.3°F0.7°C 71% 22.3 mph N35.9 kmh N 26.0 mph41.8 kmh 29.61 in1002.7 mb 0.00 in0.0 mm 0.00 in0.0 mm 0.00 in0.0 mm
11:25 AM 42.1°F5.6°C 33.0°F0.6°C 70% 22.6 mph N36.4 kmh N 27.0 mph43.5 kmh 29.61 in1002.7 mb 0.00 in0.0 mm 0.00 in0.0 mm 0.00 in0.0 mm
11:24 AM 42.1°F5.6°C 33.0°F0.6°C 70% 23.6 mph N38.0 kmh N 27.0 mph43.5 kmh 29.61 in1002.7 mb 0.00 in0.0 mm 0.00 in0.0 mm 0.00 in0.0 mm
11:23 AM 42.1°F5.6°C 33.4°F0.8°C 71% 20.9 mph N33.6 kmh N 28.0 mph45.1 kmh 29.61 in1002.7 mb 0.00 in0.0 mm 0.00 in0.0 mm 0.00 in0.0 mm
11:22 AM 42.1°F5.6°C 33.4°F0.8°C 71% 25.1 mph N40.4 kmh N 30.0 mph48.3 kmh 29.61 in1002.7 mb 0.00 in0.0 mm 0.00 in0.0 mm 0.00 in0.0 mm
11:21 AM 42.1°F5.6°C 32.7°F0.4°C 69% 25.7 mph N41.4 kmh N 30.0 mph48.3 kmh 29.61 in1002.7 mb 0.00 in0.0 mm 0.00 in0.0 mm 0.00 in0.0 mm
11:20 AM 42.1°F5.6°C 32.7°F0.4°C 69% 20.8 mph 33.5 kmh 27.0 mph43.5 kmh 29.61 in1002.7 mb 0.00 in0.0 mm 0.00 in0.0 mm 0.00 in0.0 mm
11:19 AM 42.1°F5.6°C 33.4°F0.8°C 71% 23.5 mph N37.8 kmh N 27.0 mph43.5 kmh 29.61 in1002.7 mb 0.00 in0.0 mm 0.00 in0.0 mm 0.00 in0.0 mm
11:18 AM 42.1°F5.6°C 33.0°F0.6°C 70% 19.7 mph N31.7 kmh N 27.0 mph43.5 kmh 29.61 in1002.7 mb 0.00 in0.0 mm 0.00 in0.0 mm 0.00 in0.0 mm
11:17 AM 42.1°F5.6°C 33.4°F0.8°C 71% 23.0 mph N37.0 kmh N 28.0 mph45.1 kmh 29.61 in1002.7 mb 0.00 in0.0 mm 0.00 in0.0 mm 0.00 in0.0 mm
11:16 AM 42.1°F5.6°C 33.0°F0.6°C 70% 22.2 mph N35.7 kmh N 28.0 mph45.1 kmh 29.61 in1002.7 mb 0.00 in0.0 mm 0.00 in0.0 mm 0.00 in0.0 mm
11:15 AM 42.1°F5.6°C 33.4°F0.8°C 71% 19.8 mph N31.9 kmh N 27.0 mph43.5 kmh 29.61 in1002.7 mb 0.00 in0.0 mm 0.00 in0.0 mm 0.00 in0.0 mm
11:14 AM 42.1°F5.6°C 33.0°F0.6°C 70% 21.0 mph N33.8 kmh N 27.0 mph43.5 kmh 29.61 in1002.7 mb 0.00 in0.0 mm 0.00 in0.0 mm 0.00 in0.0 mm
11:13 AM 42.0°F5.6°C 33.3°F0.7°C 71% 22.3 mph N35.9 kmh N 26.0 mph41.8 kmh 29.61 in1002.7 mb 0.00 in0.0 mm 0.00 in0.0 mm 0.00 in0.0 mm
11:12 AM 42.0°F5.6°C 34.0°F1.1°C 73% 20.9 mph N33.6 kmh N 26.0 mph41.8 kmh 29.61 in1002.7 mb 0.00 in0.0 mm 0.00 in0.0 mm 0.00 in0.0 mm
11:11 AM 42.0°F5.6°C 34.0°F1.1°C 73% 20.5 mph N33.0 kmh N 26.0 mph41.8 kmh 29.61 in1002.7 mb 0.00 in0.0 mm 0.00 in0.0 mm 0.00 in0.0 mm
11:10 AM 42.0°F5.6°C 33.3°F0.7°C 71% 21.3 mph N34.3 kmh N 27.0 mph43.5 kmh 29.61 in1002.7 mb 0.00 in0.0 mm 0.00 in0.0 mm 0.00 in0.0 mm
11:09 AM 42.0°F5.6°C 33.3°F0.7°C 71% 22.5 mph N36.2 kmh N 31.0 mph49.9 kmh 29.61 in1002.7 mb 0.00 in0.0 mm 0.00 in0.0 mm 0.00 in0.0 mm
11:08 AM 42.0°F5.6°C 32.6°F0.3°C 69% 26.4 mph N42.5 kmh N 31.0 mph49.9 kmh 29.61 in1002.7 mb 0.00 in0.0 mm 0.00 in0.0 mm 0.00 in0.0 mm
11:07 AM 42.0°F5.6°C 32.6°F0.3°C 69% 26.5 mph N42.6 kmh N 30.0 mph48.3 kmh 29.61 in1002.7 mb 0.00 in0.0 mm 0.00 in0.0 mm 0.00 in0.0 mm
11:06 AM 42.0°F5.6°C 32.9°F0.5°C 70% 24.9 mph N40.1 kmh N 30.0 mph48.3 kmh 29.61 in1002.7 mb 0.00 in0.0 mm 0.00 in0.0 mm 0.00 in0.0 mm
11:05 AM 42.0°F5.6°C 33.3°F0.7°C 71% 22.2 mph N35.7 kmh N 28.0 mph45.1 kmh 29.61 in1002.7 mb 0.00 in0.0 mm 0.00 in0.0 mm 0.00 in0.0 mm
11:04 AM 42.0°F5.6°C 33.3°F0.7°C 71% 22.1 mph N35.6 kmh N 27.0 mph43.5 kmh 29.61 in1002.7 mb 0.00 in0.0 mm 0.00 in0.0 mm 0.00 in0.0 mm
11:03 AM 42.0°F5.6°C 33.3°F0.7°C 71% 21.9 mph N35.2 kmh N 28.0 mph45.1 kmh 29.61 in1002.7 mb 0.00 in0.0 mm 0.00 in0.0 mm 0.00 in0.0 mm
11:02 AM 42.0°F5.6°C 33.3°F0.7°C 71% 23.4 mph N37.7 kmh N 28.0 mph45.1 kmh 29.61 in1002.7 mb 0.00 in0.0 mm 0.00 in0.0 mm 0.00 in0.0 mm
11:01 AM 42.0°F5.6°C 33.6°F0.9°C 72% 22.1 mph N35.6 kmh N 28.0 mph45.1 kmh 29.61 in1002.7 mb 0.00 in0.0 mm 0.00 in0.0 mm 0.00 in0.0 mm
11:00 AM 42.0°F5.6°C 32.9°F0.5°C 70% 24.8 mph N39.9 kmh N 28.0 mph45.1 kmh 29.61 in1002.7 mb 0.00 in0.0 mm 0.00 in0.0 mm 0.00 in0.0 mm
10:59 AM 42.0°F5.6°C 33.6°F0.9°C 72% 23.6 mph N38.0 kmh N 28.0 mph45.1 kmh 29.61 in1002.7 mb 0.00 in0.0 mm 0.00 in0.0 mm 0.00 in0.0 mm
10:58 AM 42.1°F5.6°C 33.4°F0.8°C 71% 21.9 mph N35.2 kmh N 29.0 mph46.7 kmh 29.60 in1002.4 mb 0.00 in0.0 mm 0.00 in0.0 mm 0.00 in0.0 mm
10:57 AM 42.2°F5.7°C 33.5°F0.8°C 71% 24.7 mph N39.8 kmh N 29.0 mph46.7 kmh 29.60 in1002.4 mb 0.00 in0.0 mm 0.00 in0.0 mm 0.00 in0.0 mm
10:56 AM 42.2°F5.7°C 33.5°F0.8°C 71% 22.1 mph N35.6 kmh N 27.0 mph43.5 kmh 29.60 in1002.4 mb 0.00 in0.0 mm 0.00 in0.0 mm 0.00 in0.0 mm
10:55 AM 42.3°F5.7°C 33.9°F1.1°C 72% 22.6 mph N36.4 kmh N 27.0 mph43.5 kmh 29.60 in1002.4 mb 0.00 in0.0 mm 0.00 in0.0 mm 0.00 in0.0 mm
10:54 AM 42.4°F5.8°C 33.3°F0.7°C 70% 22.2 mph N35.7 kmh N 27.0 mph43.5 kmh 29.60 in1002.4 mb 0.00 in0.0 mm 0.00 in0.0 mm 0.00 in0.0 mm
10:53 AM 42.4°F5.8°C 33.3°F0.7°C 70% 22.9 mph N36.9 kmh N 27.0 mph43.5 kmh 29.60 in1002.4 mb 0.00 in0.0 mm 0.00 in0.0 mm 0.00 in0.0 mm
10:52 AM 42.5°F5.8°C 33.4°F0.8°C 70% 23.2 mph N37.3 kmh N 29.0 mph46.7 kmh 29.60 in1002.4 mb 0.00 in0.0 mm 0.00 in0.0 mm 0.00 in0.0 mm
10:51 AM 42.6°F5.9°C 33.9°F1.1°C 71% 25.2 mph N40.6 kmh N 29.0 mph46.7 kmh 29.60 in1002.4 mb 0.00 in0.0 mm 0.00 in0.0 mm 0.00 in0.0 mm
10:50 AM 42.6°F5.9°C 33.9°F1.1°C 71% 21.7 mph N34.9 kmh N 26.0 mph41.8 kmh 29.60 in1002.4 mb 0.00 in0.0 mm 0.00 in0.0 mm 0.00 in0.0 mm
10:49 AM 42.6°F5.9°C 33.9°F1.1°C 71% 22.9 mph N36.9 kmh N 27.0 mph43.5 kmh 29.60 in1002.4 mb 0.00 in0.0 mm 0.00 in0.0 mm 0.00 in0.0 mm
10:48 AM 42.6°F5.9°C 33.5°F0.8°C 70% 23.2 mph N37.3 kmh N 27.0 mph43.5 kmh 29.60 in1002.4 mb 0.00 in0.0 mm 0.00 in0.0 mm 0.00 in0.0 mm
10:47 AM 42.6°F5.9°C 33.9°F1.1°C 71% 23.5 mph N37.8 kmh N 27.0 mph43.5 kmh 29.60 in1002.4 mb 0.00 in0.0 mm 0.00 in0.0 mm 0.00 in0.0 mm
10:46 AM 42.6°F5.9°C 33.5°F0.8°C 70% 21.5 mph N34.6 kmh N 31.0 mph49.9 kmh 29.60 in1002.4 mb 0.00 in0.0 mm 0.00 in0.0 mm 0.00 in0.0 mm
10:45 AM 42.6°F5.9°C 33.5°F0.8°C 70% 22.6 mph N36.4 kmh N 31.0 mph49.9 kmh 29.60 in1002.4 mb 0.00 in0.0 mm 0.00 in0.0 mm 0.00 in0.0 mm
10:44 AM 42.6°F5.9°C 34.2°F1.2°C 72% 22.3 mph N35.9 kmh N 27.0 mph43.5 kmh 29.60 in1002.4 mb 0.00 in0.0 mm 0.00 in0.0 mm 0.00 in0.0 mm
10:43 AM 42.6°F5.9°C 33.9°F1.1°C 71% 20.0 mph N32.2 kmh N 26.0 mph41.8 kmh 29.60 in1002.4 mb 0.00 in0.0 mm 0.00 in0.0 mm 0.00 in0.0 mm
10:42 AM 42.6°F5.9°C 33.2°F0.7°C 69% 21.8 mph N35.1 kmh N 26.0 mph41.8 kmh 29.60 in1002.4 mb 0.00 in0.0 mm 0.00 in0.0 mm 0.00 in0.0 mm
10:41 AM 42.6°F5.9°C 33.2°F0.7°C 69% 23.7 mph N38.1 kmh N 26.0 mph41.8 kmh 29.60 in1002.4 mb 0.00 in0.0 mm 0.00 in0.0 mm 0.00 in0.0 mm
10:40 AM 42.6°F5.9°C 33.5°F0.8°C 70% 22.2 mph N35.7 kmh N 30.0 mph48.3 kmh 29.60 in1002.4 mb 0.00 in0.0 mm 0.00 in0.0 mm 0.00 in0.0 mm
10:39 AM 42.7°F5.9°C 33.6°F0.9°C 70% 25.7 mph N41.4 kmh N 30.0 mph48.3 kmh 29.59 in1002.0 mb 0.00 in0.0 mm 0.00 in0.0 mm 0.00 in0.0 mm
10:38 AM 42.7°F5.9°C 34.0°F1.1°C 71% 21.4 mph N34.4 kmh N 27.0 mph43.5 kmh 29.60 in1002.4 mb 0.00 in0.0 mm 0.00 in0.0 mm 0.00 in0.0 mm
10:37 AM 42.7°F5.9°C 33.2°F0.7°C 69% 20.6 mph N33.2 kmh N 26.0 mph41.8 kmh 29.60 in1002.4 mb 0.00 in0.0 mm 0.00 in0.0 mm 0.00 in0.0 mm
10:36 AM 42.7°F5.9°C 33.2°F0.7°C 69% 21.8 mph N35.1 kmh N 29.0 mph46.7 kmh 29.59 in1002.0 mb 0.00 in0.0 mm 0.00 in0.0 mm 0.00 in0.0 mm
10:35 AM 42.7°F5.9°C 33.6°F0.9°C 70% 23.8 mph N38.3 kmh N 29.0 mph46.7 kmh 29.59 in1002.0 mb 0.00 in0.0 mm 0.00 in0.0 mm 0.00 in0.0 mm
10:34 AM 42.7°F5.9°C 34.0°F1.1°C 71% 20.9 mph N33.6 kmh N 25.0 mph40.2 kmh 29.59 in1002.0 mb 0.00 in0.0 mm 0.00 in0.0 mm 0.00 in0.0 mm
10:33 AM 42.7°F5.9°C 34.0°F1.1°C 71% 18.4 mph N29.6 kmh N 26.0 mph41.8 kmh 29.59 in1002.0 mb 0.00 in0.0 mm 0.00 in0.0 mm 0.00 in0.0 mm
10:32 AM 42.7°F5.9°C 34.3°F1.3°C 72% 20.3 mph N32.7 kmh N 26.0 mph41.8 kmh 29.59 in1002.0 mb 0.00 in0.0 mm 0.00 in0.0 mm 0.00 in0.0 mm
10:31 AM 42.7°F5.9°C 34.0°F1.1°C 71% 18.1 mph N29.1 kmh N 24.0 mph38.6 kmh 29.59 in1002.0 mb 0.00 in0.0 mm 0.00 in0.0 mm 0.00 in0.0 mm
10:30 AM 42.7°F5.9°C 33.6°F0.9°C 70% 19.8 mph N31.9 kmh N 25.0 mph40.2 kmh 29.59 in1002.0 mb 0.00 in0.0 mm 0.00 in0.0 mm 0.00 in0.0 mm
10:29 AM 42.7°F5.9°C 33.6°F0.9°C 70% 21.9 mph N35.2 kmh N 25.0 mph40.2 kmh 29.59 in1002.0 mb 0.00 in0.0 mm 0.00 in0.0 mm 0.00 in0.0 mm
10:28 AM 42.7°F5.9°C 34.3°F1.3°C 72% 19.8 mph N31.9 kmh N 26.0 mph41.8 kmh 29.59 in1002.0 mb 0.00 in0.0 mm 0.00 in0.0 mm 0.00 in0.0 mm
10:27 AM 42.7°F5.9°C 34.0°F1.1°C 71% 22.0 mph N35.4 kmh N 27.0 mph43.5 kmh 29.59 in1002.0 mb 0.00 in0.0 mm 0.00 in0.0 mm 0.00 in0.0 mm
10:26 AM 42.7°F5.9°C 34.3°F1.3°C 72% 24.4 mph N39.3 kmh N 28.0 mph45.1 kmh 29.59 in1002.0 mb 0.00 in0.0 mm 0.00 in0.0 mm 0.00 in0.0 mm
10:25 AM 42.7°F5.9°C 34.7°F1.5°C 73% 22.2 mph N35.7 kmh N 28.0 mph45.1 kmh 29.59 in1002.0 mb 0.00 in0.0 mm 0.00 in0.0 mm 0.00 in0.0 mm
10:24 AM 42.7°F5.9°C 34.7°F1.5°C 73% 20.9 mph NNW33.6 kmh NNW 25.0 mph40.2 kmh 29.59 in1002.0 mb 0.00 in0.0 mm 0.00 in0.0 mm 0.00 in0.0 mm
10:23 AM 42.6°F5.9°C 33.9°F1.1°C 71% 20.4 mph N32.8 kmh N 27.0 mph43.5 kmh 29.59 in1002.0 mb 0.00 in0.0 mm 0.00 in0.0 mm 0.00 in0.0 mm
10:22 AM 42.6°F5.9°C 33.2°F0.7°C 69% 22.8 mph N36.7 kmh N 27.0 mph43.5 kmh 29.59 in1002.0 mb 0.00 in0.0 mm 0.00 in0.0 mm 0.00 in0.0 mm
10:21 AM 42.6°F5.9°C 33.9°F1.1°C 71% 25.0 mph N40.2 kmh N 28.0 mph45.1 kmh 29.59 in1002.0 mb 0.00 in0.0 mm 0.00 in0.0 mm 0.00 in0.0 mm
10:20 AM 42.6°F5.9°C 34.2°F1.2°C 72% 24.6 mph NNW39.6 kmh NNW 30.0 mph48.3 kmh 29.59 in1002.0 mb 0.00 in0.0 mm 0.00 in0.0 mm 0.00 in0.0 mm
10:19 AM 42.6°F5.9°C 34.2°F1.2°C 72% 24.6 mph NNW39.6 kmh NNW 30.0 mph48.3 kmh 29.59 in1002.0 mb 0.00 in0.0 mm 0.00 in0.0 mm 0.00 in0.0 mm
10:18 AM 42.5°F5.8°C 34.1°F1.2°C 72% 24.8 mph N39.9 kmh N 28.0 mph45.1 kmh 29.59 in1002.0 mb 0.00 in0.0 mm 0.00 in0.0 mm 0.00 in0.0 mm
10:17 AM 42.5°F5.8°C 33.8°F1.0°C 71% 22.9 mph N36.9 kmh N 28.0 mph45.1 kmh 29.59 in1002.0 mb 0.00 in0.0 mm 0.00 in0.0 mm 0.00 in0.0 mm
10:16 AM 42.5°F5.8°C 34.1°F1.2°C 72% 21.6 mph N34.8 kmh N 27.0 mph43.5 kmh 29.58 in1001.7 mb 0.00 in0.0 mm 0.00 in0.0 mm 0.00 in0.0 mm
10:15 AM 42.5°F5.8°C 35.1°F1.7°C 75% 22.4 mph N36.0 kmh N 26.0 mph41.8 kmh 29.59 in1002.0 mb 0.00 in0.0 mm 0.00 in0.0 mm 0.00 in0.0 mm
10:14 AM 42.5°F5.8°C 34.8°F1.6°C 74% 20.9 mph NNW33.6 kmh NNW 28.0 mph45.1 kmh 29.58 in1001.7 mb 0.00 in0.0 mm 0.00 in0.0 mm 0.00 in0.0 mm
10:13 AM 42.4°F5.8°C 34.4°F1.3°C 73% 24.3 mph NNW39.1 kmh NNW 28.0 mph45.1 kmh 29.58 in1001.7 mb 0.00 in0.0 mm 0.00 in0.0 mm 0.00 in0.0 mm
10:12 AM 42.4°F5.8°C 35.0°F1.7°C 75% 21.5 mph N34.6 kmh N 27.0 mph43.5 kmh 29.58 in1001.7 mb 0.00 in0.0 mm 0.00 in0.0 mm 0.00 in0.0 mm
10:11 AM 42.4°F5.8°C 35.0°F1.7°C 75% 20.6 mph N33.2 kmh N 25.0 mph40.2 kmh 29.58 in1001.7 mb 0.00 in0.0 mm 0.00 in0.0 mm 0.00 in0.0 mm
10:10 AM 42.4°F5.8°C 35.0°F1.7°C 75% 20.9 mph NNW33.6 kmh NNW 24.0 mph38.6 kmh 29.58 in1001.7 mb 0.00 in0.0 mm 0.00 in0.0 mm 0.00 in0.0 mm
10:09 AM 42.4°F5.8°C 34.7°F1.5°C 74% 21.1 mph N34.0 kmh N 28.0 mph45.1 kmh 29.58 in1001.7 mb 0.00 in0.0 mm 0.00 in0.0 mm 0.00 in0.0 mm
10:08 AM 42.4°F5.8°C 35.0°F1.7°C 75% 21.7 mph N34.9 kmh N 28.0 mph45.1 kmh 29.58 in1001.7 mb 0.00 in0.0 mm 0.00 in0.0 mm 0.00 in0.0 mm
10:07 AM 42.5°F5.8°C 35.1°F1.7°C 75% 20.4 mph NNW32.8 kmh NNW 25.0 mph40.2 kmh 29.58 in1001.7 mb 0.00 in0.0 mm 0.00 in0.0 mm 0.00 in0.0 mm
10:06 AM 42.5°F5.8°C 34.8°F1.6°C 74% 20.4 mph N32.8 kmh N 24.0 mph38.6 kmh 29.58 in1001.7 mb 0.00 in0.0 mm 0.00 in0.0 mm 0.00 in0.0 mm
10:05 AM 42.5°F5.8°C 34.5°F1.4°C 73% 20.9 mph N33.6 kmh N 24.0 mph38.6 kmh 29.58 in1001.7 mb 0.00 in0.0 mm 0.00 in0.0 mm 0.00 in0.0 mm
10:04 AM 42.5°F5.8°C 35.5°F1.9°C 76% 20.6 mph N33.2 kmh N 26.0 mph41.8 kmh 29.58 in1001.7 mb 0.00 in0.0 mm 0.00 in0.0 mm 0.00 in0.0 mm
10:03 AM 42.5°F5.8°C 35.8°F2.1°C 77% 19.9 mph N32.0 kmh N 27.0 mph43.5 kmh 29.58 in1001.7 mb 0.00 in0.0 mm 0.00 in0.0 mm 0.00 in0.0 mm
10:02 AM 42.4°F5.8°C 35.0°F1.7°C 75% 22.8 mph NNW36.7 kmh NNW 27.0 mph43.5 kmh 29.58 in1001.7 mb 0.00 in0.0 mm 0.00 in0.0 mm 0.00 in0.0 mm
10:01 AM 42.4°F5.8°C 35.0°F1.7°C 75% 23.5 mph N37.8 kmh N 27.0 mph43.5 kmh 29.58 in1001.7 mb 0.00 in0.0 mm 0.00 in0.0 mm 0.00 in0.0 mm
10:00 AM 42.4°F5.8°C 35.0°F1.7°C 75% 21.7 mph NNW34.9 kmh NNW 26.0 mph41.8 kmh 29.58 in1001.7 mb 0.00 in0.0 mm 0.00 in0.0 mm 0.00 in0.0 mm
09:59 AM 42.4°F5.8°C 35.0°F1.7°C 75% 20.7 mph NNW33.3 kmh NNW 26.0 mph41.8 kmh 29.58 in1001.7 mb 0.00 in0.0 mm 0.00 in0.0 mm 0.00 in0.0 mm
09:58 AM 42.3°F5.7°C 34.6°F1.4°C 74% 22.5 mph N36.2 kmh N 26.0 mph41.8 kmh 29.57 in1001.4 mb 0.00 in0.0 mm 0.00 in0.0 mm 0.00 in0.0 mm
09:57 AM 42.3°F5.7°C 33.9°F1.1°C 72% 19.5 mph N31.4 kmh N 25.0 mph40.2 kmh 29.57 in1001.4 mb 0.00 in0.0 mm 0.00 in0.0 mm 0.00 in0.0 mm
09:56 AM 42.3°F5.7°C 34.3°F1.3°C 73% 22.8 mph N36.7 kmh N 26.0 mph41.8 kmh 29.57 in1001.4 mb 0.00 in0.0 mm 0.00 in0.0 mm 0.00 in0.0 mm
09:55 AM 42.3°F5.7°C 34.3°F1.3°C 73% 22.6 mph NNW36.4 kmh NNW 29.0 mph46.7 kmh 29.57 in1001.4 mb 0.00 in0.0 mm 0.00 in0.0 mm 0.00 in0.0 mm
09:54 AM 42.3°F5.7°C 34.6°F1.4°C 74% 25.6 mph NNW41.2 kmh NNW 30.0 mph48.3 kmh 29.57 in1001.4 mb 0.00 in0.0 mm 0.00 in0.0 mm 0.00 in0.0 mm
09:53 AM 42.3°F5.7°C 34.6°F1.4°C 74% 24.9 mph NNW40.1 kmh NNW 30.0 mph48.3 kmh 29.57 in1001.4 mb 0.00 in0.0 mm 0.00 in0.0 mm 0.00 in0.0 mm
09:52 AM 42.4°F5.8°C 35.4°F1.9°C 76% 21.5 mph NNW34.6 kmh NNW 26.0 mph41.8 kmh 29.57 in1001.4 mb 0.00 in0.0 mm 0.00 in0.0 mm 0.00 in0.0 mm
09:51 AM 42.3°F5.7°C 35.0°F1.7°C 75% 22.9 mph NNW36.9 kmh NNW 27.0 mph43.5 kmh 29.57 in1001.4 mb 0.00 in0.0 mm 0.00 in0.0 mm 0.00 in0.0 mm
09:50 AM 42.3°F5.7°C 35.0°F1.7°C 75% 24.9 mph NNW40.1 kmh NNW 29.0 mph46.7 kmh 29.57 in1001.4 mb 0.00 in0.0 mm 0.00 in0.0 mm 0.00 in0.0 mm
09:49 AM 42.3°F5.7°C 35.0°F1.7°C 75% 24.9 mph NNW40.1 kmh NNW 29.0 mph46.7 kmh 29.57 in1001.4 mb 0.00 in0.0 mm 0.00 in0.0 mm 0.00 in0.0 mm
09:48 AM 42.3°F5.7°C 35.0°F1.7°C 75% 25.9 mph NNW41.7 kmh NNW 28.0 mph45.1 kmh 29.57 in1001.4 mb 0.00 in0.0 mm 0.00 in0.0 mm 0.00 in0.0 mm
09:47 AM 42.3°F5.7°C 34.6°F1.4°C 74% 24.0 mph N38.6 kmh N 30.0 mph48.3 kmh 29.57 in1001.4 mb 0.00 in0.0 mm 0.00 in0.0 mm 0.00 in0.0 mm
09:46 AM 42.3°F5.7°C 34.3°F1.3°C 73% 27.7 mph NNW44.6 kmh NNW 30.0 mph48.3 kmh 29.57 in1001.4 mb 0.00 in0.0 mm 0.00 in0.0 mm 0.00 in0.0 mm
09:45 AM 42.3°F5.7°C 34.3°F1.3°C 73% 26.0 mph N41.8 kmh N 31.0 mph49.9 kmh 29.57 in1001.4 mb 0.00 in0.0 mm 0.00 in0.0 mm 0.00 in0.0 mm
09:44 AM 42.3°F5.7°C 34.3°F1.3°C 73% 26.2 mph NNW42.2 kmh NNW 31.0 mph49.9 kmh 29.57 in1001.4 mb 0.00 in0.0 mm 0.00 in0.0 mm 0.00 in0.0 mm
09:43 AM 42.3°F5.7°C 35.0°F1.7°C 75% 23.8 mph N38.3 kmh N 29.0 mph46.7 kmh 29.57 in1001.4 mb 0.00 in0.0 mm 0.00 in0.0 mm 0.00 in0.0 mm
09:42 AM 42.2°F5.7°C 34.5°F1.4°C 74% 25.1 mph N40.4 kmh N 30.0 mph48.3 kmh 29.57 in1001.4 mb 0.00 in0.0 mm 0.00 in0.0 mm 0.00 in0.0 mm
09:41 AM 42.2°F5.7°C 34.2°F1.2°C 73% 26.5 mph N42.6 kmh N 30.0 mph48.3 kmh 29.57 in1001.4 mb 0.00 in0.0 mm 0.00 in0.0 mm 0.00 in0.0 mm
09:40 AM 42.2°F5.7°C 34.9°F1.6°C 75% 22.1 mph N35.6 kmh N 28.0 mph45.1 kmh 29.57 in1001.4 mb 0.00 in0.0 mm 0.00 in0.0 mm 0.00 in0.0 mm
09:39 AM 42.2°F5.7°C 34.9°F1.6°C 75% 23.4 mph NNW37.7 kmh NNW 28.0 mph45.1 kmh 29.57 in1001.4 mb 0.00 in0.0 mm 0.00 in0.0 mm 0.00 in0.0 mm
09:38 AM 42.2°F5.7°C 34.5°F1.4°C 74% 23.9 mph NNW38.5 kmh NNW 27.0 mph43.5 kmh 29.56 in1001.0 mb 0.00 in0.0 mm 0.00 in0.0 mm 0.00 in0.0 mm
09:37 AM 42.2°F5.7°C 34.2°F1.2°C 73% 23.5 mph N37.8 kmh N 27.0 mph43.5 kmh 29.57 in1001.4 mb 0.00 in0.0 mm 0.00 in0.0 mm 0.00 in0.0 mm
09:36 AM 42.1°F5.6°C 34.4°F1.3°C 74% 24.2 mph N38.9 kmh N 27.0 mph43.5 kmh 29.57 in1001.4 mb 0.00 in0.0 mm 0.00 in0.0 mm 0.00 in0.0 mm
09:35 AM 42.1°F5.6°C 34.4°F1.3°C 74% 24.1 mph NNW38.8 kmh NNW 28.0 mph45.1 kmh 29.57 in1001.4 mb 0.00 in0.0 mm 0.00 in0.0 mm 0.00 in0.0 mm
09:34 AM 42.1°F5.6°C 34.8°F1.6°C 75% 25.4 mph NNW40.9 kmh NNW 31.0 mph49.9 kmh 29.57 in1001.4 mb 0.00 in0.0 mm 0.00 in0.0 mm 0.00 in0.0 mm
09:33 AM 42.1°F5.6°C 35.1°F1.7°C 76% 26.4 mph NNW42.5 kmh NNW 31.0 mph49.9 kmh 29.57 in1001.4 mb 0.00 in0.0 mm 0.00 in0.0 mm 0.00 in0.0 mm
09:32 AM 42.1°F5.6°C 34.4°F1.3°C 74% 24.8 mph NNW39.9 kmh NNW 29.0 mph46.7 kmh 29.56 in1001.0 mb 0.00 in0.0 mm 0.00 in0.0 mm 0.00 in0.0 mm
09:31 AM 42.1°F5.6°C 34.1°F1.2°C 73% 25.9 mph N41.7 kmh N 30.0 mph48.3 kmh 29.57 in1001.4 mb 0.00 in0.0 mm 0.00 in0.0 mm 0.00 in0.0 mm
09:30 AM 42.1°F5.6°C 34.8°F1.6°C 75% 24.4 mph NNW39.3 kmh NNW 30.0 mph48.3 kmh 29.56 in1001.0 mb 0.00 in0.0 mm 0.00 in0.0 mm 0.00 in0.0 mm
09:29 AM 42.1°F5.6°C 34.8°F1.6°C 75% 26.3 mph NNW42.3 kmh NNW 29.0 mph46.7 kmh 29.56 in1001.0 mb 0.00 in0.0 mm 0.00 in0.0 mm 0.00 in0.0 mm
09:28 AM 42.1°F5.6°C 34.8°F1.6°C 75% 24.4 mph NNW39.3 kmh NNW 28.0 mph45.1 kmh 29.56 in1001.0 mb 0.00 in0.0 mm 0.00 in0.0 mm 0.00 in0.0 mm
09:27 AM 42.1°F5.6°C 35.1°F1.7°C 76% 24.4 mph N39.3 kmh N 29.0 mph46.7 kmh 29.56 in1001.0 mb 0.00 in0.0 mm 0.00 in0.0 mm 0.00 in0.0 mm
09:26 AM 42.0°F5.6°C 35.0°F1.7°C 76% 25.9 mph NNW41.7 kmh NNW 31.0 mph49.9 kmh 29.56 in1001.0 mb 0.00 in0.0 mm 0.00 in0.0 mm 0.00 in0.0 mm
09:25 AM 41.9°F5.5°C 35.2°F1.8°C 77% 26.9 mph NNW43.3 kmh NNW 31.0 mph49.9 kmh 29.56 in1001.0 mb 0.00 in0.0 mm 0.00 in0.0 mm 0.00 in0.0 mm
09:24 AM 41.9°F5.5°C 35.2°F1.8°C 77% 23.1 mph NNW37.2 kmh NNW 26.0 mph41.8 kmh 29.56 in1001.0 mb 0.00 in0.0 mm 0.00 in0.0 mm 0.00 in0.0 mm
09:23 AM 41.9°F5.5°C 35.2°F1.8°C 77% 22.1 mph NNW35.6 kmh NNW 27.0 mph43.5 kmh 29.56 in1001.0 mb 0.00 in0.0 mm 0.00 in0.0 mm 0.00 in0.0 mm
09:22 AM 41.8°F5.4°C 35.8°F2.1°C 79% 22.5 mph NNW36.2 kmh NNW 27.0 mph43.5 kmh 29.56 in1001.0 mb 0.00 in0.0 mm 0.00 in0.0 mm 0.00 in0.0 mm
09:21 AM 41.8°F5.4°C 35.8°F2.1°C 79% 20.3 mph NNW32.7 kmh NNW 24.0 mph38.6 kmh 29.56 in1001.0 mb 0.00 in0.0 mm 0.00 in0.0 mm 0.00 in0.0 mm
09:20 AM 41.8°F5.4°C 35.5°F1.9°C 78% 21.8 mph NNW35.1 kmh NNW 26.0 mph41.8 kmh 29.56 in1001.0 mb 0.00 in0.0 mm 0.00 in0.0 mm 0.00 in0.0 mm
09:19 AM 41.7°F5.4°C 35.4°F1.9°C 78% 23.3 mph NNW37.5 kmh NNW 26.0 mph41.8 kmh 29.56 in1001.0 mb 0.00 in0.0 mm 0.00 in0.0 mm 0.00 in0.0 mm
09:18 AM 41.6°F5.3°C 35.3°F1.8°C 78% 22.8 mph NNW36.7 kmh NNW 26.0 mph41.8 kmh 29.56 in1001.0 mb 0.00 in0.0 mm 0.00 in0.0 mm 0.00 in0.0 mm
09:17 AM 41.5°F5.3°C 35.2°F1.8°C 78% 21.0 mph NNW33.8 kmh NNW 26.0 mph41.8 kmh 29.56 in1001.0 mb 0.00 in0.0 mm 0.00 in0.0 mm 0.00 in0.0 mm
09:16 AM 41.4°F5.2°C 35.1°F1.7°C 78% 22.1 mph NNW35.6 kmh NNW 25.0 mph40.2 kmh 29.56 in1001.0 mb 0.00 in0.0 mm 0.00 in0.0 mm 0.00 in0.0 mm
09:15 AM 41.2°F5.1°C 34.9°F1.6°C 78% 23.5 mph NNW37.8 kmh NNW 26.0 mph41.8 kmh 29.56 in1001.0 mb 0.00 in0.0 mm 0.00 in0.0 mm 0.00 in0.0 mm
09:14 AM 41.2°F5.1°C 35.5°F1.9°C 80% 20.7 mph NNW33.3 kmh NNW 26.0 mph41.8 kmh 29.56 in1001.0 mb 0.00 in0.0 mm 0.00 in0.0 mm 0.00 in0.0 mm
09:13 AM 41.2°F5.1°C 35.5°F1.9°C 80% 19.6 mph NNW31.5 kmh NNW 25.0 mph40.2 kmh 29.56 in1001.0 mb 0.00 in0.0 mm 0.00 in0.0 mm 0.00 in0.0 mm
09:12 AM 41.2°F5.1°C 35.2°F1.8°C 79% 21.3 mph NNW34.3 kmh NNW 25.0 mph40.2 kmh 29.56 in1001.0 mb 0.00 in0.0 mm 0.00 in0.0 mm 0.00 in0.0 mm
09:11 AM 41.4°F5.2°C 35.4°F1.9°C 79% 22.3 mph NNW35.9 kmh NNW 27.0 mph43.5 kmh 29.56 in1001.0 mb 0.00 in0.0 mm 0.00 in0.0 mm 0.00 in0.0 mm
09:10 AM 41.7°F5.4°C 35.7°F2.1°C 79% 24.5 mph NNW39.4 kmh NNW 31.0 mph49.9 kmh 29.56 in1001.0 mb 0.00 in0.0 mm 0.00 in0.0 mm 0.00 in0.0 mm
09:09 AM 41.9°F5.5°C 35.2°F1.8°C 77% 25.1 mph NNW40.4 kmh NNW 31.0 mph49.9 kmh 29.56 in1001.0 mb 0.00 in0.0 mm 0.00 in0.0 mm 0.00 in0.0 mm
09:08 AM 42.1°F5.6°C 35.7°F2.1°C 78% 23.6 mph NNW38.0 kmh NNW 29.0 mph46.7 kmh 29.56 in1001.0 mb 0.00 in0.0 mm 0.00 in0.0 mm 0.00 in0.0 mm
09:07 AM 42.1°F5.6°C 35.4°F1.9°C 77% 23.5 mph NNW37.8 kmh NNW 32.0 mph51.5 kmh 29.56 in1001.0 mb 0.00 in0.0 mm 0.00 in0.0 mm 0.00 in0.0 mm
09:06 AM 42.2°F5.7°C 34.9°F1.6°C 75% 26.8 mph NNW43.1 kmh NNW 32.0 mph51.5 kmh 29.56 in1001.0 mb 0.00 in0.0 mm 0.00 in0.0 mm 0.00 in0.0 mm
09:05 AM 42.2°F5.7°C 35.5°F1.9°C 77% 24.1 mph NNW38.8 kmh NNW 27.0 mph43.5 kmh 29.56 in1001.0 mb 0.00 in0.0 mm 0.00 in0.0 mm 0.00 in0.0 mm
09:04 AM 42.2°F5.7°C 35.2°F1.8°C 76% 23.8 mph NNW38.3 kmh NNW 27.0 mph43.5 kmh 29.55 in1000.7 mb 0.00 in0.0 mm 0.00 in0.0 mm 0.00 in0.0 mm
09:03 AM 42.2°F5.7°C 35.5°F1.9°C 77% 24.3 mph NNW39.1 kmh NNW 30.0 mph48.3 kmh 29.55 in1000.7 mb 0.00 in0.0 mm 0.00 in0.0 mm 0.00 in0.0 mm
09:02 AM 42.1°F5.6°C 34.8°F1.6°C 75% 25.6 mph NNW41.2 kmh NNW 32.0 mph51.5 kmh 29.55 in1000.7 mb 0.00 in0.0 mm 0.00 in0.0 mm 0.00 in0.0 mm
09:01 AM 42.1°F5.6°C 34.8°F1.6°C 75% 27.5 mph NNW44.3 kmh NNW 32.0 mph51.5 kmh 29.55 in1000.7 mb 0.00 in0.0 mm 0.00 in0.0 mm 0.00 in0.0 mm
09:00 AM 42.1°F5.6°C 35.1°F1.7°C 76% 25.0 mph NNW40.2 kmh NNW 29.0 mph46.7 kmh 29.55 in1000.7 mb 0.00 in0.0 mm 0.00 in0.0 mm 0.00 in0.0 mm
08:59 AM 42.1°F5.6°C 35.1°F1.7°C 76% 27.0 mph NNW43.5 kmh NNW 30.0 mph48.3 kmh 29.55 in1000.7 mb 0.00 in0.0 mm 0.00 in0.0 mm 0.00 in0.0 mm
08:58 AM 42.1°F5.6°C 35.1°F1.7°C 76% 24.8 mph NNW39.9 kmh NNW 30.0 mph48.3 kmh 29.55 in1000.7 mb 0.00 in0.0 mm 0.00 in0.0 mm 0.00 in0.0 mm
08:57 AM 42.1°F5.6°C 35.1°F1.7°C 76% 25.4 mph NNW40.9 kmh NNW 29.0 mph46.7 kmh 29.55 in1000.7 mb 0.00 in0.0 mm 0.00 in0.0 mm 0.00 in0.0 mm
08:56 AM 42.0°F5.6°C 35.0°F1.7°C 76% 24.9 mph N40.1 kmh N 28.0 mph45.1 kmh 29.55 in1000.7 mb 0.00 in0.0 mm 0.00 in0.0 mm 0.00 in0.0 mm
08:55 AM 42.0°F5.6°C 34.7°F1.5°C 75% 25.3 mph N40.7 kmh N 28.0 mph45.1 kmh 29.55 in1000.7 mb 0.00 in0.0 mm 0.00 in0.0 mm 0.00 in0.0 mm
08:54 AM 42.0°F5.6°C 34.7°F1.5°C 75% 24.4 mph N39.3 kmh N 28.0 mph45.1 kmh 29.55 in1000.7 mb 0.00 in0.0 mm 0.00 in0.0 mm 0.00 in0.0 mm
08:53 AM 42.0°F5.6°C 35.3°F1.8°C 77% 23.8 mph NNW38.3 kmh NNW 28.0 mph45.1 kmh 29.55 in1000.7 mb 0.00 in0.0 mm 0.00 in0.0 mm 0.00 in0.0 mm
08:52 AM 42.0°F5.6°C 34.7°F1.5°C 75% 24.7 mph N39.8 kmh N 28.0 mph45.1 kmh 29.55 in1000.7 mb 0.00 in0.0 mm 0.00 in0.0 mm 0.00 in0.0 mm
08:51 AM 41.9°F5.5°C 34.9°F1.6°C 76% 23.8 mph N38.3 kmh N 30.0 mph48.3 kmh 29.55 in1000.7 mb 0.00 in0.0 mm 0.00 in0.0 mm 0.00 in0.0 mm
08:50 AM 41.9°F5.5°C 34.9°F1.6°C 76% 26.5 mph NNW42.6 kmh NNW 30.0 mph48.3 kmh 29.55 in1000.7 mb 0.00 in0.0 mm 0.00 in0.0 mm 0.00 in0.0 mm
08:49 AM 41.9°F5.5°C 35.5°F1.9°C 78% 25.2 mph NNW40.6 kmh NNW 29.0 mph46.7 kmh 29.55 in1000.7 mb 0.00 in0.0 mm 0.00 in0.0 mm 0.00 in0.0 mm
08:48 AM 41.9°F5.5°C 35.2°F1.8°C 77% 25.1 mph N40.4 kmh N 29.0 mph46.7 kmh 29.55 in1000.7 mb 0.00 in0.0 mm 0.00 in0.0 mm 0.00 in0.0 mm
08:47 AM 41.8°F5.4°C 35.1°F1.7°C 77% 25.9 mph NNW41.7 kmh NNW 31.0 mph49.9 kmh 29.54 in1000.3 mb 0.00 in0.0 mm 0.00 in0.0 mm 0.00 in0.0 mm
08:46 AM 41.9°F5.5°C 34.9°F1.6°C 76% 27.0 mph NNW43.5 kmh NNW 33.0 mph53.1 kmh 29.55 in1000.7 mb 0.00 in0.0 mm 0.00 in0.0 mm 0.00 in0.0 mm
08:45 AM 41.9°F5.5°C 35.2°F1.8°C 77% 29.2 mph NNW47.0 kmh NNW 33.0 mph53.1 kmh 29.55 in1000.7 mb 0.00 in0.0 mm 0.00 in0.0 mm 0.00 in0.0 mm
08:44 AM 42.1°F5.6°C 35.7°F2.1°C 78% 23.0 mph NNW37.0 kmh NNW 29.0 mph46.7 kmh 29.54 in1000.3 mb 0.00 in0.0 mm 0.00 in0.0 mm 0.00 in0.0 mm
08:43 AM 42.1°F5.6°C 35.1°F1.7°C 76% 25.8 mph N41.5 kmh N 29.0 mph46.7 kmh 29.54 in1000.3 mb 0.00 in0.0 mm 0.00 in0.0 mm 0.00 in0.0 mm
08:42 AM 42.0°F5.6°C 35.6°F2.0°C 78% 24.6 mph N39.6 kmh N 28.0 mph45.1 kmh 29.54 in1000.3 mb 0.00 in0.0 mm 0.00 in0.0 mm 0.00 in0.0 mm
08:41 AM 42.1°F5.6°C 35.7°F2.1°C 78% 21.0 mph N33.8 kmh N 27.0 mph43.5 kmh 29.54 in1000.3 mb 0.00 in0.0 mm 0.00 in0.0 mm 0.00 in0.0 mm
08:40 AM 42.1°F5.6°C 35.4°F1.9°C 77% 22.5 mph N36.2 kmh N 29.0 mph46.7 kmh 29.54 in1000.3 mb 0.00 in0.0 mm 0.00 in0.0 mm 0.00 in0.0 mm
08:39 AM 42.1°F5.6°C 35.4°F1.9°C 77% 26.8 mph NNW43.1 kmh NNW 29.0 mph46.7 kmh 29.54 in1000.3 mb 0.00 in0.0 mm 0.00 in0.0 mm 0.00 in0.0 mm
08:38 AM 42.0°F5.6°C 35.0°F1.7°C 76% 23.5 mph NNW37.8 kmh NNW 32.0 mph51.5 kmh 29.54 in1000.3 mb 0.00 in0.0 mm 0.00 in0.0 mm 0.00 in0.0 mm
08:37 AM 42.1°F5.6°C 35.1°F1.7°C 76% 29.3 mph N47.2 kmh N 33.0 mph53.1 kmh 29.54 in1000.3 mb 0.00 in0.0 mm 0.00 in0.0 mm 0.00 in0.0 mm
08:36 AM 42.1°F5.6°C 35.4°F1.9°C 77% 28.8 mph NNW46.3 kmh NNW 33.0 mph53.1 kmh 29.54 in1000.3 mb 0.00 in0.0 mm 0.00 in0.0 mm 0.00 in0.0 mm
08:35 AM 42.1°F5.6°C 35.4°F1.9°C 77% 28.0 mph NNW45.1 kmh NNW 31.0 mph49.9 kmh 29.54 in1000.3 mb 0.00 in0.0 mm 0.00 in0.0 mm 0.00 in0.0 mm
08:34 AM 42.1°F5.6°C 35.1°F1.7°C 76% 27.9 mph NNW44.9 kmh NNW 32.0 mph51.5 kmh 29.54 in1000.3 mb 0.00 in0.0 mm 0.00 in0.0 mm 0.00 in0.0 mm
08:33 AM 42.0°F5.6°C 35.3°F1.8°C 77% 27.9 mph NNW44.9 kmh NNW 32.0 mph51.5 kmh 29.54 in1000.3 mb 0.00 in0.0 mm 0.00 in0.0 mm 0.00 in0.0 mm
08:32 AM 42.1°F5.6°C 35.4°F1.9°C 77% 28.0 mph NNW45.1 kmh NNW 33.0 mph53.1 kmh 29.54 in1000.3 mb 0.00 in0.0 mm 0.00 in0.0 mm 0.00 in0.0 mm
08:31 AM 42.1°F5.6°C 35.4°F1.9°C 77% 27.3 mph NNW43.9 kmh NNW 33.0 mph53.1 kmh 29.54 in1000.3 mb 0.00 in0.0 mm 0.00 in0.0 mm 0.00 in0.0 mm
08:30 AM 42.1°F5.6°C 35.7°F2.1°C 78% 24.2 mph NNW38.9 kmh NNW 31.0 mph49.9 kmh 29.54 in1000.3 mb 0.00 in0.0 mm 0.00 in0.0 mm 0.00 in0.0 mm
08:29 AM 42.2°F5.7°C 35.5°F1.9°C 77% 26.3 mph NNW42.3 kmh NNW 31.0 mph49.9 kmh 29.54 in1000.3 mb 0.00 in0.0 mm 0.00 in0.0 mm 0.00 in0.0 mm
08:28 AM 42.1°F5.6°C 35.7°F2.1°C 78% 26.9 mph NNW43.3 kmh NNW 31.0 mph49.9 kmh 29.54 in1000.3 mb 0.00 in0.0 mm 0.00 in0.0 mm 0.00 in0.0 mm
08:27 AM 42.1°F5.6°C 35.7°F2.1°C 78% 27.4 mph NNW44.1 kmh NNW 33.0 mph53.1 kmh 29.54 in1000.3 mb 0.00 in0.0 mm 0.00 in0.0 mm 0.00 in0.0 mm
08:26 AM 42.1°F5.6°C 35.7°F2.1°C 78% 27.0 mph NNW43.5 kmh NNW 33.0 mph53.1 kmh 29.53 in1000.0 mb 0.00 in0.0 mm 0.00 in0.0 mm 0.00 in0.0 mm
08:25 AM 42.1°F5.6°C 35.7°F2.1°C 78% 28.0 mph NNW45.1 kmh NNW 31.0 mph49.9 kmh 29.53 in1000.0 mb 0.00 in0.0 mm 0.00 in0.0 mm 0.00 in0.0 mm
08:24 AM 42.0°F5.6°C 35.6°F2.0°C 78% 26.2 mph NNW42.2 kmh NNW 28.0 mph45.1 kmh 29.53 in1000.0 mb 0.00 in0.0 mm 0.00 in0.0 mm 0.00 in0.0 mm
08:23 AM 42.0°F5.6°C 36.0°F2.2°C 79% 25.2 mph NNW40.6 kmh NNW 31.0 mph49.9 kmh 29.53 in1000.0 mb 0.00 in0.0 mm 0.00 in0.0 mm 0.00 in0.0 mm
08:22 AM 41.9°F5.5°C 35.5°F1.9°C 78% 27.0 mph NNW43.5 kmh NNW 31.0 mph49.9 kmh 29.53 in1000.0 mb 0.00 in0.0 mm 0.00 in0.0 mm 0.00 in0.0 mm
08:21 AM 42.0°F5.6°C 36.0°F2.2°C 79% 25.7 mph NNW41.4 kmh NNW 28.0 mph45.1 kmh 29.53 in1000.0 mb 0.00 in0.0 mm 0.00 in0.0 mm 0.00 in0.0 mm
08:20 AM 41.8°F5.4°C 35.8°F2.1°C 79% 24.6 mph NNW39.6 kmh NNW 32.0 mph51.5 kmh 29.53 in1000.0 mb 0.00 in0.0 mm 0.00 in0.0 mm 0.00 in0.0 mm
08:19 AM 41.8°F5.4°C 35.5°F1.9°C 78% 25.1 mph NNW40.4 kmh NNW 32.0 mph51.5 kmh 29.53 in1000.0 mb 0.00 in0.0 mm 0.00 in0.0 mm 0.00 in0.0 mm
08:18 AM 41.8°F5.4°C 35.5°F1.9°C 78% 28.9 mph NNW46.5 kmh NNW 33.0 mph53.1 kmh 29.53 in1000.0 mb 0.00 in0.0 mm 0.00 in0.0 mm 0.00 in0.0 mm
08:17 AM 41.6°F5.3°C 35.9°F2.2°C 80% 24.8 mph NNW39.9 kmh NNW 33.0 mph53.1 kmh 29.53 in1000.0 mb 0.00 in0.0 mm 0.00 in0.0 mm 0.00 in0.0 mm
08:16 AM 41.6°F5.3°C 35.3°F1.8°C 78% 26.5 mph NNW42.6 kmh NNW 31.0 mph49.9 kmh 29.53 in1000.0 mb 0.00 in0.0 mm 0.00 in0.0 mm 0.00 in0.0 mm
08:15 AM 41.5°F5.3°C 35.2°F1.8°C 78% 27.3 mph NNW43.9 kmh NNW 31.0 mph49.9 kmh 29.53 in1000.0 mb 0.00 in0.0 mm 0.00 in0.0 mm 0.00 in0.0 mm
08:14 AM 41.5°F5.3°C 35.8°F2.1°C 80% 25.7 mph NNW41.4 kmh NNW 30.0 mph48.3 kmh 29.53 in1000.0 mb 0.00 in0.0 mm 0.00 in0.0 mm 0.00 in0.0 mm
08:13 AM 41.4°F5.2°C 35.4°F1.9°C 79% 25.1 mph NNW40.4 kmh NNW 31.0 mph49.9 kmh 29.53 in1000.0 mb 0.00 in0.0 mm 0.00 in0.0 mm 0.00 in0.0 mm
08:12 AM 41.4°F5.2°C 35.1°F1.7°C 78% 26.8 mph NNW43.1 kmh NNW 33.0 mph53.1 kmh 29.53 in1000.0 mb 0.00 in0.0 mm 0.00 in0.0 mm 0.00 in0.0 mm
08:11 AM 41.5°F5.3°C 35.2°F1.8°C 78% 28.9 mph NNW46.5 kmh NNW 36.0 mph57.9 kmh 29.53 in1000.0 mb 0.00 in0.0 mm 0.00 in0.0 mm 0.00 in0.0 mm
08:10 AM 41.7°F5.4°C 35.4°F1.9°C 78% 31.8 mph NNW51.2 kmh NNW 36.0 mph57.9 kmh 29.53 in1000.0 mb 0.00 in0.0 mm 0.00 in0.0 mm 0.00 in0.0 mm
08:09 AM 41.8°F5.4°C 35.5°F1.9°C 78% 30.3 mph NNW48.8 kmh NNW 36.0 mph57.9 kmh 29.52 in999.7 mb 0.00 in0.0 mm 0.00 in0.0 mm 0.00 in0.0 mm
08:08 AM 41.9°F5.5°C 35.2°F1.8°C 77% 29.7 mph NNW47.8 kmh NNW 33.0 mph53.1 kmh 29.52 in999.7 mb 0.00 in0.0 mm 0.00 in0.0 mm 0.00 in0.0 mm
08:07 AM 41.8°F5.4°C 35.5°F1.9°C 78% 29.4 mph NNW47.3 kmh NNW 33.0 mph53.1 kmh 29.52 in999.7 mb 0.00 in0.0 mm 0.00 in0.0 mm 0.00 in0.0 mm
08:06 AM 41.8°F5.4°C 36.1°F2.3°C 80% 26.7 mph NNW43.0 kmh NNW 31.0 mph49.9 kmh 29.52 in999.7 mb 0.00 in0.0 mm 0.00 in0.0 mm 0.00 in0.0 mm
08:05 AM 41.7°F5.4°C 35.4°F1.9°C 78% 25.8 mph NNW41.5 kmh NNW 33.0 mph53.1 kmh 29.52 in999.7 mb 0.00 in0.0 mm 0.00 in0.0 mm 0.00 in0.0 mm
08:04 AM 41.6°F5.3°C 35.6°F2.0°C 79% 28.2 mph NNW45.4 kmh NNW 33.0 mph53.1 kmh 29.52 in999.7 mb 0.00 in0.0 mm 0.00 in0.0 mm 0.00 in0.0 mm
08:03 AM 41.5°F5.3°C 35.8°F2.1°C 80% 25.2 mph NNW40.6 kmh NNW 30.0 mph48.3 kmh 29.52 in999.7 mb 0.00 in0.0 mm 0.00 in0.0 mm 0.00 in0.0 mm
08:02 AM 41.4°F5.2°C 35.7°F2.1°C 80% 24.4 mph NNW39.3 kmh NNW 29.0 mph46.7 kmh 29.52 in999.7 mb 0.00 in0.0 mm 0.00 in0.0 mm 0.00 in0.0 mm
08:01 AM 41.2°F5.1°C 35.8°F2.1°C 81% 25.7 mph NNW41.4 kmh NNW 29.0 mph46.7 kmh 29.52 in999.7 mb 0.00 in0.0 mm 0.00 in0.0 mm 0.00 in0.0 mm
08:00 AM 41.1°F5.1°C 35.4°F1.9°C 80% 24.2 mph NNW38.9 kmh NNW 27.0 mph43.5 kmh 29.52 in999.7 mb 0.00 in0.0 mm 0.00 in0.0 mm 0.00 in0.0 mm
07:59 AM 41.0°F5.0°C 35.3°F1.8°C 80% 24.6 mph NNW39.6 kmh NNW 28.0 mph45.1 kmh 29.52 in999.7 mb 0.00 in0.0 mm 0.00 in0.0 mm 0.00 in0.0 mm
07:58 AM 41.0°F5.0°C 35.6°F2.0°C 81% 23.0 mph N37.0 kmh N 28.0 mph45.1 kmh 29.52 in999.7 mb 0.00 in0.0 mm 0.00 in0.0 mm 0.00 in0.0 mm
07:57 AM 41.0°F5.0°C 35.3°F1.8°C 80% 22.4 mph N36.0 kmh N 32.0 mph51.5 kmh 29.52 in999.7 mb 0.00 in0.0 mm 0.00 in0.0 mm 0.00 in0.0 mm
07:56 AM 41.1°F5.1°C 35.4°F1.9°C 80% 27.5 mph N44.3 kmh N 36.0 mph57.9 kmh 29.52 in999.7 mb 0.00 in0.0 mm 0.00 in0.0 mm 0.00 in0.0 mm
07:55 AM 41.2°F5.1°C 35.5°F1.9°C 80% 29.7 mph N47.8 kmh N 36.0 mph57.9 kmh 29.52 in999.7 mb 0.00 in0.0 mm 0.00 in0.0 mm 0.00 in0.0 mm
07:54 AM 41.2°F5.1°C 35.5°F1.9°C 80% 22.3 mph N35.9 kmh N 30.0 mph48.3 kmh 29.52 in999.7 mb 0.00 in0.0 mm 0.00 in0.0 mm 0.00 in0.0 mm
07:53 AM 41.3°F5.2°C 35.3°F1.8°C 79% 25.3 mph N40.7 kmh N 33.0 mph53.1 kmh 29.51 in999.3 mb 0.00 in0.0 mm 0.00 in0.0 mm 0.00 in0.0 mm
07:52 AM 41.4°F5.2°C 35.7°F2.1°C 80% 28.7 mph NNW46.2 kmh NNW 38.0 mph61.2 kmh 29.51 in999.3 mb 0.00 in0.0 mm 0.00 in0.0 mm 0.00 in0.0 mm
07:51 AM 41.5°F5.3°C 35.8°F2.1°C 80% 29.3 mph NNW47.2 kmh NNW 38.0 mph61.2 kmh 29.51 in999.3 mb 0.00 in0.0 mm 0.00 in0.0 mm 0.00 in0.0 mm
07:50 AM 41.6°F5.3°C 35.9°F2.2°C 80% 28.5 mph NNW45.9 kmh NNW 36.0 mph57.9 kmh 29.51 in999.3 mb 0.00 in0.0 mm 0.00 in0.0 mm 0.00 in0.0 mm
07:49 AM 41.7°F5.4°C 35.4°F1.9°C 78% 29.1 mph NNW46.8 kmh NNW 36.0 mph57.9 kmh 29.51 in999.3 mb 0.00 in0.0 mm 0.00 in0.0 mm 0.00 in0.0 mm
07:48 AM 41.8°F5.4°C 35.8°F2.1°C 79% 30.8 mph NNW49.6 kmh NNW 35.0 mph56.3 kmh 29.51 in999.3 mb 0.00 in0.0 mm 0.00 in0.0 mm 0.00 in0.0 mm
07:47 AM 41.8°F5.4°C 35.8°F2.1°C 79% 29.7 mph NNW47.8 kmh NNW 35.0 mph56.3 kmh 29.51 in999.3 mb 0.00 in0.0 mm 0.00 in0.0 mm 0.00 in0.0 mm
07:46 AM 41.8°F5.4°C 35.8°F2.1°C 79% 27.3 mph NNW43.9 kmh NNW 34.0 mph54.7 kmh 29.51 in999.3 mb 0.00 in0.0 mm 0.00 in0.0 mm 0.00 in0.0 mm
07:45 AM 41.8°F5.4°C 35.5°F1.9°C 78% 29.7 mph NNW47.8 kmh NNW 33.0 mph53.1 kmh 29.51 in999.3 mb 0.00 in0.0 mm 0.00 in0.0 mm 0.00 in0.0 mm
07:44 AM 41.8°F5.4°C 35.8°F2.1°C 79% 27.7 mph NNW44.6 kmh NNW 32.0 mph51.5 kmh 29.51 in999.3 mb 0.00 in0.0 mm 0.00 in0.0 mm 0.00 in0.0 mm
07:43 AM 41.8°F5.4°C 36.1°F2.3°C 80% 27.8 mph NNW44.7 kmh NNW 33.0 mph53.1 kmh 29.51 in999.3 mb 0.00 in0.0 mm 0.00 in0.0 mm 0.00 in0.0 mm
07:42 AM 41.7°F5.4°C 35.7°F2.1°C 79% 27.8 mph NNW44.7 kmh NNW 33.0 mph53.1 kmh 29.51 in999.3 mb 0.00 in0.0 mm 0.00 in0.0 mm 0.00 in0.0 mm
07:41 AM 41.6°F5.3°C 36.2°F2.3°C 81% 28.7 mph NNW46.2 kmh NNW 32.0 mph51.5 kmh 29.50 in999.0 mb 0.00 in0.0 mm 0.00 in0.0 mm 0.00 in0.0 mm
07:40 AM 41.4°F5.2°C 35.7°F2.1°C 80% 22.5 mph N36.2 kmh N 27.0 mph43.5 kmh 29.50 in999.0 mb 0.00 in0.0 mm 0.00 in0.0 mm 0.00 in0.0 mm
07:39 AM 41.3°F5.2°C 35.3°F1.8°C 79% 22.0 mph N35.4 kmh N 27.0 mph43.5 kmh 29.50 in999.0 mb 0.00 in0.0 mm 0.00 in0.0 mm 0.00 in0.0 mm
07:38 AM 41.3°F5.2°C 35.3°F1.8°C 79% 22.3 mph N35.9 kmh N 26.0 mph41.8 kmh 29.50 in999.0 mb 0.00 in0.0 mm 0.00 in0.0 mm 0.00 in0.0 mm
07:37 AM 41.2°F5.1°C 35.2°F1.8°C 79% 21.9 mph N35.2 kmh N 26.0 mph41.8 kmh 29.50 in999.0 mb 0.00 in0.0 mm 0.00 in0.0 mm 0.00 in0.0 mm
07:36 AM 41.2°F5.1°C 35.2°F1.8°C 79% 22.6 mph N36.4 kmh N 28.0 mph45.1 kmh 29.50 in999.0 mb 0.00 in0.0 mm 0.00 in0.0 mm 0.00 in0.0 mm
07:35 AM 41.2°F5.1°C 35.2°F1.8°C 79% 24.3 mph N39.1 kmh N 34.0 mph54.7 kmh 29.50 in999.0 mb 0.00 in0.0 mm 0.00 in0.0 mm 0.00 in0.0 mm
07:34 AM 41.3°F5.2°C 35.0°F1.7°C 78% 27.0 mph N43.5 kmh N 36.0 mph57.9 kmh 29.50 in999.0 mb 0.00 in0.0 mm 0.00 in0.0 mm 0.00 in0.0 mm
07:33 AM 41.4°F5.2°C 35.7°F2.1°C 80% 29.9 mph NNW48.1 kmh NNW 36.0 mph57.9 kmh 29.50 in999.0 mb 0.00 in0.0 mm 0.00 in0.0 mm 0.00 in0.0 mm
07:32 AM 41.5°F5.3°C 35.8°F2.1°C 80% 27.0 mph N43.5 kmh N 33.0 mph53.1 kmh 29.50 in999.0 mb 0.00 in0.0 mm 0.00 in0.0 mm 0.00 in0.0 mm
07:31 AM 41.3°F5.2°C 35.9°F2.2°C 81% 22.8 mph N36.7 kmh N 28.0 mph45.1 kmh 29.50 in999.0 mb 0.00 in0.0 mm 0.00 in0.0 mm 0.00 in0.0 mm
07:30 AM 41.3°F5.2°C 35.9°F2.2°C 81% 21.6 mph N34.8 kmh N 26.0 mph41.8 kmh 29.50 in999.0 mb 0.00 in0.0 mm 0.00 in0.0 mm 0.00 in0.0 mm
07:29 AM 41.4°F5.2°C 35.7°F2.1°C 80% 20.6 mph N33.2 kmh N 26.0 mph41.8 kmh 29.50 in999.0 mb 0.00 in0.0 mm 0.00 in0.0 mm 0.00 in0.0 mm
07:28 AM 41.4°F5.2°C 35.7°F2.1°C 80% 22.2 mph N35.7 kmh N 27.0 mph43.5 kmh 29.49 in998.6 mb 0.00 in0.0 mm 0.00 in0.0 mm 0.00 in0.0 mm
07:27 AM 41.5°F5.3°C 36.1°F2.3°C 81% 23.1 mph N37.2 kmh N 27.0 mph43.5 kmh 29.49 in998.6 mb 0.00 in0.0 mm 0.00 in0.0 mm 0.00 in0.0 mm
07:26 AM 41.5°F5.3°C 36.1°F2.3°C 81% 22.7 mph N36.5 kmh N 31.0 mph49.9 kmh 29.49 in998.6 mb 0.00 in0.0 mm 0.00 in0.0 mm 0.00 in0.0 mm
07:25 AM 41.4°F5.2°C 36.0°F2.2°C 81% 26.3 mph NNW42.3 kmh NNW 31.0 mph49.9 kmh 29.49 in998.6 mb 0.00 in0.0 mm 0.00 in0.0 mm 0.00 in0.0 mm
07:24 AM 41.4°F5.2°C 36.3°F2.4°C 82% 25.3 mph NNW40.7 kmh NNW 30.0 mph48.3 kmh 29.49 in998.6 mb 0.00 in0.0 mm 0.00 in0.0 mm 0.00 in0.0 mm
07:23 AM 41.3°F5.2°C 36.2°F2.3°C 82% 25.7 mph NNW41.4 kmh NNW 30.0 mph48.3 kmh 29.49 in998.6 mb 0.00 in0.0 mm 0.00 in0.0 mm 0.00 in0.0 mm
07:22 AM 41.2°F5.1°C 36.1°F2.3°C 82% 28.2 mph NNW45.4 kmh NNW 30.0 mph48.3 kmh 29.49 in998.6 mb 0.00 in0.0 mm 0.00 in0.0 mm 0.00 in0.0 mm
07:21 AM 41.2°F5.1°C 36.7°F2.6°C 84% 23.8 mph NNW38.3 kmh NNW 28.0 mph45.1 kmh 29.49 in998.6 mb 0.00 in0.0 mm 0.00 in0.0 mm 0.00 in0.0 mm
07:20 AM 41.2°F5.1°C 36.4°F2.4°C 83% 22.4 mph NNW36.0 kmh NNW 31.0 mph49.9 kmh 29.49 in998.6 mb 0.00 in0.0 mm 0.00 in0.0 mm 0.00 in0.0 mm
07:19 AM 41.0°F5.0°C 36.2°F2.3°C 83% 27.1 mph NNW43.6 kmh NNW 33.0 mph53.1 kmh 29.49 in998.6 mb 0.00 in0.0 mm 0.00 in0.0 mm 0.00 in0.0 mm
07:18 AM 41.1°F5.1°C 36.3°F2.4°C 83% 29.8 mph NNW48.0 kmh NNW 33.0 mph53.1 kmh 29.49 in998.6 mb 0.00 in0.0 mm 0.00 in0.0 mm 0.00 in0.0 mm
07:17 AM 41.0°F5.0°C 36.2°F2.3°C 83% 25.6 mph NNW41.2 kmh NNW 32.0 mph51.5 kmh 29.49 in998.6 mb 0.00 in0.0 mm 0.00 in0.0 mm 0.00 in0.0 mm
07:16 AM 40.9°F4.9°C 35.8°F2.1°C 82% 29.4 mph N47.3 kmh N 32.0 mph51.5 kmh 29.49 in998.6 mb 0.00 in0.0 mm 0.00 in0.0 mm 0.00 in0.0 mm
07:15 AM 40.8°F4.9°C 35.7°F2.1°C 82% 27.8 mph N44.7 kmh N 32.0 mph51.5 kmh 29.49 in998.6 mb 0.00 in0.0 mm 0.00 in0.0 mm 0.00 in0.0 mm
07:14 AM 40.9°F4.9°C 36.1°F2.3°C 83% 24.7 mph N39.8 kmh N 30.0 mph48.3 kmh 29.48 in998.3 mb 0.00 in0.0 mm 0.00 in0.0 mm 0.00 in0.0 mm
07:13 AM 41.0°F5.0°C 35.9°F2.2°C 82% 24.0 mph N38.6 kmh N 31.0 mph49.9 kmh 29.48 in998.3 mb 0.00 in0.0 mm 0.00 in0.0 mm 0.00 in0.0 mm
07:12 AM 41.1°F5.1°C 36.3°F2.4°C 83% 26.4 mph N42.5 kmh N 38.0 mph61.2 kmh 29.49 in998.6 mb 0.00 in0.0 mm 0.00 in0.0 mm 0.00 in0.0 mm
07:11 AM 41.2°F5.1°C 36.4°F2.4°C 83% 30.9 mph NNW49.7 kmh NNW 38.0 mph61.2 kmh 29.48 in998.3 mb 0.00 in0.0 mm 0.00 in0.0 mm 0.00 in0.0 mm
07:10 AM 41.3°F5.2°C 36.2°F2.3°C 82% 31.4 mph N50.5 kmh N 36.0 mph57.9 kmh 29.48 in998.3 mb 0.00 in0.0 mm 0.00 in0.0 mm 0.00 in0.0 mm
07:09 AM 41.4°F5.2°C 36.3°F2.4°C 82% 31.3 mph NNW50.4 kmh NNW 36.0 mph57.9 kmh 29.48 in998.3 mb 0.00 in0.0 mm 0.00 in0.0 mm 0.00 in0.0 mm
07:08 AM 41.5°F5.3°C 36.1°F2.3°C 81% 28.2 mph NNW45.4 kmh NNW 35.0 mph56.3 kmh 29.48 in998.3 mb 0.00 in0.0 mm 0.00 in0.0 mm 0.00 in0.0 mm
07:07 AM 41.5°F5.3°C 36.7°F2.6°C 83% 31.3 mph NNW50.4 kmh NNW 35.0 mph56.3 kmh 29.48 in998.3 mb 0.00 in0.0 mm 0.00 in0.0 mm 0.00 in0.0 mm
07:06 AM 41.5°F5.3°C 37.0°F2.8°C 84% 29.7 mph NNW47.8 kmh NNW 34.0 mph54.7 kmh 29.48 in998.3 mb 0.00 in0.0 mm 0.00 in0.0 mm 0.00 in0.0 mm
07:05 AM 41.5°F5.3°C 37.0°F2.8°C 84% 26.2 mph NNW42.2 kmh NNW 30.0 mph48.3 kmh 29.48 in998.3 mb 0.00 in0.0 mm 0.00 in0.0 mm 0.00 in0.0 mm
07:04 AM 41.4°F5.2°C 36.6°F2.6°C 83% 25.7 mph NNW41.4 kmh NNW 30.0 mph48.3 kmh 29.48 in998.3 mb 0.00 in0.0 mm 0.00 in0.0 mm 0.00 in0.0 mm
07:03 AM 41.4°F5.2°C 36.9°F2.7°C 84% 24.0 mph NNW38.6 kmh NNW 29.0 mph46.7 kmh 29.48 in998.3 mb 0.00 in0.0 mm 0.00 in0.0 mm 0.00 in0.0 mm
07:02 AM 41.3°F5.2°C 36.5°F2.5°C 83% 25.8 mph NNW41.5 kmh NNW 31.0 mph49.9 kmh 29.48 in998.3 mb 0.00 in0.0 mm 0.00 in0.0 mm 0.00 in0.0 mm
07:01 AM 41.3°F5.2°C 36.8°F2.7°C 84% 28.6 mph NNW46.0 kmh NNW 31.0 mph49.9 kmh 29.48 in998.3 mb 0.00 in0.0 mm 0.00 in0.0 mm 0.00 in0.0 mm
07:00 AM 41.3°F5.2°C 36.8°F2.7°C 84% 25.9 mph N41.7 kmh N 30.0 mph48.3 kmh 29.48 in998.3 mb 0.00 in0.0 mm 0.00 in0.0 mm 0.00 in0.0 mm
06:59 AM 41.3°F5.2°C 36.8°F2.7°C 84% 24.3 mph N39.1 kmh N 31.0 mph49.9 kmh 29.48 in998.3 mb 0.00 in0.0 mm 0.00 in0.0 mm 0.00 in0.0 mm
06:58 AM 41.4°F5.2°C 36.9°F2.7°C 84% 26.8 mph NNW43.1 kmh NNW 32.0 mph51.5 kmh 29.48 in998.3 mb 0.00 in0.0 mm 0.00 in0.0 mm 0.00 in0.0 mm
06:57 AM 41.4°F5.2°C 36.9°F2.7°C 84% 28.5 mph NNW45.9 kmh NNW 33.0 mph53.1 kmh 29.47 in998.0 mb 0.00 in0.0 mm 0.00 in0.0 mm 0.00 in0.0 mm
06:56 AM 41.5°F5.3°C 36.7°F2.6°C 83% 29.0 mph NNW46.7 kmh NNW 34.0 mph54.7 kmh 29.47 in998.0 mb 0.00 in0.0 mm 0.00 in0.0 mm 0.00 in0.0 mm
06:55 AM 41.4°F5.2°C 36.6°F2.6°C 83% 31.6 mph NNW50.9 kmh NNW 35.0 mph56.3 kmh 29.47 in998.0 mb 0.00 in0.0 mm 0.00 in0.0 mm 0.00 in0.0 mm
06:54 AM 41.5°F5.3°C 36.7°F2.6°C 83% 30.0 mph NNW48.3 kmh NNW 35.0 mph56.3 kmh 29.48 in998.3 mb 0.00 in0.0 mm 0.00 in0.0 mm 0.00 in0.0 mm
06:53 AM 41.5°F5.3°C 37.0°F2.8°C 84% 26.2 mph NNW42.2 kmh NNW 35.0 mph56.3 kmh 29.47 in998.0 mb 0.00 in0.0 mm 0.00 in0.0 mm 0.00 in0.0 mm
06:52 AM 41.5°F5.3°C 36.7°F2.6°C 83% 26.4 mph NNW42.5 kmh NNW 32.0 mph51.5 kmh 29.47 in998.0 mb 0.00 in0.0 mm 0.00 in0.0 mm 0.00 in0.0 mm
06:51 AM 41.4°F5.2°C 36.6°F2.6°C 83% 28.0 mph NNW45.1 kmh NNW 33.0 mph53.1 kmh 29.47 in998.0 mb 0.00 in0.0 mm 0.00 in0.0 mm 0.00 in0.0 mm
06:50 AM 41.3°F5.2°C 36.5°F2.5°C 83% 28.2 mph NNW45.4 kmh NNW 33.0 mph53.1 kmh 29.47 in998.0 mb 0.00 in0.0 mm 0.00 in0.0 mm 0.00 in0.0 mm
06:49 AM 41.3°F5.2°C 36.5°F2.5°C 83% 27.8 mph NNW44.7 kmh NNW 32.0 mph51.5 kmh 29.47 in998.0 mb 0.00 in0.0 mm 0.00 in0.0 mm 0.00 in0.0 mm
06:48 AM 41.2°F5.1°C 36.1°F2.3°C 82% 26.7 mph NNW43.0 kmh NNW 31.0 mph49.9 kmh 29.47 in998.0 mb 0.00 in0.0 mm 0.00 in0.0 mm 0.00 in0.0 mm
06:47 AM 41.2°F5.1°C 36.1°F2.3°C 82% 26.2 mph NNW42.2 kmh NNW 31.0 mph49.9 kmh 29.47 in998.0 mb 0.00 in0.0 mm 0.00 in0.0 mm 0.00 in0.0 mm
06:46 AM 41.2°F5.1°C 35.8°F2.1°C 81% 28.3 mph NNW45.5 kmh NNW 31.0 mph49.9 kmh 29.46 in997.6 mb 0.00 in0.0 mm 0.00 in0.0 mm 0.00 in0.0 mm
06:45 AM 41.2°F5.1°C 35.8°F2.1°C 81% 26.2 mph NNW42.2 kmh NNW 31.0 mph49.9 kmh 29.46 in997.6 mb 0.00 in0.0 mm 0.00 in0.0 mm 0.00 in0.0 mm
06:44 AM 41.2°F5.1°C 36.1°F2.3°C 82% 28.2 mph NNW45.4 kmh NNW 31.0 mph49.9 kmh 29.46 in997.6 mb 0.00 in0.0 mm 0.00 in0.0 mm 0.00 in0.0 mm
06:43 AM 41.4°F5.2°C 36.3°F2.4°C 82% 26.5 mph N42.6 kmh N 32.0 mph51.5 kmh 29.46 in997.6 mb 0.00 in0.0 mm 0.00 in0.0 mm 0.00 in0.0 mm
06:42 AM 41.5°F5.3°C 36.7°F2.6°C 83% 26.0 mph N41.8 kmh N 34.0 mph54.7 kmh 29.47 in998.0 mb 0.00 in0.0 mm 0.00 in0.0 mm 0.00 in0.0 mm
06:41 AM 41.7°F5.4°C 36.6°F2.6°C 82% 28.8 mph N46.3 kmh N 35.0 mph56.3 kmh 29.47 in998.0 mb 0.00 in0.0 mm 0.00 in0.0 mm 0.00 in0.0 mm
06:40 AM 41.7°F5.4°C 36.6°F2.6°C 82% 24.2 mph N38.9 kmh N 35.0 mph56.3 kmh 29.47 in998.0 mb 0.00 in0.0 mm 0.00 in0.0 mm 0.00 in0.0 mm
06:39 AM 41.7°F5.4°C 36.6°F2.6°C 82% 24.7 mph N39.8 kmh N 30.0 mph48.3 kmh 29.46 in997.6 mb 0.00 in0.0 mm 0.00 in0.0 mm 0.00 in0.0 mm
06:38 AM 41.6°F5.3°C 36.2°F2.3°C 81% 23.9 mph N38.5 kmh N 28.0 mph45.1 kmh 29.46 in997.6 mb 0.00 in0.0 mm 0.00 in0.0 mm 0.00 in0.0 mm
06:37 AM 41.6°F5.3°C 36.5°F2.5°C 82% 24.0 mph N38.6 kmh N 28.0 mph45.1 kmh 29.46 in997.6 mb 0.00 in0.0 mm 0.00 in0.0 mm 0.00 in0.0 mm
06:36 AM 41.7°F5.4°C 36.6°F2.6°C 82% 21.8 mph NNW35.1 kmh NNW 28.0 mph45.1 kmh 29.46 in997.6 mb 0.00 in0.0 mm 0.00 in0.0 mm 0.00 in0.0 mm
06:35 AM 41.7°F5.4°C 36.3°F2.4°C 81% 22.4 mph N36.0 kmh N 28.0 mph45.1 kmh 29.46 in997.6 mb 0.00 in0.0 mm 0.00 in0.0 mm 0.00 in0.0 mm
06:34 AM 41.8°F5.4°C 36.7°F2.6°C 82% 24.6 mph N39.6 kmh N 29.0 mph46.7 kmh 29.46 in997.6 mb 0.00 in0.0 mm 0.00 in0.0 mm 0.00 in0.0 mm
06:33 AM 42.0°F5.6°C 36.9°F2.7°C 82% 23.8 mph N38.3 kmh N 29.0 mph46.7 kmh 29.46 in997.6 mb 0.00 in0.0 mm 0.00 in0.0 mm 0.00 in0.0 mm
06:32 AM 42.0°F5.6°C 36.9°F2.7°C 82% 21.0 mph N33.8 kmh N 31.0 mph49.9 kmh 29.46 in997.6 mb 0.00 in0.0 mm 0.00 in0.0 mm 0.00 in0.0 mm
06:31 AM 42.0°F5.6°C 36.9°F2.7°C 82% 25.1 mph N40.4 kmh N 31.0 mph49.9 kmh 29.46 in997.6 mb 0.00 in0.0 mm 0.00 in0.0 mm 0.00 in0.0 mm
06:30 AM 42.1°F5.6°C 37.3°F2.9°C 83% 21.7 mph N34.9 kmh N 26.0 mph41.8 kmh 29.46 in997.6 mb 0.00 in0.0 mm 0.00 in0.0 mm 0.00 in0.0 mm
06:29 AM 42.1°F5.6°C 37.3°F2.9°C 83% 19.5 mph N31.4 kmh N 24.0 mph38.6 kmh 29.46 in997.6 mb 0.00 in0.0 mm 0.00 in0.0 mm 0.00 in0.0 mm
06:28 AM 42.1°F5.6°C 37.3°F2.9°C 83% 20.5 mph N33.0 kmh N 27.0 mph43.5 kmh 29.46 in997.6 mb 0.00 in0.0 mm 0.00 in0.0 mm 0.00 in0.0 mm
06:27 AM 42.2°F5.7°C 37.4°F3.0°C 83% 23.3 mph N37.5 kmh N 28.0 mph45.1 kmh 29.46 in997.6 mb 0.00 in0.0 mm 0.00 in0.0 mm 0.00 in0.0 mm
06:26 AM 42.2°F5.7°C 37.1°F2.8°C 82% 22.2 mph N35.7 kmh N 30.0 mph48.3 kmh 29.46 in997.6 mb 0.00 in0.0 mm 0.00 in0.0 mm 0.00 in0.0 mm
06:25 AM 42.2°F5.7°C 37.1°F2.8°C 82% 26.2 mph N42.2 kmh N 32.0 mph51.5 kmh 29.46 in997.6 mb 0.00 in0.0 mm 0.00 in0.0 mm 0.00 in0.0 mm
06:24 AM 42.2°F5.7°C 36.8°F2.7°C 81% 26.0 mph N41.8 kmh N 32.0 mph51.5 kmh 29.46 in997.6 mb 0.00 in0.0 mm 0.00 in0.0 mm 0.00 in0.0 mm
06:23 AM 42.3°F5.7°C 37.2°F2.9°C 82% 25.5 mph N41.0 kmh N 31.0 mph49.9 kmh 29.45 in997.3 mb 0.00 in0.0 mm 0.00 in0.0 mm 0.00 in0.0 mm
06:22 AM 42.3°F5.7°C 37.2°F2.9°C 82% 25.8 mph N41.5 kmh N 33.0 mph53.1 kmh 29.45 in997.3 mb 0.00 in0.0 mm 0.00 in0.0 mm 0.00 in0.0 mm
06:21 AM 42.3°F5.7°C 36.9°F2.7°C 81% 27.5 mph N44.3 kmh N 33.0 mph53.1 kmh 29.45 in997.3 mb 0.00 in0.0 mm 0.00 in0.0 mm 0.00 in0.0 mm
06:20 AM 42.4°F5.8°C 37.0°F2.8°C 81% 25.9 mph N41.7 kmh N 34.0 mph54.7 kmh 29.45 in997.3 mb 0.00 in0.0 mm 0.00 in0.0 mm 0.00 in0.0 mm
06:19 AM 42.5°F5.8°C 37.1°F2.8°C 81% 28.7 mph N46.2 kmh N 34.0 mph54.7 kmh 29.45 in997.3 mb 0.00 in0.0 mm 0.00 in0.0 mm 0.00 in0.0 mm
06:18 AM 42.5°F5.8°C 37.4°F3.0°C 82% 25.1 mph NNW40.4 kmh NNW 30.0 mph48.3 kmh 29.45 in997.3 mb 0.00 in0.0 mm 0.00 in0.0 mm 0.00 in0.0 mm
06:17 AM 42.5°F5.8°C 37.7°F3.2°C 83% 22.5 mph N36.2 kmh N 30.0 mph48.3 kmh 29.45 in997.3 mb 0.00 in0.0 mm 0.00 in0.0 mm 0.00 in0.0 mm
06:16 AM 42.5°F5.8°C 37.4°F3.0°C 82% 24.5 mph N39.4 kmh N 30.0 mph48.3 kmh 29.45 in997.3 mb 0.00 in0.0 mm 0.00 in0.0 mm 0.00 in0.0 mm
06:15 AM 42.5°F5.8°C 37.4°F3.0°C 82% 23.1 mph N37.2 kmh N 30.0 mph48.3 kmh 29.45 in997.3 mb 0.00 in0.0 mm 0.00 in0.0 mm 0.00 in0.0 mm
06:14 AM 42.5°F5.8°C 37.1°F2.8°C 81% 23.7 mph NNW38.1 kmh NNW 33.0 mph53.1 kmh 29.45 in997.3 mb 0.00 in0.0 mm 0.00 in0.0 mm 0.00 in0.0 mm
06:13 AM 42.5°F5.8°C 37.1°F2.8°C 81% 27.1 mph N43.6 kmh N 33.0 mph53.1 kmh 29.45 in997.3 mb 0.00 in0.0 mm 0.00 in0.0 mm 0.00 in0.0 mm
06:12 AM 42.6°F5.9°C 37.5°F3.1°C 82% 27.9 mph N44.9 kmh N 33.0 mph53.1 kmh 29.45 in997.3 mb 0.00 in0.0 mm 0.00 in0.0 mm 0.00 in0.0 mm
06:11 AM 42.6°F5.9°C 37.5°F3.1°C 82% 24.5 mph N39.4 kmh N 28.0 mph45.1 kmh 29.45 in997.3 mb 0.00 in0.0 mm 0.00 in0.0 mm 0.00 in0.0 mm
06:10 AM 42.6°F5.9°C 37.5°F3.1°C 82% 20.8 mph N33.5 kmh N 30.0 mph48.3 kmh 29.45 in997.3 mb 0.00 in0.0 mm 0.00 in0.0 mm 0.00 in0.0 mm
06:09 AM 42.6°F5.9°C 37.2°F2.9°C 81% 22.8 mph N36.7 kmh N 30.0 mph48.3 kmh 29.45 in997.3 mb 0.00 in0.0 mm 0.00 in0.0 mm 0.00 in0.0 mm
06:08 AM 42.7°F5.9°C 37.3°F2.9°C 81% 25.4 mph NNW40.9 kmh NNW 29.0 mph46.7 kmh 29.45 in997.3 mb 0.00 in0.0 mm 0.00 in0.0 mm 0.00 in0.0 mm
06:07 AM 42.7°F5.9°C 37.9°F3.3°C 83% 21.3 mph N34.3 kmh N 28.0 mph45.1 kmh 29.45 in997.3 mb 0.00 in0.0 mm 0.00 in0.0 mm 0.00 in0.0 mm
06:06 AM 42.6°F5.9°C 37.5°F3.1°C 82% 22.5 mph N36.2 kmh N 32.0 mph51.5 kmh 29.44 in997.0 mb 0.00 in0.0 mm 0.00 in0.0 mm 0.00 in0.0 mm
06:05 AM 42.6°F5.9°C 37.5°F3.1°C 82% 27.2 mph N43.8 kmh N 33.0 mph53.1 kmh 29.44 in997.0 mb 0.00 in0.0 mm 0.00 in0.0 mm 0.00 in0.0 mm
06:04 AM 42.6°F5.9°C 37.5°F3.1°C 82% 29.5 mph N47.5 kmh N 33.0 mph53.1 kmh 29.44 in997.0 mb 0.00 in0.0 mm 0.00 in0.0 mm 0.00 in0.0 mm
06:03 AM 42.6°F5.9°C 37.5°F3.1°C 82% 29.7 mph NNW47.8 kmh NNW 33.0 mph53.1 kmh 29.44 in997.0 mb 0.00 in0.0 mm 0.00 in0.0 mm 0.00 in0.0 mm
06:02 AM 42.6°F5.9°C 37.8°F3.2°C 83% 26.5 mph NNW42.6 kmh NNW 33.0 mph53.1 kmh 29.44 in997.0 mb 0.00 in0.0 mm 0.00 in0.0 mm 0.00 in0.0 mm
06:01 AM 42.6°F5.9°C 37.8°F3.2°C 83% 26.5 mph NNW42.6 kmh NNW 30.0 mph48.3 kmh 29.44 in997.0 mb 0.00 in0.0 mm 0.00 in0.0 mm 0.00 in0.0 mm
06:00 AM 42.5°F5.8°C 38.0°F3.3°C 84% 23.2 mph NNW37.3 kmh NNW 27.0 mph43.5 kmh 29.44 in997.0 mb 0.00 in0.0 mm 0.00 in0.0 mm 0.00 in0.0 mm
05:59 AM 42.5°F5.8°C 38.0°F3.3°C 84% 22.7 mph N36.5 kmh N 29.0 mph46.7 kmh 29.44 in997.0 mb 0.00 in0.0 mm 0.00 in0.0 mm 0.00 in0.0 mm
05:58 AM 42.4°F5.8°C 37.9°F3.3°C 84% 24.2 mph N38.9 kmh N 34.0 mph54.7 kmh 29.44 in997.0 mb 0.00 in0.0 mm 0.00 in0.0 mm 0.00 in0.0 mm
05:57 AM 42.4°F5.8°C 38.5°F3.6°C 86% 27.4 mph N44.1 kmh N 34.0 mph54.7 kmh 29.44 in997.0 mb 0.00 in0.0 mm 0.00 in0.0 mm 0.00 in0.0 mm
05:56 AM 42.4°F5.8°C 38.5°F3.6°C 86% 19.1 mph N30.7 kmh N 25.0 mph40.2 kmh 29.44 in997.0 mb 0.00 in0.0 mm 0.00 in0.0 mm 0.00 in0.0 mm
05:55 AM 42.4°F5.8°C 38.5°F3.6°C 86% 19.7 mph N31.7 kmh N 25.0 mph40.2 kmh 29.43 in996.6 mb 0.00 in0.0 mm 0.00 in0.0 mm 0.00 in0.0 mm
05:54 AM 42.3°F5.7°C 38.4°F3.6°C 86% 16.9 mph NNW27.2 kmh NNW 23.0 mph37.0 kmh 29.43 in996.6 mb 0.00 in0.0 mm 0.00 in0.0 mm 0.00 in0.0 mm
05:53 AM 42.2°F5.7°C 38.3°F3.5°C 86% 18.1 mph N29.1 kmh N 23.0 mph37.0 kmh 29.43 in996.6 mb 0.00 in0.0 mm 0.00 in0.0 mm 0.00 in0.0 mm
05:52 AM 42.2°F5.7°C 38.3°F3.5°C 86% 18.1 mph N29.1 kmh N 22.0 mph35.4 kmh 29.43 in996.6 mb 0.00 in0.0 mm 0.00 in0.0 mm 0.00 in0.0 mm
05:51 AM 42.2°F5.7°C 38.0°F3.3°C 85% 19.2 mph N30.9 kmh N 23.0 mph37.0 kmh 29.43 in996.6 mb 0.00 in0.0 mm 0.00 in0.0 mm 0.00 in0.0 mm
05:50 AM 42.3°F5.7°C 38.4°F3.6°C 86% 20.3 mph N32.7 kmh N 23.0 mph37.0 kmh 29.43 in996.6 mb 0.00 in0.0 mm 0.00 in0.0 mm 0.00 in0.0 mm
05:49 AM 42.3°F5.7°C 38.1°F3.4°C 85% 17.5 mph N28.2 kmh N 23.0 mph37.0 kmh 29.43 in996.6 mb 0.00 in0.0 mm 0.00 in0.0 mm 0.00 in0.0 mm
05:48 AM 42.3°F5.7°C 38.1°F3.4°C 85% 19.4 mph N31.2 kmh N 26.0 mph41.8 kmh 29.43 in996.6 mb 0.00 in0.0 mm 0.00 in0.0 mm 0.00 in0.0 mm
05:47 AM 42.4°F5.8°C 37.9°F3.3°C 84% 24.0 mph N38.6 kmh N 27.0 mph43.5 kmh 29.43 in996.6 mb 0.00 in0.0 mm 0.00 in0.0 mm 0.00 in0.0 mm
05:46 AM 42.5°F5.8°C 38.3°F3.5°C 85% 24.0 mph N38.6 kmh N 27.0 mph43.5 kmh 29.43 in996.6 mb 0.00 in0.0 mm 0.00 in0.0 mm 0.00 in0.0 mm
05:45 AM 42.6°F5.9°C 38.4°F3.6°C 85% 23.5 mph N37.8 kmh N 27.0 mph43.5 kmh 29.43 in996.6 mb 0.00 in0.0 mm 0.00 in0.0 mm 0.00 in0.0 mm
05:44 AM 42.7°F5.9°C 38.5°F3.6°C 85% 22.2 mph N35.7 kmh N 27.0 mph43.5 kmh 29.42 in996.3 mb 0.00 in0.0 mm 0.00 in0.0 mm 0.00 in0.0 mm
05:43 AM 42.7°F5.9°C 38.5°F3.6°C 85% 23.1 mph N37.2 kmh N 27.0 mph43.5 kmh 29.42 in996.3 mb 0.00 in0.0 mm 0.00 in0.0 mm 0.00 in0.0 mm
05:42 AM 42.8°F6.0°C 38.6°F3.7°C 85% 21.0 mph N33.8 kmh N 27.0 mph43.5 kmh 29.42 in996.3 mb 0.00 in0.0 mm 0.00 in0.0 mm 0.00 in0.0 mm
05:41 AM 42.8°F6.0°C 38.6°F3.7°C 85% 21.7 mph N34.9 kmh N 25.0 mph40.2 kmh 29.43 in996.6 mb 0.00 in0.0 mm 0.00 in0.0 mm 0.00 in0.0 mm
05:40 AM 42.8°F6.0°C 38.6°F3.7°C 85% 21.9 mph N35.2 kmh N 25.0 mph40.2 kmh 29.43 in996.6 mb 0.00 in0.0 mm 0.00 in0.0 mm 0.00 in0.0 mm
05:39 AM 42.9°F6.1°C 38.7°F3.7°C 85% 20.1 mph N32.3 kmh N 25.0 mph40.2 kmh 29.42 in996.3 mb 0.00 in0.0 mm 0.00 in0.0 mm 0.00 in0.0 mm
05:38 AM 42.9°F6.1°C 38.4°F3.6°C 84% 21.0 mph N33.8 kmh N 27.0 mph43.5 kmh 29.43 in996.6 mb 0.00 in0.0 mm 0.00 in0.0 mm 0.00 in0.0 mm
05:37 AM 43.0°F6.1°C 38.8°F3.8°C 85% 22.9 mph N36.9 kmh N 27.0 mph43.5 kmh 29.43 in996.6 mb 0.00 in0.0 mm 0.00 in0.0 mm 0.00 in0.0 mm
05:36 AM 43.0°F6.1°C 38.5°F3.6°C 84% 22.2 mph N35.7 kmh N 27.0 mph43.5 kmh 29.43 in996.6 mb 0.00 in0.0 mm 0.00 in0.0 mm 0.00 in0.0 mm
05:35 AM 43.0°F6.1°C 38.5°F3.6°C 84% 21.4 mph N34.4 kmh N 26.0 mph41.8 kmh 29.43 in996.6 mb 0.00 in0.0 mm 0.00 in0.0 mm 0.00 in0.0 mm
05:34 AM 43.1°F6.2°C 38.3°F3.5°C 83% 21.5 mph N34.6 kmh N 34.0 mph54.7 kmh 29.43 in996.6 mb 0.00 in0.0 mm 0.00 in0.0 mm 0.00 in0.0 mm
05:33 AM 43.3°F6.3°C 38.2°F3.4°C 82% 25.8 mph N41.5 kmh N 34.0 mph54.7 kmh 29.43 in996.6 mb 0.00 in0.0 mm 0.00 in0.0 mm 0.00 in0.0 mm
05:32 AM 43.4°F6.3°C 38.3°F3.5°C 82% 27.5 mph N44.3 kmh N 33.0 mph53.1 kmh 29.43 in996.6 mb 0.00 in0.0 mm 0.00 in0.0 mm 0.00 in0.0 mm
05:31 AM 43.5°F6.4°C 38.7°F3.7°C 83% 22.8 mph N36.7 kmh N 27.0 mph43.5 kmh 29.42 in996.3 mb 0.00 in0.0 mm 0.00 in0.0 mm 0.00 in0.0 mm
05:30 AM 43.5°F6.4°C 38.4°F3.6°C 82% 21.1 mph N34.0 kmh N 25.0 mph40.2 kmh 29.42 in996.3 mb 0.00 in0.0 mm 0.00 in0.0 mm 0.00 in0.0 mm
05:29 AM 43.5°F6.4°C 38.4°F3.6°C 82% 20.5 mph N33.0 kmh N 24.0 mph38.6 kmh 29.42 in996.3 mb 0.00 in0.0 mm 0.00 in0.0 mm 0.00 in0.0 mm
05:28 AM 43.6°F6.4°C 38.5°F3.6°C 82% 19.6 mph N31.5 kmh N 26.0 mph41.8 kmh 29.42 in996.3 mb 0.00 in0.0 mm 0.00 in0.0 mm 0.00 in0.0 mm
05:27 AM 43.6°F6.4°C 38.8°F3.8°C 83% 21.8 mph N35.1 kmh N 26.0 mph41.8 kmh 29.42 in996.3 mb 0.00 in0.0 mm 0.00 in0.0 mm 0.00 in0.0 mm
05:26 AM 43.7°F6.5°C 38.9°F3.8°C 83% 18.8 mph N30.3 kmh N 24.0 mph38.6 kmh 29.42 in996.3 mb 0.00 in0.0 mm 0.00 in0.0 mm 0.00 in0.0 mm
05:25 AM 43.8°F6.6°C 39.0°F3.9°C 83% 19.1 mph N30.7 kmh N 23.0 mph37.0 kmh 29.41 in995.9 mb 0.00 in0.0 mm 0.00 in0.0 mm 0.00 in0.0 mm
05:24 AM 43.7°F6.5°C 38.6°F3.7°C 82% 20.1 mph N32.3 kmh N 24.0 mph38.6 kmh 29.41 in995.9 mb 0.00 in0.0 mm 0.00 in0.0 mm 0.00 in0.0 mm
05:23 AM 43.9°F6.6°C 38.8°F3.8°C 82% 20.5 mph N33.0 kmh N 24.0 mph38.6 kmh 29.41 in995.9 mb 0.00 in0.0 mm 0.00 in0.0 mm 0.00 in0.0 mm
05:22 AM 43.9°F6.6°C 38.5°F3.6°C 81% 19.7 mph N31.7 kmh N 27.0 mph43.5 kmh 29.41 in995.9 mb 0.00 in0.0 mm 0.00 in0.0 mm 0.00 in0.0 mm
05:21 AM 44.0°F6.7°C 38.9°F3.8°C 82% 23.3 mph N37.5 kmh N 27.0 mph43.5 kmh 29.41 in995.9 mb 0.00 in0.0 mm 0.00 in0.0 mm 0.00 in0.0 mm
05:20 AM 44.0°F6.7°C 38.9°F3.8°C 82% 22.0 mph N35.4 kmh N 27.0 mph43.5 kmh 29.41 in995.9 mb 0.00 in0.0 mm 0.00 in0.0 mm 0.00 in0.0 mm
05:19 AM 44.1°F6.7°C 38.6°F3.7°C 81% 22.9 mph N36.9 kmh N 26.0 mph41.8 kmh 29.41 in995.9 mb 0.00 in0.0 mm 0.00 in0.0 mm 0.00 in0.0 mm
05:18 AM 44.2°F6.8°C 38.7°F3.7°C 81% 22.0 mph N35.4 kmh N 28.0 mph45.1 kmh 29.41 in995.9 mb 0.00 in0.0 mm 0.00 in0.0 mm 0.00 in0.0 mm
05:17 AM 44.3°F6.8°C 38.8°F3.8°C 81% 23.9 mph N38.5 kmh N 28.0 mph45.1 kmh 29.41 in995.9 mb 0.00 in0.0 mm 0.00 in0.0 mm 0.00 in0.0 mm
05:16 AM 44.5°F6.9°C 38.7°F3.7°C 80% 22.7 mph N36.5 kmh N 26.0 mph41.8 kmh 29.40 in995.6 mb 0.00 in0.0 mm 0.00 in0.0 mm 0.00 in0.0 mm
05:15 AM 44.6°F7.0°C 38.8°F3.8°C 80% 19.9 mph N32.0 kmh N 25.0 mph40.2 kmh 29.40 in995.6 mb 0.00 in0.0 mm 0.00 in0.0 mm 0.00 in0.0 mm
05:14 AM 44.8°F7.1°C 39.0°F3.9°C 80% 20.4 mph N32.8 kmh N 27.0 mph43.5 kmh 29.40 in995.6 mb 0.00 in0.0 mm 0.00 in0.0 mm 0.00 in0.0 mm
05:13 AM 44.9°F7.2°C 38.8°F3.8°C 79% 23.5 mph N37.8 kmh N 27.0 mph43.5 kmh 29.40 in995.6 mb 0.00 in0.0 mm 0.00 in0.0 mm 0.00 in0.0 mm
05:12 AM 45.2°F7.3°C 39.1°F3.9°C 79% 22.2 mph N35.7 kmh N 27.0 mph43.5 kmh 29.40 in995.6 mb 0.00 in0.0 mm 0.00 in0.0 mm 0.00 in0.0 mm
05:11 AM 45.4°F7.4°C 38.6°F3.7°C 77% 22.8 mph N36.7 kmh N 26.0 mph41.8 kmh 29.41 in995.9 mb 0.00 in0.0 mm 0.00 in0.0 mm 0.00 in0.0 mm
05:10 AM 45.4°F7.4°C 38.6°F3.7°C 77% 22.9 mph NNW36.9 kmh NNW 26.0 mph41.8 kmh 29.40 in995.6 mb 0.00 in0.0 mm 0.00 in0.0 mm 0.00 in0.0 mm
05:09 AM 45.5°F7.5°C 38.4°F3.6°C 76% 22.6 mph NNW36.4 kmh NNW 25.0 mph40.2 kmh 29.40 in995.6 mb 0.00 in0.0 mm 0.00 in0.0 mm 0.00 in0.0 mm
05:08 AM 45.5°F7.5°C 38.0°F3.3°C 75% 22.9 mph NNW36.9 kmh NNW 25.0 mph40.2 kmh 29.40 in995.6 mb 0.00 in0.0 mm 0.00 in0.0 mm 0.00 in0.0 mm
05:07 AM 45.6°F7.6°C 38.5°F3.6°C 76% 21.8 mph NW35.1 kmh NW 32.0 mph51.5 kmh 29.40 in995.6 mb 0.00 in0.0 mm 0.00 in0.0 mm 0.00 in0.0 mm
05:06 AM 45.6°F7.6°C 37.8°F3.2°C 74% 26.7 mph NW43.0 kmh NW 32.0 mph51.5 kmh 29.40 in995.6 mb 0.00 in0.0 mm 0.00 in0.0 mm 0.00 in0.0 mm
05:05 AM 45.6°F7.6°C 37.8°F3.2°C 74% 23.4 mph NW37.7 kmh NW 28.0 mph45.1 kmh 29.40 in995.6 mb 0.00 in0.0 mm 0.00 in0.0 mm 0.00 in0.0 mm
05:04 AM 45.6°F7.6°C 37.8°F3.2°C 74% 25.4 mph NW40.9 kmh NW 28.0 mph45.1 kmh 29.40 in995.6 mb 0.00 in0.0 mm 0.00 in0.0 mm 0.00 in0.0 mm
05:03 AM 45.6°F7.6°C 37.8°F3.2°C 74% 24.5 mph NW39.4 kmh NW 32.0 mph51.5 kmh 29.40 in995.6 mb 0.00 in0.0 mm 0.00 in0.0 mm 0.00 in0.0 mm
05:02 AM 45.6°F7.6°C 37.5°F3.1°C 73% 25.4 mph NW40.9 kmh NW 32.0 mph51.5 kmh 29.39 in995.3 mb 0.00 in0.0 mm 0.00 in0.0 mm 0.00 in0.0 mm
05:01 AM 45.5°F7.5°C 37.7°F3.2°C 74% 25.6 mph NW41.2 kmh NW 30.0 mph48.3 kmh 29.39 in995.3 mb 0.00 in0.0 mm 0.00 in0.0 mm 0.00 in0.0 mm
05:00 AM 45.5°F7.5°C 38.0°F3.3°C 75% 23.9 mph NW38.5 kmh NW 27.0 mph43.5 kmh 29.39 in995.3 mb 0.00 in0.0 mm 0.00 in0.0 mm 0.00 in0.0 mm
04:59 AM 45.5°F7.5°C 38.0°F3.3°C 75% 22.2 mph NW35.7 kmh NW 26.0 mph41.8 kmh 29.39 in995.3 mb 0.00 in0.0 mm 0.00 in0.0 mm 0.00 in0.0 mm
04:58 AM 45.5°F7.5°C 38.0°F3.3°C 75% 22.9 mph NW36.9 kmh NW 26.0 mph41.8 kmh 29.39 in995.3 mb 0.00 in0.0 mm 0.00 in0.0 mm 0.00 in0.0 mm
04:57 AM 45.6°F7.6°C 38.1°F3.4°C 75% 21.3 mph NW34.3 kmh NW 28.0 mph45.1 kmh 29.39 in995.3 mb 0.00 in0.0 mm 0.00 in0.0 mm 0.00 in0.0 mm
04:56 AM 45.6°F7.6°C 37.8°F3.2°C 74% 24.7 mph NW39.8 kmh NW 28.0 mph45.1 kmh 29.39 in995.3 mb 0.00 in0.0 mm 0.00 in0.0 mm 0.00 in0.0 mm
04:55 AM 45.6°F7.6°C 38.1°F3.4°C 75% 22.4 mph NW36.0 kmh NW 28.0 mph45.1 kmh 29.39 in995.3 mb 0.00 in0.0 mm 0.00 in0.0 mm 0.00 in0.0 mm
04:54 AM 45.7°F7.6°C 37.9°F3.3°C 74% 24.5 mph NW39.4 kmh NW 28.0 mph45.1 kmh 29.39 in995.3 mb 0.00 in0.0 mm 0.00 in0.0 mm 0.00 in0.0 mm
04:53 AM 45.7°F7.6°C 37.9°F3.3°C 74% 24.0 mph NW38.6 kmh NW 27.0 mph43.5 kmh 29.39 in995.3 mb 0.00 in0.0 mm 0.00 in0.0 mm 0.00 in0.0 mm
04:52 AM 45.7°F7.6°C 37.5°F3.1°C 73% 22.4 mph NW36.0 kmh NW 33.0 mph53.1 kmh 29.39 in995.3 mb 0.00 in0.0 mm 0.00 in0.0 mm 0.00 in0.0 mm
04:51 AM 45.6°F7.6°C 37.5°F3.1°C 73% 28.2 mph NW45.4 kmh NW 33.0 mph53.1 kmh 29.39 in995.3 mb 0.00 in0.0 mm 0.00 in0.0 mm 0.00 in0.0 mm
04:50 AM 45.6°F7.6°C 37.5°F3.1°C 73% 24.7 mph NW39.8 kmh NW 28.0 mph45.1 kmh 29.39 in995.3 mb 0.00 in0.0 mm 0.00 in0.0 mm 0.00 in0.0 mm
04:49 AM 45.6°F7.6°C 38.1°F3.4°C 75% 23.6 mph NW38.0 kmh NW 29.0 mph46.7 kmh 29.39 in995.3 mb 0.00 in0.0 mm 0.00 in0.0 mm 0.00 in0.0 mm
04:48 AM 45.5°F7.5°C 37.4°F3.0°C 73% 24.4 mph NW39.3 kmh NW 29.0 mph46.7 kmh 29.39 in995.3 mb 0.00 in0.0 mm 0.00 in0.0 mm 0.00 in0.0 mm
04:47 AM 45.4°F7.4°C 38.3°F3.5°C 76% 25.7 mph NW41.4 kmh NW 29.0 mph46.7 kmh 29.39 in995.3 mb 0.00 in0.0 mm 0.00 in0.0 mm 0.00 in0.0 mm
04:46 AM 45.5°F7.5°C 38.4°F3.6°C 76% 20.5 mph NW33.0 kmh NW 24.0 mph38.6 kmh 29.39 in995.3 mb 0.00 in0.0 mm 0.00 in0.0 mm 0.00 in0.0 mm
04:45 AM 45.5°F7.5°C 37.7°F3.2°C 74% 21.4 mph NW34.4 kmh NW 24.0 mph38.6 kmh 29.39 in995.3 mb 0.00 in0.0 mm 0.00 in0.0 mm 0.00 in0.0 mm
04:44 AM 45.5°F7.5°C 38.4°F3.6°C 76% 21.4 mph NW34.4 kmh NW 25.0 mph40.2 kmh 29.39 in995.3 mb 0.00 in0.0 mm 0.00 in0.0 mm 0.00 in0.0 mm
04:43 AM 45.5°F7.5°C 37.7°F3.2°C 74% 23.1 mph NW37.2 kmh NW 25.0 mph40.2 kmh 29.39 in995.3 mb 0.00 in0.0 mm 0.00 in0.0 mm 0.00 in0.0 mm
04:42 AM 45.5°F7.5°C 37.7°F3.2°C 74% 23.4 mph NW37.7 kmh NW 28.0 mph45.1 kmh 29.39 in995.3 mb 0.00 in0.0 mm 0.00 in0.0 mm 0.00 in0.0 mm
04:41 AM 45.5°F7.5°C 38.0°F3.3°C 75% 25.0 mph NW40.2 kmh NW 28.0 mph45.1 kmh 29.38 in994.9 mb 0.00 in0.0 mm 0.00 in0.0 mm 0.00 in0.0 mm
04:40 AM 45.5°F7.5°C 38.0°F3.3°C 75% 22.5 mph NW36.2 kmh NW 26.0 mph41.8 kmh 29.38 in994.9 mb 0.00 in0.0 mm 0.00 in0.0 mm 0.00 in0.0 mm
04:39 AM 45.4°F7.4°C 37.9°F3.3°C 75% 23.7 mph NW38.1 kmh NW 26.0 mph41.8 kmh 29.38 in994.9 mb 0.00 in0.0 mm 0.00 in0.0 mm 0.00 in0.0 mm
04:38 AM 45.4°F7.4°C 38.3°F3.5°C 76% 21.6 mph NW34.8 kmh NW 26.0 mph41.8 kmh 29.38 in994.9 mb 0.00 in0.0 mm 0.00 in0.0 mm 0.00 in0.0 mm
04:37 AM 45.4°F7.4°C 38.3°F3.5°C 76% 20.9 mph NW33.6 kmh NW 26.0 mph41.8 kmh 29.38 in994.9 mb 0.00 in0.0 mm 0.00 in0.0 mm 0.00 in0.0 mm
04:36 AM 45.4°F7.4°C 38.3°F3.5°C 76% 24.0 mph NW38.6 kmh NW 26.0 mph41.8 kmh 29.38 in994.9 mb 0.00 in0.0 mm 0.00 in0.0 mm 0.00 in0.0 mm
04:35 AM 45.4°F7.4°C 38.3°F3.5°C 76% 23.1 mph NW37.2 kmh NW 25.0 mph40.2 kmh 29.38 in994.9 mb 0.00 in0.0 mm 0.00 in0.0 mm 0.00 in0.0 mm
04:34 AM 45.4°F7.4°C 38.3°F3.5°C 76% 20.9 mph NW33.6 kmh NW 25.0 mph40.2 kmh 29.38 in994.9 mb 0.00 in0.0 mm 0.00 in0.0 mm 0.00 in0.0 mm
04:33 AM 45.5°F7.5°C 38.0°F3.3°C 75% 22.5 mph NW36.2 kmh NW 25.0 mph40.2 kmh 29.38 in994.9 mb 0.00 in0.0 mm 0.00 in0.0 mm 0.00 in0.0 mm
04:32 AM 45.5°F7.5°C 38.4°F3.6°C 76% 21.5 mph NW34.6 kmh NW 25.0 mph40.2 kmh 29.38 in994.9 mb 0.00 in0.0 mm 0.00 in0.0 mm 0.00 in0.0 mm
04:31 AM 45.5°F7.5°C 38.4°F3.6°C 76% 21.6 mph NW34.8 kmh NW 29.0 mph46.7 kmh 29.38 in994.9 mb 0.00 in0.0 mm 0.00 in0.0 mm 0.00 in0.0 mm
04:30 AM 45.5°F7.5°C 38.4°F3.6°C 76% 24.9 mph NW40.1 kmh NW 29.0 mph46.7 kmh 29.38 in994.9 mb 0.00 in0.0 mm 0.00 in0.0 mm 0.00 in0.0 mm
04:29 AM 45.5°F7.5°C 38.4°F3.6°C 76% 21.6 mph NW34.8 kmh NW 28.0 mph45.1 kmh 29.38 in994.9 mb 0.00 in0.0 mm 0.00 in0.0 mm 0.00 in0.0 mm
04:28 AM 45.5°F7.5°C 38.4°F3.6°C 76% 23.6 mph NW38.0 kmh NW 28.0 mph45.1 kmh 29.38 in994.9 mb 0.00 in0.0 mm 0.00 in0.0 mm 0.00 in0.0 mm
04:27 AM 45.5°F7.5°C 38.4°F3.6°C 76% 20.9 mph NW33.6 kmh NW 25.0 mph40.2 kmh 29.38 in994.9 mb 0.00 in0.0 mm 0.00 in0.0 mm 0.00 in0.0 mm
04:26 AM 45.5°F7.5°C 38.4°F3.6°C 76% 22.3 mph NW35.9 kmh NW 25.0 mph40.2 kmh 29.38 in994.9 mb 0.00 in0.0 mm 0.00 in0.0 mm 0.00 in0.0 mm
04:25 AM 45.6°F7.6°C 38.5°F3.6°C 76% 21.7 mph NW34.9 kmh NW 28.0 mph45.1 kmh 29.38 in994.9 mb 0.00 in0.0 mm 0.00 in0.0 mm 0.00 in0.0 mm
04:24 AM 45.6°F7.6°C 38.1°F3.4°C 75% 23.1 mph NW37.2 kmh NW 28.0 mph45.1 kmh 29.38 in994.9 mb 0.00 in0.0 mm 0.00 in0.0 mm 0.00 in0.0 mm
04:23 AM 45.6°F7.6°C 38.5°F3.6°C 76% 24.9 mph NW40.1 kmh NW 28.0 mph45.1 kmh 29.37 in994.6 mb 0.00 in0.0 mm 0.00 in0.0 mm 0.00 in0.0 mm
04:22 AM 45.6°F7.6°C 38.1°F3.4°C 75% 23.7 mph NW38.1 kmh NW 27.0 mph43.5 kmh 29.37 in994.6 mb 0.00 in0.0 mm 0.00 in0.0 mm 0.00 in0.0 mm
04:21 AM 45.6°F7.6°C 38.5°F3.6°C 76% 24.4 mph NW39.3 kmh NW 28.0 mph45.1 kmh 29.38 in994.9 mb 0.00 in0.0 mm 0.00 in0.0 mm 0.00 in0.0 mm
04:20 AM 45.7°F7.6°C 38.2°F3.4°C 75% 24.4 mph NW39.3 kmh NW 31.0 mph49.9 kmh 29.38 in994.9 mb 0.00 in0.0 mm 0.00 in0.0 mm 0.00 in0.0 mm
04:19 AM 45.7°F7.6°C 38.2°F3.4°C 75% 25.5 mph NW41.0 kmh NW 31.0 mph49.9 kmh 29.38 in994.9 mb 0.00 in0.0 mm 0.00 in0.0 mm 0.00 in0.0 mm
04:18 AM 45.7°F7.6°C 38.2°F3.4°C 75% 24.2 mph NW38.9 kmh NW 28.0 mph45.1 kmh 29.38 in994.9 mb 0.00 in0.0 mm 0.00 in0.0 mm 0.00 in0.0 mm
04:17 AM 45.7°F7.6°C 37.9°F3.3°C 74% 25.1 mph NW40.4 kmh NW 28.0 mph45.1 kmh 29.38 in994.9 mb 0.00 in0.0 mm 0.00 in0.0 mm 0.00 in0.0 mm
04:16 AM 45.7°F7.6°C 38.2°F3.4°C 75% 26.0 mph NW41.8 kmh NW 30.0 mph48.3 kmh 29.37 in994.6 mb 0.00 in0.0 mm 0.00 in0.0 mm 0.00 in0.0 mm
04:15 AM 45.8°F7.7°C 38.7°F3.7°C 76% 26.2 mph NW42.2 kmh NW 30.0 mph48.3 kmh 29.37 in994.6 mb 0.00 in0.0 mm 0.00 in0.0 mm 0.00 in0.0 mm
04:14 AM 45.8°F7.7°C 38.3°F3.5°C 75% 27.6 mph NW44.4 kmh NW 31.0 mph49.9 kmh 29.37 in994.6 mb 0.00 in0.0 mm 0.00 in0.0 mm 0.00 in0.0 mm
04:13 AM 45.7°F7.6°C 38.2°F3.4°C 75% 27.4 mph NW44.1 kmh NW 31.0 mph49.9 kmh 29.37 in994.6 mb 0.00 in0.0 mm 0.00 in0.0 mm 0.00 in0.0 mm
04:12 AM 45.7°F7.6°C 38.2°F3.4°C 75% 25.9 mph NW41.7 kmh NW 31.0 mph49.9 kmh 29.37 in994.6 mb 0.00 in0.0 mm 0.00 in0.0 mm 0.00 in0.0 mm
04:11 AM 45.7°F7.6°C 38.2°F3.4°C 75% 25.1 mph NW40.4 kmh NW 31.0 mph49.9 kmh 29.37 in994.6 mb 0.00 in0.0 mm 0.00 in0.0 mm 0.00 in0.0 mm
04:10 AM 45.7°F7.6°C 38.2°F3.4°C 75% 28.1 mph NW45.2 kmh NW 31.0 mph49.9 kmh 29.37 in994.6 mb 0.00 in0.0 mm 0.00 in0.0 mm 0.00 in0.0 mm
04:09 AM 45.7°F7.6°C 38.6°F3.7°C 76% 25.1 mph NW40.4 kmh NW 31.0 mph49.9 kmh 29.37 in994.6 mb 0.00 in0.0 mm 0.00 in0.0 mm 0.00 in0.0 mm
04:08 AM 45.6°F7.6°C 38.8°F3.8°C 77% 25.4 mph NW40.9 kmh NW 31.0 mph49.9 kmh 29.37 in994.6 mb 0.00 in0.0 mm 0.00 in0.0 mm 0.00 in0.0 mm
04:07 AM 45.7°F7.6°C 38.6°F3.7°C 76% 24.9 mph NW40.1 kmh NW 31.0 mph49.9 kmh 29.37 in994.6 mb 0.00 in0.0 mm 0.00 in0.0 mm 0.00 in0.0 mm
04:06 AM 45.7°F7.6°C 38.2°F3.4°C 75% 24.5 mph NW39.4 kmh NW 29.0 mph46.7 kmh 29.37 in994.6 mb 0.00 in0.0 mm 0.00 in0.0 mm 0.00 in0.0 mm
04:05 AM 45.6°F7.6°C 38.5°F3.6°C 76% 23.9 mph NW38.5 kmh NW 28.0 mph45.1 kmh 29.37 in994.6 mb 0.00 in0.0 mm 0.00 in0.0 mm 0.00 in0.0 mm
04:04 AM 45.7°F7.6°C 38.6°F3.7°C 76% 24.3 mph NW39.1 kmh NW 29.0 mph46.7 kmh 29.37 in994.6 mb 0.00 in0.0 mm 0.00 in0.0 mm 0.00 in0.0 mm
04:03 AM 45.7°F7.6°C 38.6°F3.7°C 76% 25.1 mph NW40.4 kmh NW 29.0 mph46.7 kmh 29.37 in994.6 mb 0.00 in0.0 mm 0.00 in0.0 mm 0.00 in0.0 mm
04:02 AM 45.6°F7.6°C 38.5°F3.6°C 76% 23.5 mph NW37.8 kmh NW 28.0 mph45.1 kmh 29.37 in994.6 mb 0.00 in0.0 mm 0.00 in0.0 mm 0.00 in0.0 mm
04:01 AM 45.7°F7.6°C 38.9°F3.8°C 77% 23.5 mph NW37.8 kmh NW 27.0 mph43.5 kmh 29.37 in994.6 mb 0.00 in0.0 mm 0.00 in0.0 mm 0.00 in0.0 mm
04:00 AM 45.7°F7.6°C 38.6°F3.7°C 76% 23.4 mph NW37.7 kmh NW 28.0 mph45.1 kmh 29.37 in994.6 mb 0.00 in0.0 mm 0.00 in0.0 mm 0.00 in0.0 mm
03:59 AM 45.7°F7.6°C 38.9°F3.8°C 77% 25.4 mph NW40.9 kmh NW 28.0 mph45.1 kmh 29.37 in994.6 mb 0.00 in0.0 mm 0.00 in0.0 mm 0.00 in0.0 mm
03:58 AM 45.7°F7.6°C 38.9°F3.8°C 77% 24.4 mph NW39.3 kmh NW 27.0 mph43.5 kmh 29.37 in994.6 mb 0.00 in0.0 mm 0.00 in0.0 mm 0.00 in0.0 mm
03:57 AM 45.7°F7.6°C 38.9°F3.8°C 77% 23.1 mph NW37.2 kmh NW 28.0 mph45.1 kmh 29.37 in994.6 mb 0.00 in0.0 mm 0.00 in0.0 mm 0.00 in0.0 mm
03:56 AM 45.6°F7.6°C 38.8°F3.8°C 77% 25.1 mph NW40.4 kmh NW 28.0 mph45.1 kmh 29.37 in994.6 mb 0.00 in0.0 mm 0.00 in0.0 mm 0.00 in0.0 mm
03:55 AM 45.5°F7.5°C 39.0°F3.9°C 78% 25.1 mph NW40.4 kmh NW 28.0 mph45.1 kmh 29.36 in994.2 mb 0.00 in0.0 mm 0.00 in0.0 mm 0.00 in0.0 mm
03:54 AM 45.4°F7.4°C 38.9°F3.8°C 78% 20.7 mph NW33.3 kmh NW 25.0 mph40.2 kmh 29.37 in994.6 mb 0.00 in0.0 mm 0.00 in0.0 mm 0.00 in0.0 mm
03:53 AM 45.4°F7.4°C 38.9°F3.8°C 78% 20.5 mph NW33.0 kmh NW 25.0 mph40.2 kmh 29.37 in994.6 mb 0.00 in0.0 mm 0.00 in0.0 mm 0.00 in0.0 mm
03:52 AM 45.4°F7.4°C 39.3°F4.1°C 79% 20.8 mph NW33.5 kmh NW 23.0 mph37.0 kmh 29.36 in994.2 mb 0.00 in0.0 mm 0.00 in0.0 mm 0.00 in0.0 mm
03:51 AM 45.4°F7.4°C 39.3°F4.1°C 79% 19.3 mph NW31.1 kmh NW 22.0 mph35.4 kmh 29.37 in994.6 mb 0.00 in0.0 mm 0.00 in0.0 mm 0.00 in0.0 mm
03:50 AM 45.5°F7.5°C 39.4°F4.1°C 79% 19.5 mph NW31.4 kmh NW 23.0 mph37.0 kmh 29.37 in994.6 mb 0.00 in0.0 mm 0.00 in0.0 mm 0.00 in0.0 mm
03:49 AM 45.5°F7.5°C 39.4°F4.1°C 79% 20.1 mph NW32.3 kmh NW 23.0 mph37.0 kmh 29.36 in994.2 mb 0.00 in0.0 mm 0.00 in0.0 mm 0.00 in0.0 mm
03:48 AM 45.6°F7.6°C 39.5°F4.2°C 79% 20.5 mph NW33.0 kmh NW 23.0 mph37.0 kmh 29.36 in994.2 mb 0.00 in0.0 mm 0.00 in0.0 mm 0.00 in0.0 mm
03:47 AM 45.6°F7.6°C 39.1°F3.9°C 78% 21.5 mph NW34.6 kmh NW 25.0 mph40.2 kmh 29.37 in994.6 mb 0.00 in0.0 mm 0.00 in0.0 mm 0.00 in0.0 mm
03:46 AM 45.6°F7.6°C 39.1°F3.9°C 78% 23.0 mph NW37.0 kmh NW 25.0 mph40.2 kmh 29.37 in994.6 mb 0.00 in0.0 mm 0.00 in0.0 mm 0.00 in0.0 mm
03:45 AM 45.6°F7.6°C 39.1°F3.9°C 78% 22.6 mph NW36.4 kmh NW 26.0 mph41.8 kmh 29.36 in994.2 mb 0.00 in0.0 mm 0.00 in0.0 mm 0.00 in0.0 mm
03:44 AM 45.5°F7.5°C 39.4°F4.1°C 79% 21.8 mph NW35.1 kmh NW 26.0 mph41.8 kmh 29.36 in994.2 mb 0.00 in0.0 mm 0.00 in0.0 mm 0.00 in0.0 mm
03:43 AM 45.5°F7.5°C 39.0°F3.9°C 78% 21.3 mph NW34.3 kmh NW 23.0 mph37.0 kmh 29.36 in994.2 mb 0.00 in0.0 mm 0.00 in0.0 mm 0.00 in0.0 mm
03:42 AM 45.5°F7.5°C 39.0°F3.9°C 78% 21.0 mph NW33.8 kmh NW 24.0 mph38.6 kmh 29.36 in994.2 mb 0.00 in0.0 mm 0.00 in0.0 mm 0.00 in0.0 mm
03:41 AM 45.5°F7.5°C 39.4°F4.1°C 79% 20.7 mph NW33.3 kmh NW 24.0 mph38.6 kmh 29.36 in994.2 mb 0.00 in0.0 mm 0.00 in0.0 mm 0.00 in0.0 mm
03:40 AM 45.5°F7.5°C 39.4°F4.1°C 79% 19.2 mph NW30.9 kmh NW 22.0 mph35.4 kmh 29.36 in994.2 mb 0.00 in0.0 mm 0.00 in0.0 mm 0.00 in0.0 mm
03:39 AM 45.5°F7.5°C 39.7°F4.3°C 80% 17.9 mph NW28.8 kmh NW 20.0 mph32.2 kmh 29.36 in994.2 mb 0.00 in0.0 mm 0.00 in0.0 mm 0.00 in0.0 mm
03:38 AM 45.5°F7.5°C 39.7°F4.3°C 80% 18.8 mph NW30.3 kmh NW 23.0 mph37.0 kmh 29.36 in994.2 mb 0.00 in0.0 mm 0.00 in0.0 mm 0.00 in0.0 mm
03:37 AM 45.6°F7.6°C 39.5°F4.2°C 79% 20.5 mph NW33.0 kmh NW 23.0 mph37.0 kmh 29.36 in994.2 mb 0.00 in0.0 mm 0.00 in0.0 mm 0.00 in0.0 mm
03:36 AM 45.6°F7.6°C 39.5°F4.2°C 79% 18.9 mph NW30.4 kmh NW 23.0 mph37.0 kmh 29.36 in994.2 mb 0.00 in0.0 mm 0.00 in0.0 mm 0.00 in0.0 mm
03:35 AM 45.6°F7.6°C 39.5°F4.2°C 79% 20.1 mph NW32.3 kmh NW 25.0 mph40.2 kmh 29.36 in994.2 mb 0.00 in0.0 mm 0.00 in0.0 mm 0.00 in0.0 mm
03:34 AM 45.5°F7.5°C 39.7°F4.3°C 80% 20.1 mph NW32.3 kmh NW 25.0 mph40.2 kmh 29.36 in994.2 mb 0.00 in0.0 mm 0.00 in0.0 mm 0.00 in0.0 mm
03:33 AM 45.6°F7.6°C 39.5°F4.2°C 79% 19.5 mph NW31.4 kmh NW 24.0 mph38.6 kmh 29.36 in994.2 mb 0.00 in0.0 mm 0.00 in0.0 mm 0.00 in0.0 mm
03:32 AM 45.6°F7.6°C 39.8°F4.3°C 80% 19.4 mph NW31.2 kmh NW 22.0 mph35.4 kmh 29.36 in994.2 mb 0.00 in0.0 mm 0.00 in0.0 mm 0.00 in0.0 mm
03:31 AM 45.6°F7.6°C 39.8°F4.3°C 80% 19.5 mph NW31.4 kmh NW 24.0 mph38.6 kmh 29.36 in994.2 mb 0.00 in0.0 mm 0.00 in0.0 mm 0.00 in0.0 mm
03:30 AM 45.6°F7.6°C 39.8°F4.3°C 80% 21.1 mph NW34.0 kmh NW 24.0 mph38.6 kmh 29.36 in994.2 mb 0.00 in0.0 mm 0.00 in0.0 mm 0.00 in0.0 mm
03:29 AM 45.5°F7.5°C 39.7°F4.3°C 80% 18.7 mph NW30.1 kmh NW 22.0 mph35.4 kmh 29.36 in994.2 mb 0.00 in0.0 mm 0.00 in0.0 mm 0.00 in0.0 mm
03:28 AM 45.6°F7.6°C 39.8°F4.3°C 80% 19.8 mph NW31.9 kmh NW 22.0 mph35.4 kmh 29.36 in994.2 mb 0.00 in0.0 mm 0.00 in0.0 mm 0.00 in0.0 mm
03:27 AM 45.6°F7.6°C 39.8°F4.3°C 80% 19.1 mph NW30.7 kmh NW 23.0 mph37.0 kmh 29.36 in994.2 mb 0.00 in0.0 mm 0.00 in0.0 mm 0.00 in0.0 mm
03:26 AM 45.5°F7.5°C 39.7°F4.3°C 80% 19.7 mph NW31.7 kmh NW 23.0 mph37.0 kmh 29.36 in994.2 mb 0.00 in0.0 mm 0.00 in0.0 mm 0.00 in0.0 mm
03:25 AM 45.5°F7.5°C 40.0°F4.4°C 81% 19.2 mph NW30.9 kmh NW 21.0 mph33.8 kmh 29.36 in994.2 mb 0.00 in0.0 mm 0.00 in0.0 mm 0.00 in0.0 mm
03:24 AM 45.5°F7.5°C 40.0°F4.4°C 81% 17.4 mph NW28.0 kmh NW 21.0 mph33.8 kmh 29.36 in994.2 mb 0.00 in0.0 mm 0.00 in0.0 mm 0.00 in0.0 mm
03:23 AM 45.6°F7.6°C 40.1°F4.5°C 81% 18.3 mph NW29.5 kmh NW 21.0 mph33.8 kmh 29.36 in994.2 mb 0.00 in0.0 mm 0.00 in0.0 mm 0.00 in0.0 mm
03:22 AM 45.6°F7.6°C 39.8°F4.3°C 80% 18.7 mph NW30.1 kmh NW 21.0 mph33.8 kmh 29.36 in994.2 mb 0.00 in0.0 mm 0.00 in0.0 mm 0.00 in0.0 mm
03:21 AM 45.6°F7.6°C 40.1°F4.5°C 81% 19.0 mph NW30.6 kmh NW 21.0 mph33.8 kmh 29.36 in994.2 mb 0.00 in0.0 mm 0.00 in0.0 mm 0.00 in0.0 mm
03:20 AM 45.8°F7.7°C 40.0°F4.4°C 80% 18.4 mph NW29.6 kmh NW 23.0 mph37.0 kmh 29.36 in994.2 mb 0.00 in0.0 mm 0.00 in0.0 mm 0.00 in0.0 mm
03:19 AM 45.8°F7.7°C 40.0°F4.4°C 80% 20.7 mph NW33.3 kmh NW 26.0 mph41.8 kmh 29.37 in994.6 mb 0.00 in0.0 mm 0.00 in0.0 mm 0.00 in0.0 mm
03:18 AM 45.8°F7.7°C 39.7°F4.3°C 79% 22.9 mph NW36.9 kmh NW 26.0 mph41.8 kmh 29.37 in994.6 mb 0.00 in0.0 mm 0.00 in0.0 mm 0.00 in0.0 mm
03:17 AM 45.7°F7.6°C 39.9°F4.4°C 80% 20.4 mph NW32.8 kmh NW 24.0 mph38.6 kmh 29.37 in994.6 mb 0.00 in0.0 mm 0.00 in0.0 mm 0.00 in0.0 mm
03:16 AM 45.7°F7.6°C 39.9°F4.4°C 80% 16.2 mph NW26.1 kmh NW 22.0 mph35.4 kmh 29.37 in994.6 mb 0.00 in0.0 mm 0.00 in0.0 mm 0.00 in0.0 mm
03:15 AM 45.7°F7.6°C 39.9°F4.4°C 80% 18.8 mph NW30.3 kmh NW 22.0 mph35.4 kmh 29.37 in994.6 mb 0.00 in0.0 mm 0.00 in0.0 mm 0.00 in0.0 mm
03:14 AM 45.6°F7.6°C 39.8°F4.3°C 80% 18.7 mph NW30.1 kmh NW 21.0 mph33.8 kmh 29.37 in994.6 mb 0.00 in0.0 mm 0.00 in0.0 mm 0.00 in0.0 mm
03:13 AM 45.6°F7.6°C 39.8°F4.3°C 80% 18.8 mph NW30.3 kmh NW 23.0 mph37.0 kmh 29.37 in994.6 mb 0.00 in0.0 mm 0.00 in0.0 mm 0.00 in0.0 mm
03:12 AM 45.6°F7.6°C 39.8°F4.3°C 80% 19.3 mph NW31.1 kmh NW 23.0 mph37.0 kmh 29.37 in994.6 mb 0.00 in0.0 mm 0.00 in0.0 mm 0.00 in0.0 mm
03:11 AM 45.5°F7.5°C 40.0°F4.4°C 81% 19.3 mph NW31.1 kmh NW 23.0 mph37.0 kmh 29.36 in994.2 mb 0.00 in0.0 mm 0.00 in0.0 mm 0.00 in0.0 mm
03:10 AM 45.5°F7.5°C 39.7°F4.3°C 80% 20.1 mph NW32.3 kmh NW 23.0 mph37.0 kmh 29.37 in994.6 mb 0.00 in0.0 mm 0.00 in0.0 mm 0.00 in0.0 mm
03:09 AM 45.4°F7.4°C 39.9°F4.4°C 81% 19.2 mph WNW30.9 kmh WNW 22.0 mph35.4 kmh 29.37 in994.6 mb 0.00 in0.0 mm 0.00 in0.0 mm 0.00 in0.0 mm
03:08 AM 45.5°F7.5°C 40.3°F4.6°C 82% 18.6 mph WNW29.9 kmh WNW 21.0 mph33.8 kmh 29.37 in994.6 mb 0.00 in0.0 mm 0.00 in0.0 mm 0.00 in0.0 mm
03:07 AM 45.4°F7.4°C 40.2°F4.6°C 82% 17.6 mph WNW28.3 kmh WNW 21.0 mph33.8 kmh 29.37 in994.6 mb 0.00 in0.0 mm 0.00 in0.0 mm 0.00 in0.0 mm
03:06 AM 45.4°F7.4°C 39.9°F4.4°C 81% 18.4 mph NW29.6 kmh NW 23.0 mph37.0 kmh 29.37 in994.6 mb 0.00 in0.0 mm 0.00 in0.0 mm 0.00 in0.0 mm
03:05 AM 45.3°F7.4°C 39.8°F4.3°C 81% 20.2 mph WNW32.5 kmh WNW 23.0 mph37.0 kmh 29.37 in994.6 mb 0.00 in0.0 mm 0.00 in0.0 mm 0.00 in0.0 mm
03:04 AM 45.3°F7.4°C 39.8°F4.3°C 81% 20.5 mph WNW33.0 kmh WNW 23.0 mph37.0 kmh 29.37 in994.6 mb 0.00 in0.0 mm 0.00 in0.0 mm 0.00 in0.0 mm
03:03 AM 45.3°F7.4°C 40.1°F4.5°C 82% 16.6 mph WNW26.7 kmh WNW 21.0 mph33.8 kmh 29.37 in994.6 mb 0.00 in0.0 mm 0.00 in0.0 mm 0.00 in0.0 mm
03:02 AM 45.4°F7.4°C 39.9°F4.4°C 81% 17.8 mph WNW28.6 kmh WNW 23.0 mph37.0 kmh 29.37 in994.6 mb 0.00 in0.0 mm 0.00 in0.0 mm 0.00 in0.0 mm
03:01 AM 45.4°F7.4°C 39.9°F4.4°C 81% 20.4 mph WNW32.8 kmh WNW 23.0 mph37.0 kmh 29.37 in994.6 mb 0.00 in0.0 mm 0.00 in0.0 mm 0.00 in0.0 mm
03:00 AM 45.4°F7.4°C 39.9°F4.4°C 81% 19.9 mph WNW32.0 kmh WNW 23.0 mph37.0 kmh 29.36 in994.2 mb 0.00 in0.0 mm 0.00 in0.0 mm 0.00 in0.0 mm
02:59 AM 45.3°F7.4°C 39.8°F4.3°C 81% 21.0 mph WNW33.8 kmh WNW 24.0 mph38.6 kmh 29.36 in994.2 mb 0.00 in0.0 mm 0.00 in0.0 mm 0.00 in0.0 mm
02:58 AM 45.3°F7.4°C 39.8°F4.3°C 81% 20.2 mph WNW32.5 kmh WNW 25.0 mph40.2 kmh 29.36 in994.2 mb 0.00 in0.0 mm 0.00 in0.0 mm 0.00 in0.0 mm
02:57 AM 45.3°F7.4°C 40.1°F4.5°C 82% 20.6 mph WNW33.2 kmh WNW 30.0 mph48.3 kmh 29.36 in994.2 mb 0.00 in0.0 mm 0.00 in0.0 mm 0.00 in0.0 mm
02:56 AM 45.3°F7.4°C 40.1°F4.5°C 82% 21.2 mph WNW34.1 kmh WNW 30.0 mph48.3 kmh 29.36 in994.2 mb 0.00 in0.0 mm 0.00 in0.0 mm 0.00 in0.0 mm
02:55 AM 45.3°F7.4°C 40.1°F4.5°C 82% 22.3 mph WNW35.9 kmh WNW 26.0 mph41.8 kmh 29.36 in994.2 mb 0.00 in0.0 mm 0.00 in0.0 mm 0.00 in0.0 mm
02:54 AM 45.2°F7.3°C 40.0°F4.4°C 82% 20.1 mph WNW32.3 kmh WNW 24.0 mph38.6 kmh 29.36 in994.2 mb 0.00 in0.0 mm 0.00 in0.0 mm 0.00 in0.0 mm
02:53 AM 45.3°F7.4°C 40.1°F4.5°C 82% 20.7 mph WNW33.3 kmh WNW 24.0 mph38.6 kmh 29.36 in994.2 mb 0.00 in0.0 mm 0.00 in0.0 mm 0.00 in0.0 mm
02:52 AM 45.2°F7.3°C 40.0°F4.4°C 82% 21.0 mph WNW33.8 kmh WNW 28.0 mph45.1 kmh 29.36 in994.2 mb 0.00 in0.0 mm 0.00 in0.0 mm 0.00 in0.0 mm
02:51 AM 45.3°F7.4°C 40.1°F4.5°C 82% 22.6 mph WNW36.4 kmh WNW 28.0 mph45.1 kmh 29.36 in994.2 mb 0.00 in0.0 mm 0.00 in0.0 mm 0.00 in0.0 mm
02:50 AM 45.2°F7.3°C 40.0°F4.4°C 82% 21.6 mph WNW34.8 kmh WNW 27.0 mph43.5 kmh 29.36 in994.2 mb 0.00 in0.0 mm 0.00 in0.0 mm 0.00 in0.0 mm
02:49 AM 45.2°F7.3°C 40.0°F4.4°C 82% 21.0 mph WNW33.8 kmh WNW 26.0 mph41.8 kmh 29.36 in994.2 mb 0.00 in0.0 mm 0.00 in0.0 mm 0.00 in0.0 mm
02:48 AM 45.2°F7.3°C 40.0°F4.4°C 82% 22.1 mph WNW35.6 kmh WNW 26.0 mph41.8 kmh 29.36 in994.2 mb 0.00 in0.0 mm 0.00 in0.0 mm 0.00 in0.0 mm
02:47 AM 45.2°F7.3°C 40.0°F4.4°C 82% 21.1 mph W34.0 kmh W 26.0 mph41.8 kmh 29.36 in994.2 mb 0.00 in0.0 mm 0.00 in0.0 mm 0.00 in0.0 mm
02:46 AM 45.2°F7.3°C 40.3°F4.6°C 83% 22.2 mph WNW35.7 kmh WNW 26.0 mph41.8 kmh 29.36 in994.2 mb 0.00 in0.0 mm 0.00 in0.0 mm 0.00 in0.0 mm
02:45 AM 45.2°F7.3°C 40.0°F4.4°C 82% 21.0 mph WNW33.8 kmh WNW 28.0 mph45.1 kmh 29.36 in994.2 mb 0.00 in0.0 mm 0.00 in0.0 mm 0.00 in0.0 mm
02:44 AM 45.2°F7.3°C 40.0°F4.4°C 82% 22.6 mph WNW36.4 kmh WNW 28.0 mph45.1 kmh 29.36 in994.2 mb 0.00 in0.0 mm 0.00 in0.0 mm 0.00 in0.0 mm
02:43 AM 45.2°F7.3°C 40.0°F4.4°C 82% 21.7 mph W34.9 kmh W 27.0 mph43.5 kmh 29.36 in994.2 mb 0.00 in0.0 mm 0.00 in0.0 mm 0.00 in0.0 mm
02:42 AM 45.2°F7.3°C 40.0°F4.4°C 82% 21.5 mph W34.6 kmh W 27.0 mph43.5 kmh 29.36 in994.2 mb 0.00 in0.0 mm 0.00 in0.0 mm 0.00 in0.0 mm
02:41 AM 45.2°F7.3°C 40.3°F4.6°C 83% 19.6 mph W31.5 kmh W 27.0 mph43.5 kmh 29.37 in994.6 mb 0.00 in0.0 mm 0.00 in0.0 mm 0.00 in0.0 mm
02:40 AM 45.1°F7.3°C 39.9°F4.4°C 82% 23.4 mph W37.7 kmh W 27.0 mph43.5 kmh 29.37 in994.6 mb 0.00 in0.0 mm 0.00 in0.0 mm 0.00 in0.0 mm
02:39 AM 45.1°F7.3°C 39.9°F4.4°C 82% 21.0 mph W33.8 kmh W 25.0 mph40.2 kmh 29.37 in994.6 mb 0.00 in0.0 mm 0.00 in0.0 mm 0.00 in0.0 mm
02:38 AM 45.1°F7.3°C 39.9°F4.4°C 82% 17.9 mph W28.8 kmh W 23.0 mph37.0 kmh 29.37 in994.6 mb 0.00 in0.0 mm 0.00 in0.0 mm 0.00 in0.0 mm
02:37 AM 45.1°F7.3°C 39.9°F4.4°C 82% 19.3 mph WNW31.1 kmh WNW 24.0 mph38.6 kmh 29.37 in994.6 mb 0.00 in0.0 mm 0.00 in0.0 mm 0.00 in0.0 mm
02:36 AM 45.1°F7.3°C 39.6°F4.2°C 81% 21.4 mph WNW34.4 kmh WNW 24.0 mph38.6 kmh 29.37 in994.6 mb 0.00 in0.0 mm 0.00 in0.0 mm 0.00 in0.0 mm
02:35 AM 45.2°F7.3°C 39.7°F4.3°C 81% 18.8 mph W30.3 kmh W 24.0 mph38.6 kmh 29.37 in994.6 mb 0.00 in0.0 mm 0.00 in0.0 mm 0.00 in0.0 mm
02:34 AM 45.2°F7.3°C 39.7°F4.3°C 81% 19.1 mph WNW30.7 kmh WNW 24.0 mph38.6 kmh 29.37 in994.6 mb 0.00 in0.0 mm 0.00 in0.0 mm 0.00 in0.0 mm
02:33 AM 45.2°F7.3°C 39.4°F4.1°C 80% 20.2 mph WNW32.5 kmh WNW 24.0 mph38.6 kmh 29.37 in994.6 mb 0.00 in0.0 mm 0.00 in0.0 mm 0.00 in0.0 mm
02:32 AM 45.2°F7.3°C 39.7°F4.3°C 81% 20.9 mph W33.6 kmh W 25.0 mph40.2 kmh 29.37 in994.6 mb 0.00 in0.0 mm 0.00 in0.0 mm 0.00 in0.0 mm
02:31 AM 45.2°F7.3°C 39.7°F4.3°C 81% 20.9 mph W33.6 kmh W 25.0 mph40.2 kmh 29.37 in994.6 mb 0.00 in0.0 mm 0.00 in0.0 mm 0.00 in0.0 mm
02:30 AM 45.3°F7.4°C 39.5°F4.2°C 80% 20.7 mph WNW33.3 kmh WNW 24.0 mph38.6 kmh 29.37 in994.6 mb 0.00 in0.0 mm 0.00 in0.0 mm 0.00 in0.0 mm
02:29 AM 45.3°F7.4°C 39.8°F4.3°C 81% 20.8 mph WNW33.5 kmh WNW 24.0 mph38.6 kmh 29.37 in994.6 mb 0.00 in0.0 mm 0.00 in0.0 mm 0.00 in0.0 mm
02:28 AM 45.3°F7.4°C 39.8°F4.3°C 81% 19.1 mph WNW30.7 kmh WNW 23.0 mph37.0 kmh 29.37 in994.6 mb 0.00 in0.0 mm 0.00 in0.0 mm 0.00 in0.0 mm
02:27 AM 45.4°F7.4°C 39.6°F4.2°C 80% 19.5 mph WNW31.4 kmh WNW 24.0 mph38.6 kmh 29.37 in994.6 mb 0.00 in0.0 mm 0.00 in0.0 mm 0.00 in0.0 mm
02:26 AM 45.5°F7.5°C 39.7°F4.3°C 80% 20.6 mph WNW33.2 kmh WNW 26.0 mph41.8 kmh 29.37 in994.6 mb 0.00 in0.0 mm 0.00 in0.0 mm 0.00 in0.0 mm
02:25 AM 45.5°F7.5°C 39.7°F4.3°C 80% 22.2 mph WNW35.7 kmh WNW 27.0 mph43.5 kmh 29.37 in994.6 mb 0.00 in0.0 mm 0.00 in0.0 mm 0.00 in0.0 mm
02:24 AM 45.5°F7.5°C 39.7°F4.3°C 80% 22.7 mph WNW36.5 kmh WNW 28.0 mph45.1 kmh 29.37 in994.6 mb 0.00 in0.0 mm 0.00 in0.0 mm 0.00 in0.0 mm
02:23 AM 45.4°F7.4°C 39.9°F4.4°C 81% 23.4 mph WNW37.7 kmh WNW 28.0 mph45.1 kmh 29.37 in994.6 mb 0.00 in0.0 mm 0.00 in0.0 mm 0.00 in0.0 mm
02:22 AM 45.3°F7.4°C 40.1°F4.5°C 82% 20.7 mph WNW33.3 kmh WNW 24.0 mph38.6 kmh 29.37 in994.6 mb 0.00 in0.0 mm 0.00 in0.0 mm 0.00 in0.0 mm
02:21 AM 45.4°F7.4°C 39.9°F4.4°C 81% 21.1 mph WNW34.0 kmh WNW 25.0 mph40.2 kmh 29.37 in994.6 mb 0.00 in0.0 mm 0.00 in0.0 mm 0.00 in0.0 mm
02:20 AM 45.3°F7.4°C 39.8°F4.3°C 81% 20.9 mph WNW33.6 kmh WNW 25.0 mph40.2 kmh 29.37 in994.6 mb 0.00 in0.0 mm 0.00 in0.0 mm 0.00 in0.0 mm
02:19 AM 45.2°F7.3°C 40.0°F4.4°C 82% 20.2 mph WNW32.5 kmh WNW 24.0 mph38.6 kmh 29.37 in994.6 mb 0.00 in0.0 mm 0.00 in0.0 mm 0.00 in0.0 mm
02:18 AM 45.3°F7.4°C 39.8°F4.3°C 81% 19.7 mph WNW31.7 kmh WNW 23.0 mph37.0 kmh 29.37 in994.6 mb 0.00 in0.0 mm 0.00 in0.0 mm 0.00 in0.0 mm
02:17 AM 45.3°F7.4°C 40.1°F4.5°C 82% 17.8 mph WNW28.6 kmh WNW 23.0 mph37.0 kmh 29.38 in994.9 mb 0.00 in0.0 mm 0.00 in0.0 mm 0.00 in0.0 mm
02:16 AM 45.3°F7.4°C 39.8°F4.3°C 81% 18.6 mph WNW29.9 kmh WNW 25.0 mph40.2 kmh 29.38 in994.9 mb 0.00 in0.0 mm 0.00 in0.0 mm 0.00 in0.0 mm
02:15 AM 45.3°F7.4°C 40.1°F4.5°C 82% 22.2 mph WNW35.7 kmh WNW 27.0 mph43.5 kmh 29.38 in994.9 mb 0.00 in0.0 mm 0.00 in0.0 mm 0.00 in0.0 mm
02:14 AM 45.3°F7.4°C 39.8°F4.3°C 81% 20.6 mph WNW33.2 kmh WNW 27.0 mph43.5 kmh 29.38 in994.9 mb 0.00 in0.0 mm 0.00 in0.0 mm 0.00 in0.0 mm
02:13 AM 45.3°F7.4°C 40.1°F4.5°C 82% 21.4 mph WNW34.4 kmh WNW 24.0 mph38.6 kmh 29.38 in994.9 mb 0.00 in0.0 mm 0.00 in0.0 mm 0.00 in0.0 mm
02:12 AM 45.2°F7.3°C 40.0°F4.4°C 82% 19.5 mph WNW31.4 kmh WNW 25.0 mph40.2 kmh 29.38 in994.9 mb 0.00 in0.0 mm 0.00 in0.0 mm 0.00 in0.0 mm
02:11 AM 45.2°F7.3°C 40.0°F4.4°C 82% 19.6 mph WNW31.5 kmh WNW 25.0 mph40.2 kmh 29.38 in994.9 mb 0.00 in0.0 mm 0.00 in0.0 mm 0.00 in0.0 mm
02:10 AM 45.2°F7.3°C 40.0°F4.4°C 82% 20.3 mph WNW32.7 kmh WNW 24.0 mph38.6 kmh 29.38 in994.9 mb 0.00 in0.0 mm 0.00 in0.0 mm 0.00 in0.0 mm
02:09 AM 45.2°F7.3°C 40.0°F4.4°C 82% 18.9 mph WNW30.4 kmh WNW 25.0 mph40.2 kmh 29.38 in994.9 mb 0.00 in0.0 mm 0.00 in0.0 mm 0.00 in0.0 mm
02:08 AM 45.2°F7.3°C 40.0°F4.4°C 82% 22.2 mph W35.7 kmh W 25.0 mph40.2 kmh 29.38 in994.9 mb 0.00 in0.0 mm 0.00 in0.0 mm 0.00 in0.0 mm
02:07 AM 45.2°F7.3°C 40.0°F4.4°C 82% 21.1 mph WNW34.0 kmh WNW 26.0 mph41.8 kmh 29.38 in994.9 mb 0.00 in0.0 mm 0.00 in0.0 mm 0.00 in0.0 mm
02:06 AM 45.3°F7.4°C 40.1°F4.5°C 82% 22.2 mph WNW35.7 kmh WNW 28.0 mph45.1 kmh 29.38 in994.9 mb 0.00 in0.0 mm 0.00 in0.0 mm 0.00 in0.0 mm
02:05 AM 45.4°F7.4°C 40.2°F4.6°C 82% 22.7 mph WNW36.5 kmh WNW 30.0 mph48.3 kmh 29.39 in995.3 mb 0.00 in0.0 mm 0.00 in0.0 mm 0.00 in0.0 mm
02:04 AM 45.2°F7.3°C 40.0°F4.4°C 82% 24.5 mph WNW39.4 kmh WNW 31.0 mph49.9 kmh 29.39 in995.3 mb 0.00 in0.0 mm 0.00 in0.0 mm 0.00 in0.0 mm
02:03 AM 45.2°F7.3°C 39.7°F4.3°C 81% 25.3 mph WNW40.7 kmh WNW 34.0 mph54.7 kmh 29.39 in995.3 mb 0.00 in0.0 mm 0.00 in0.0 mm 0.00 in0.0 mm
02:02 AM 45.1°F7.3°C 40.3°F4.6°C 83% 26.2 mph WNW42.2 kmh WNW 34.0 mph54.7 kmh 29.39 in995.3 mb 0.00 in0.0 mm 0.00 in0.0 mm 0.00 in0.0 mm
02:01 AM 45.1°F7.3°C 39.9°F4.4°C 82% 22.9 mph W36.9 kmh W 30.0 mph48.3 kmh 29.38 in994.9 mb 0.00 in0.0 mm 0.00 in0.0 mm 0.00 in0.0 mm
02:00 AM 45.0°F7.2°C 39.8°F4.3°C 82% 25.8 mph W41.5 kmh W 30.0 mph48.3 kmh 29.38 in994.9 mb 0.00 in0.0 mm 0.00 in0.0 mm 0.00 in0.0 mm
01:59 AM 45.0°F7.2°C 39.8°F4.3°C 82% 26.3 mph W42.3 kmh W 30.0 mph48.3 kmh 29.38 in994.9 mb 0.00 in0.0 mm 0.00 in0.0 mm 0.00 in0.0 mm
01:58 AM 44.9°F7.2°C 40.1°F4.5°C 83% 22.7 mph W36.5 kmh W 30.0 mph48.3 kmh 29.38 in994.9 mb 0.00 in0.0 mm 0.00 in0.0 mm 0.00 in0.0 mm
01:57 AM 44.9°F7.2°C 40.1°F4.5°C 83% 25.3 mph W40.7 kmh W 30.0 mph48.3 kmh 29.38 in994.9 mb 0.00 in0.0 mm 0.00 in0.0 mm 0.00 in0.0 mm
01:56 AM 45.0°F7.2°C 40.2°F4.6°C 83% 23.8 mph W38.3 kmh W 28.0 mph45.1 kmh 29.38 in994.9 mb 0.00 in0.0 mm 0.00 in0.0 mm 0.00 in0.0 mm
01:55 AM 44.9°F7.2°C 39.7°F4.3°C 82% 22.9 mph W36.9 kmh W 26.0 mph41.8 kmh 29.38 in994.9 mb 0.00 in0.0 mm 0.00 in0.0 mm 0.00 in0.0 mm
01:54 AM 45.0°F7.2°C 39.8°F4.3°C 82% 19.4 mph W31.2 kmh W 23.0 mph37.0 kmh 29.38 in994.9 mb 0.00 in0.0 mm 0.00 in0.0 mm 0.00 in0.0 mm
01:53 AM 45.1°F7.3°C 39.9°F4.4°C 82% 18.8 mph W30.3 kmh W 30.0 mph48.3 kmh 29.38 in994.9 mb 0.00 in0.0 mm 0.00 in0.0 mm 0.00 in0.0 mm
01:52 AM 45.1°F7.3°C 39.9°F4.4°C 82% 23.9 mph WNW38.5 kmh WNW 30.0 mph48.3 kmh 29.39 in995.3 mb 0.00 in0.0 mm 0.00 in0.0 mm 0.00 in0.0 mm
01:51 AM 45.1°F7.3°C 39.9°F4.4°C 82% 25.4 mph W40.9 kmh W 33.0 mph53.1 kmh 29.38 in994.9 mb 0.00 in0.0 mm 0.00 in0.0 mm 0.00 in0.0 mm
01:50 AM 45.1°F7.3°C 39.9°F4.4°C 82% 27.6 mph W44.4 kmh W 33.0 mph53.1 kmh 29.38 in994.9 mb 0.00 in0.0 mm 0.00 in0.0 mm 0.00 in0.0 mm
01:49 AM 45.0°F7.2°C 39.8°F4.3°C 82% 24.3 mph W39.1 kmh W 29.0 mph46.7 kmh 29.38 in994.9 mb 0.00 in0.0 mm 0.00 in0.0 mm 0.00 in0.0 mm
01:48 AM 45.0°F7.2°C 39.8°F4.3°C 82% 23.3 mph W37.5 kmh W 28.0 mph45.1 kmh 29.39 in995.3 mb 0.00 in0.0 mm 0.00 in0.0 mm 0.00 in0.0 mm
01:47 AM 45.1°F7.3°C 40.3°F4.6°C 83% 20.7 mph W33.3 kmh W 27.0 mph43.5 kmh 29.39 in995.3 mb 0.00 in0.0 mm 0.00 in0.0 mm 0.00 in0.0 mm
01:46 AM 45.1°F7.3°C 39.9°F4.4°C 82% 22.1 mph W35.6 kmh W 26.0 mph41.8 kmh 29.39 in995.3 mb 0.00 in0.0 mm 0.00 in0.0 mm 0.00 in0.0 mm
01:45 AM 45.2°F7.3°C 40.0°F4.4°C 82% 22.9 mph W36.9 kmh W 28.0 mph45.1 kmh 29.39 in995.3 mb 0.00 in0.0 mm 0.00 in0.0 mm 0.00 in0.0 mm
01:44 AM 45.2°F7.3°C 40.0°F4.4°C 82% 22.8 mph W36.7 kmh W 28.0 mph45.1 kmh 29.39 in995.3 mb 0.00 in0.0 mm 0.00 in0.0 mm 0.00 in0.0 mm
01:43 AM 45.3°F7.4°C 39.8°F4.3°C 81% 23.3 mph W37.5 kmh W 25.0 mph40.2 kmh 29.39 in995.3 mb 0.00 in0.0 mm 0.00 in0.0 mm 0.00 in0.0 mm
01:42 AM 45.3°F7.4°C 40.1°F4.5°C 82% 19.8 mph W31.9 kmh W 30.0 mph48.3 kmh 29.39 in995.3 mb 0.00 in0.0 mm 0.00 in0.0 mm 0.00 in0.0 mm
01:41 AM 45.4°F7.4°C 39.9°F4.4°C 81% 24.8 mph W39.9 kmh W 30.0 mph48.3 kmh 29.39 in995.3 mb 0.00 in0.0 mm 0.00 in0.0 mm 0.00 in0.0 mm
01:40 AM 45.4°F7.4°C 39.9°F4.4°C 81% 24.5 mph W39.4 kmh W 28.0 mph45.1 kmh 29.39 in995.3 mb 0.00 in0.0 mm 0.00 in0.0 mm 0.00 in0.0 mm
01:39 AM 45.2°F7.3°C 39.7°F4.3°C 81% 24.6 mph W39.6 kmh W 28.0 mph45.1 kmh 29.39 in995.3 mb 0.00 in0.0 mm 0.00 in0.0 mm 0.00 in0.0 mm
01:38 AM 45.4°F7.4°C 39.9°F4.4°C 81% 24.0 mph W38.6 kmh W 28.0 mph45.1 kmh 29.38 in994.9 mb 0.00 in0.0 mm 0.00 in0.0 mm 0.00 in0.0 mm
01:37 AM 45.4°F7.4°C 39.9°F4.4°C 81% 22.4 mph W36.0 kmh W 30.0 mph48.3 kmh 29.38 in994.9 mb 0.00 in0.0 mm 0.00 in0.0 mm 0.00 in0.0 mm
01:36 AM 45.5°F7.5°C 40.0°F4.4°C 81% 25.4 mph W40.9 kmh W 30.0 mph48.3 kmh 29.38 in994.9 mb 0.00 in0.0 mm 0.00 in0.0 mm 0.00 in0.0 mm
01:35 AM 45.6°F7.6°C 39.8°F4.3°C 80% 25.3 mph W40.7 kmh W 30.0 mph48.3 kmh 29.38 in994.9 mb 0.00 in0.0 mm 0.00 in0.0 mm 0.00 in0.0 mm
01:34 AM 45.6°F7.6°C 39.8°F4.3°C 80% 23.2 mph W37.3 kmh W 30.0 mph48.3 kmh 29.39 in995.3 mb 0.00 in0.0 mm 0.00 in0.0 mm 0.00 in0.0 mm
01:33 AM 45.6°F7.6°C 39.8°F4.3°C 80% 25.2 mph W40.6 kmh W 30.0 mph48.3 kmh 29.39 in995.3 mb 0.00 in0.0 mm 0.00 in0.0 mm 0.00 in0.0 mm
01:32 AM 45.7°F7.6°C 39.9°F4.4°C 80% 26.2 mph WNW42.2 kmh WNW 31.0 mph49.9 kmh 29.39 in995.3 mb 0.00 in0.0 mm 0.00 in0.0 mm 0.00 in0.0 mm
01:31 AM 45.8°F7.7°C 39.7°F4.3°C 79% 27.5 mph W44.3 kmh W 31.0 mph49.9 kmh 29.39 in995.3 mb 0.00 in0.0 mm 0.00 in0.0 mm 0.00 in0.0 mm
01:30 AM 45.7°F7.6°C 39.9°F4.4°C 80% 26.2 mph WNW42.2 kmh WNW 36.0 mph57.9 kmh 29.39 in995.3 mb 0.00 in0.0 mm 0.00 in0.0 mm 0.00 in0.0 mm
01:29 AM 45.6°F7.6°C 39.8°F4.3°C 80% 29.3 mph W47.2 kmh W 36.0 mph57.9 kmh 29.39 in995.3 mb 0.00 in0.0 mm 0.00 in0.0 mm 0.00 in0.0 mm
01:28 AM 45.5°F7.5°C 40.0°F4.4°C 81% 25.8 mph W41.5 kmh W 35.0 mph56.3 kmh 29.39 in995.3 mb 0.00 in0.0 mm 0.00 in0.0 mm 0.00 in0.0 mm
01:27 AM 45.4°F7.4°C 39.9°F4.4°C 81% 24.8 mph W39.9 kmh W 29.0 mph46.7 kmh 29.39 in995.3 mb 0.00 in0.0 mm 0.00 in0.0 mm 0.00 in0.0 mm
01:26 AM 45.3°F7.4°C 40.1°F4.5°C 82% 25.9 mph W41.7 kmh W 29.0 mph46.7 kmh 29.39 in995.3 mb 0.00 in0.0 mm 0.00 in0.0 mm 0.00 in0.0 mm
01:25 AM 45.2°F7.3°C 40.0°F4.4°C 82% 24.0 mph W38.6 kmh W 29.0 mph46.7 kmh 29.39 in995.3 mb 0.00 in0.0 mm 0.00 in0.0 mm 0.00 in0.0 mm
01:24 AM 45.2°F7.3°C 40.3°F4.6°C 83% 20.0 mph W32.2 kmh W 27.0 mph43.5 kmh 29.39 in995.3 mb 0.00 in0.0 mm 0.00 in0.0 mm 0.00 in0.0 mm
01:23 AM 45.1°F7.3°C 40.3°F4.6°C 83% 23.4 mph W37.7 kmh W 27.0 mph43.5 kmh 29.39 in995.3 mb 0.00 in0.0 mm 0.00 in0.0 mm 0.00 in0.0 mm
01:22 AM 45.1°F7.3°C 39.9°F4.4°C 82% 21.9 mph W35.2 kmh W 30.0 mph48.3 kmh 29.39 in995.3 mb 0.00 in0.0 mm 0.00 in0.0 mm 0.00 in0.0 mm
01:21 AM 45.0°F7.2°C 40.2°F4.6°C 83% 20.6 mph W33.2 kmh W 30.0 mph48.3 kmh 29.39 in995.3 mb 0.00 in0.0 mm 0.00 in0.0 mm 0.00 in0.0 mm
01:20 AM 45.0°F7.2°C 40.2°F4.6°C 83% 18.2 mph W29.3 kmh W 23.0 mph37.0 kmh 29.39 in995.3 mb 0.00 in0.0 mm 0.00 in0.0 mm 0.00 in0.0 mm
01:19 AM 45.0°F7.2°C 40.2°F4.6°C 83% 18.9 mph W30.4 kmh W 24.0 mph38.6 kmh 29.39 in995.3 mb 0.00 in0.0 mm 0.00 in0.0 mm 0.00 in0.0 mm
01:18 AM 45.0°F7.2°C 40.2°F4.6°C 83% 20.2 mph W32.5 kmh W 24.0 mph38.6 kmh 29.39 in995.3 mb 0.00 in0.0 mm 0.00 in0.0 mm 0.00 in0.0 mm
01:17 AM 45.0°F7.2°C 40.2°F4.6°C 83% 19.6 mph W31.5 kmh W 25.0 mph40.2 kmh 29.39 in995.3 mb 0.00 in0.0 mm 0.00 in0.0 mm 0.00 in0.0 mm
01:16 AM 45.0°F7.2°C 40.2°F4.6°C 83% 20.3 mph W32.7 kmh W 25.0 mph40.2 kmh 29.39 in995.3 mb 0.00 in0.0 mm 0.00 in0.0 mm 0.00 in0.0 mm
01:15 AM 45.0°F7.2°C 40.2°F4.6°C 83% 20.8 mph W33.5 kmh W 24.0 mph38.6 kmh 29.39 in995.3 mb 0.00 in0.0 mm 0.00 in0.0 mm 0.00 in0.0 mm
01:14 AM 45.0°F7.2°C 40.2°F4.6°C 83% 17.0 mph W27.4 kmh W 24.0 mph38.6 kmh 29.39 in995.3 mb 0.00 in0.0 mm 0.00 in0.0 mm 0.00 in0.0 mm
01:13 AM 45.0°F7.2°C 40.2°F4.6°C 83% 19.9 mph W32.0 kmh W 25.0 mph40.2 kmh 29.39 in995.3 mb 0.00 in0.0 mm 0.00 in0.0 mm 0.00 in0.0 mm
01:12 AM 45.0°F7.2°C 40.2°F4.6°C 83% 21.3 mph W34.3 kmh W 25.0 mph40.2 kmh 29.39 in995.3 mb 0.00 in0.0 mm 0.00 in0.0 mm 0.00 in0.0 mm
01:11 AM 45.0°F7.2°C 40.2°F4.6°C 83% 18.4 mph W29.6 kmh W 23.0 mph37.0 kmh 29.40 in995.6 mb 0.00 in0.0 mm 0.00 in0.0 mm 0.00 in0.0 mm
01:10 AM 45.0°F7.2°C 40.2°F4.6°C 83% 19.7 mph W31.7 kmh W 26.0 mph41.8 kmh 29.39 in995.3 mb 0.00 in0.0 mm 0.00 in0.0 mm 0.00 in0.0 mm
01:09 AM 45.0°F7.2°C 40.2°F4.6°C 83% 21.7 mph W34.9 kmh W 26.0 mph41.8 kmh 29.40 in995.6 mb 0.00 in0.0 mm 0.00 in0.0 mm 0.00 in0.0 mm
01:08 AM 45.1°F7.3°C 40.3°F4.6°C 83% 18.6 mph W29.9 kmh W 26.0 mph41.8 kmh 29.40 in995.6 mb 0.00 in0.0 mm 0.00 in0.0 mm 0.00 in0.0 mm
01:07 AM 45.1°F7.3°C 40.3°F4.6°C 83% 22.1 mph W35.6 kmh W 26.0 mph41.8 kmh 29.40 in995.6 mb 0.00 in0.0 mm 0.00 in0.0 mm 0.00 in0.0 mm
01:06 AM 45.1°F7.3°C 40.6°F4.8°C 84% 18.8 mph W30.3 kmh W 26.0 mph41.8 kmh 29.40 in995.6 mb 0.00 in0.0 mm 0.00 in0.0 mm 0.00 in0.0 mm
01:05 AM 45.1°F7.3°C 40.3°F4.6°C 83% 20.3 mph W32.7 kmh W 26.0 mph41.8 kmh 29.40 in995.6 mb 0.00 in0.0 mm 0.00 in0.0 mm 0.00 in0.0 mm
01:04 AM 45.1°F7.3°C 40.3°F4.6°C 83% 21.0 mph W33.8 kmh W 25.0 mph40.2 kmh 29.40 in995.6 mb 0.00 in0.0 mm 0.00 in0.0 mm 0.00 in0.0 mm
01:03 AM 45.1°F7.3°C 40.6°F4.8°C 84% 20.2 mph W32.5 kmh W 25.0 mph40.2 kmh 29.40 in995.6 mb 0.00 in0.0 mm 0.00 in0.0 mm 0.00 in0.0 mm
01:02 AM 45.1°F7.3°C 40.3°F4.6°C 83% 20.8 mph W33.5 kmh W 26.0 mph41.8 kmh 29.40 in995.6 mb 0.00 in0.0 mm 0.00 in0.0 mm 0.00 in0.0 mm
01:01 AM 45.1°F7.3°C 40.6°F4.8°C 84% 21.5 mph W34.6 kmh W 26.0 mph41.8 kmh 29.40 in995.6 mb 0.00 in0.0 mm 0.00 in0.0 mm<